<?xml version="1.0" encoding="UTF-8" standalone="no" ?>
<gpx xmlns="http://www.topografix.com/GPX/1/1" xmlns:xsi="http://www.w3.org/2001/XMLSchema-instance" xsi:schemaLocation="http://www.topografix.com/GPX/1/1 http://www.topografix.com/GPX/1/1/gpx.xsd" version="1.1" creator="VisuGPX - https://www.visugpx.com">
  <metadata>
    <name>Caraveilles to Llar</name>
    <desc><![CDATA[Fine circular walk with open views.]]></desc>
  </metadata>
  <trk>
    <name><![CDATA[Move]]></name>
    <trkseg>
      <trkpt lat="42.53522" lon="2.24617">
        <ele>942</ele>
        <time>2014-11-12T08:10:31.01Z</time>
      </trkpt>
      <trkpt lat="42.53522" lon="2.2461">
        <ele>944</ele>
        <time>2014-11-12T08:10:36.53Z</time>
      </trkpt>
      <trkpt lat="42.53518" lon="2.24596">
        <ele>945</ele>
        <time>2014-11-12T08:10:48.43Z</time>
      </trkpt>
      <trkpt lat="42.53508" lon="2.24594">
        <ele>948</ele>
        <time>2014-11-12T08:11:00.43Z</time>
      </trkpt>
      <trkpt lat="42.53498" lon="2.24595">
        <ele>950</ele>
        <time>2014-11-12T08:11:13.43Z</time>
      </trkpt>
      <trkpt lat="42.5349" lon="2.24586">
        <ele>951</ele>
        <time>2014-11-12T08:11:28.43Z</time>
      </trkpt>
      <trkpt lat="42.53483" lon="2.24575">
        <ele>954</ele>
        <time>2014-11-12T08:11:41.43Z</time>
      </trkpt>
      <trkpt lat="42.53476" lon="2.24568">
        <ele>955</ele>
        <time>2014-11-12T08:11:52.43Z</time>
      </trkpt>
      <trkpt lat="42.5347" lon="2.24557">
        <ele>957</ele>
        <time>2014-11-12T08:12:00.43Z</time>
      </trkpt>
      <trkpt lat="42.53467" lon="2.24543">
        <ele>958</ele>
        <time>2014-11-12T08:12:11.43Z</time>
      </trkpt>
      <trkpt lat="42.53457" lon="2.24538">
        <ele>959</ele>
        <time>2014-11-12T08:12:21.43Z</time>
      </trkpt>
      <trkpt lat="42.53448" lon="2.24538">
        <ele>960</ele>
        <time>2014-11-12T08:12:33.43Z</time>
      </trkpt>
      <trkpt lat="42.53439" lon="2.24537">
        <ele>961</ele>
        <time>2014-11-12T08:12:41.43Z</time>
      </trkpt>
      <trkpt lat="42.53432" lon="2.24535">
        <ele>961.16</ele>
        <time>2014-11-12T08:12:49.43Z</time>
      </trkpt>
      <trkpt lat="42.53424" lon="2.24532">
        <ele>962</ele>
        <time>2014-11-12T08:12:56.43Z</time>
      </trkpt>
      <trkpt lat="42.53415" lon="2.24529">
        <ele>962</ele>
        <time>2014-11-12T08:13:05.43Z</time>
      </trkpt>
      <trkpt lat="42.53405" lon="2.24523">
        <ele>962</ele>
        <time>2014-11-12T08:13:15.43Z</time>
      </trkpt>
      <trkpt lat="42.53396" lon="2.24521">
        <ele>962</ele>
        <time>2014-11-12T08:13:24.43Z</time>
      </trkpt>
      <trkpt lat="42.53387" lon="2.24523">
        <ele>962</ele>
        <time>2014-11-12T08:13:32.43Z</time>
      </trkpt>
      <trkpt lat="42.5338" lon="2.2452">
        <ele>962</ele>
        <time>2014-11-12T08:13:38.43Z</time>
      </trkpt>
      <trkpt lat="42.53376" lon="2.24514">
        <ele>962</ele>
        <time>2014-11-12T08:13:44.43Z</time>
      </trkpt>
      <trkpt lat="42.53373" lon="2.24505">
        <ele>961</ele>
        <time>2014-11-12T08:13:50.43Z</time>
      </trkpt>
      <trkpt lat="42.53371" lon="2.24498">
        <ele>961</ele>
        <time>2014-11-12T08:13:55.43Z</time>
      </trkpt>
      <trkpt lat="42.5337" lon="2.24491">
        <ele>960</ele>
        <time>2014-11-12T08:14:00.43Z</time>
      </trkpt>
      <trkpt lat="42.53369" lon="2.24484">
        <ele>960</ele>
        <time>2014-11-12T08:14:05.43Z</time>
      </trkpt>
      <trkpt lat="42.53369" lon="2.24477">
        <ele>960</ele>
        <time>2014-11-12T08:14:09.43Z</time>
      </trkpt>
      <trkpt lat="42.53369" lon="2.24469">
        <ele>960</ele>
        <time>2014-11-12T08:14:14.43Z</time>
      </trkpt>
      <trkpt lat="42.53368" lon="2.24462">
        <ele>960</ele>
        <time>2014-11-12T08:14:19.43Z</time>
      </trkpt>
      <trkpt lat="42.53367" lon="2.24456">
        <ele>960</ele>
        <time>2014-11-12T08:14:23.43Z</time>
      </trkpt>
      <trkpt lat="42.53366" lon="2.2445">
        <ele>960</ele>
        <time>2014-11-12T08:14:27.43Z</time>
      </trkpt>
      <trkpt lat="42.53366" lon="2.24443">
        <ele>960</ele>
        <time>2014-11-12T08:14:31.43Z</time>
      </trkpt>
      <trkpt lat="42.53367" lon="2.24437">
        <ele>960</ele>
        <time>2014-11-12T08:14:35.43Z</time>
      </trkpt>
      <trkpt lat="42.53368" lon="2.2443">
        <ele>960</ele>
        <time>2014-11-12T08:14:40.43Z</time>
      </trkpt>
      <trkpt lat="42.53369" lon="2.24423">
        <ele>960</ele>
        <time>2014-11-12T08:14:45.43Z</time>
      </trkpt>
      <trkpt lat="42.5337" lon="2.24414">
        <ele>961</ele>
        <time>2014-11-12T08:14:51.43Z</time>
      </trkpt>
      <trkpt lat="42.53374" lon="2.24407">
        <ele>961.32</ele>
        <time>2014-11-12T08:14:59.43Z</time>
      </trkpt>
      <trkpt lat="42.53376" lon="2.24401">
        <ele>963</ele>
        <time>2014-11-12T08:15:05.43Z</time>
      </trkpt>
      <trkpt lat="42.53376" lon="2.24393">
        <ele>963</ele>
        <time>2014-11-12T08:15:11.43Z</time>
      </trkpt>
      <trkpt lat="42.53374" lon="2.2438">
        <ele>964</ele>
        <time>2014-11-12T08:15:24.43Z</time>
      </trkpt>
      <trkpt lat="42.53372" lon="2.24367">
        <ele>966</ele>
        <time>2014-11-12T08:15:34.43Z</time>
      </trkpt>
      <trkpt lat="42.53369" lon="2.24353">
        <ele>967</ele>
        <time>2014-11-12T08:15:44.43Z</time>
      </trkpt>
      <trkpt lat="42.53364" lon="2.2434">
        <ele>968</ele>
        <time>2014-11-12T08:15:55.43Z</time>
      </trkpt>
      <trkpt lat="42.5336" lon="2.24327">
        <ele>968</ele>
        <time>2014-11-12T08:16:04.43Z</time>
      </trkpt>
      <trkpt lat="42.53358" lon="2.24313">
        <ele>968</ele>
        <time>2014-11-12T08:16:12.43Z</time>
      </trkpt>
      <trkpt lat="42.53357" lon="2.24298">
        <ele>968</ele>
        <time>2014-11-12T08:16:22.43Z</time>
      </trkpt>
      <trkpt lat="42.53354" lon="2.24285">
        <ele>969</ele>
        <time>2014-11-12T08:16:31.43Z</time>
      </trkpt>
      <trkpt lat="42.53348" lon="2.24273">
        <ele>969</ele>
        <time>2014-11-12T08:16:41.43Z</time>
      </trkpt>
      <trkpt lat="42.53343" lon="2.2426">
        <ele>969</ele>
        <time>2014-11-12T08:16:50.43Z</time>
      </trkpt>
      <trkpt lat="42.53341" lon="2.24246">
        <ele>969</ele>
        <time>2014-11-12T08:17:00.53Z</time>
      </trkpt>
      <trkpt lat="42.53339" lon="2.24231">
        <ele>969</ele>
        <time>2014-11-12T08:17:09.53Z</time>
      </trkpt>
      <trkpt lat="42.53329" lon="2.24228">
        <ele>969</ele>
        <time>2014-11-12T08:17:21.53Z</time>
      </trkpt>
      <trkpt lat="42.53319" lon="2.24231">
        <ele>969</ele>
        <time>2014-11-12T08:17:32.53Z</time>
      </trkpt>
      <trkpt lat="42.53311" lon="2.24235">
        <ele>970</ele>
        <time>2014-11-12T08:17:45.53Z</time>
      </trkpt>
      <trkpt lat="42.53301" lon="2.24241">
        <ele>974</ele>
        <time>2014-11-12T08:18:02.53Z</time>
      </trkpt>
      <trkpt lat="42.53293" lon="2.24245">
        <ele>975</ele>
        <time>2014-11-12T08:18:16.53Z</time>
      </trkpt>
      <trkpt lat="42.53283" lon="2.24247">
        <ele>977.2599936</ele>
        <time>2014-11-12T08:18:30.53Z</time>
      </trkpt>
      <trkpt lat="42.53273" lon="2.24245">
        <ele>979</ele>
        <time>2014-11-12T08:18:44.53Z</time>
      </trkpt>
      <trkpt lat="42.53263" lon="2.24244">
        <ele>983</ele>
        <time>2014-11-12T08:18:59.53Z</time>
      </trkpt>
      <trkpt lat="42.53255" lon="2.24235">
        <ele>987</ele>
        <time>2014-11-12T08:19:33.53Z</time>
      </trkpt>
      <trkpt lat="42.53245" lon="2.24232">
        <ele>989.2599936</ele>
        <time>2014-11-12T08:19:50.53Z</time>
      </trkpt>
      <trkpt lat="42.53235" lon="2.24231">
        <ele>992</ele>
        <time>2014-11-12T08:20:03.53Z</time>
      </trkpt>
      <trkpt lat="42.53224" lon="2.2423">
        <ele>994</ele>
        <time>2014-11-12T08:20:17.53Z</time>
      </trkpt>
      <trkpt lat="42.53214" lon="2.24227">
        <ele>997</ele>
        <time>2014-11-12T08:20:33.53Z</time>
      </trkpt>
      <trkpt lat="42.53204" lon="2.24224">
        <ele>999</ele>
        <time>2014-11-12T08:20:44.53Z</time>
      </trkpt>
      <trkpt lat="42.53194" lon="2.24227">
        <ele>1000</ele>
        <time>2014-11-12T08:20:56.53Z</time>
      </trkpt>
      <trkpt lat="42.53184" lon="2.24229">
        <ele>1002</ele>
        <time>2014-11-12T08:21:09.53Z</time>
      </trkpt>
      <trkpt lat="42.53175" lon="2.24235">
        <ele>1005</ele>
        <time>2014-11-12T08:21:25.53Z</time>
      </trkpt>
      <trkpt lat="42.53166" lon="2.24242">
        <ele>1005.5199872</ele>
        <time>2014-11-12T08:21:40.53Z</time>
      </trkpt>
      <trkpt lat="42.53159" lon="2.24252">
        <ele>1009</ele>
        <time>2014-11-12T08:21:52.53Z</time>
      </trkpt>
      <trkpt lat="42.53151" lon="2.24258">
        <ele>1011</ele>
        <time>2014-11-12T08:22:03.53Z</time>
      </trkpt>
      <trkpt lat="42.53144" lon="2.24267">
        <ele>1012</ele>
        <time>2014-11-12T08:22:15.53Z</time>
      </trkpt>
      <trkpt lat="42.53139" lon="2.24268">
        <ele>1014</ele>
        <time>2014-11-12T08:22:22.53Z</time>
      </trkpt>
      <trkpt lat="42.53138" lon="2.24261">
        <ele>1015</ele>
        <time>2014-11-12T08:22:31.53Z</time>
      </trkpt>
      <trkpt lat="42.53137" lon="2.24254">
        <ele>1015</ele>
        <time>2014-11-12T08:22:38.53Z</time>
      </trkpt>
      <trkpt lat="42.53136" lon="2.24247">
        <ele>1019</ele>
        <time>2014-11-12T08:22:54.53Z</time>
      </trkpt>
      <trkpt lat="42.53132" lon="2.24239">
        <ele>1021</ele>
        <time>2014-11-12T08:23:07.53Z</time>
      </trkpt>
      <trkpt lat="42.5313" lon="2.24233">
        <ele>1021</ele>
        <time>2014-11-12T08:23:16.53Z</time>
      </trkpt>
      <trkpt lat="42.53127" lon="2.24229">
        <ele>1023</ele>
        <time>2014-11-12T08:23:24.53Z</time>
      </trkpt>
      <trkpt lat="42.53122" lon="2.24225">
        <ele>1025</ele>
        <time>2014-11-12T08:23:35.43Z</time>
      </trkpt>
      <trkpt lat="42.53124" lon="2.24218">
        <ele>1025</ele>
        <time>2014-11-12T08:30:06.43Z</time>
      </trkpt>
      <trkpt lat="42.53128" lon="2.24213">
        <ele>1025</ele>
        <time>2014-11-12T08:30:13.43Z</time>
      </trkpt>
      <trkpt lat="42.53132" lon="2.24205">
        <ele>1025</ele>
        <time>2014-11-12T08:30:19.43Z</time>
      </trkpt>
      <trkpt lat="42.53131" lon="2.24195">
        <ele>1025</ele>
        <time>2014-11-12T08:30:27.43Z</time>
      </trkpt>
      <trkpt lat="42.53132" lon="2.24188">
        <ele>1026</ele>
        <time>2014-11-12T08:30:34.43Z</time>
      </trkpt>
      <trkpt lat="42.53131" lon="2.24181">
        <ele>1027</ele>
        <time>2014-11-12T08:30:41.43Z</time>
      </trkpt>
      <trkpt lat="42.5313" lon="2.24175">
        <ele>1027</ele>
        <time>2014-11-12T08:30:47.43Z</time>
      </trkpt>
      <trkpt lat="42.53131" lon="2.24168">
        <ele>1028</ele>
        <time>2014-11-12T08:30:54.43Z</time>
      </trkpt>
      <trkpt lat="42.53129" lon="2.24161">
        <ele>1029</ele>
        <time>2014-11-12T08:31:02.43Z</time>
      </trkpt>
      <trkpt lat="42.53129" lon="2.24153">
        <ele>1029</ele>
        <time>2014-11-12T08:31:09.43Z</time>
      </trkpt>
      <trkpt lat="42.53129" lon="2.24145">
        <ele>1031</ele>
        <time>2014-11-12T08:31:17.43Z</time>
      </trkpt>
      <trkpt lat="42.53131" lon="2.24139">
        <ele>1032</ele>
        <time>2014-11-12T08:31:29.43Z</time>
      </trkpt>
      <trkpt lat="42.53137" lon="2.24142">
        <ele>1034</ele>
        <time>2014-11-12T08:31:35.43Z</time>
      </trkpt>
      <trkpt lat="42.53145" lon="2.24143">
        <ele>1036</ele>
        <time>2014-11-12T08:31:45.43Z</time>
      </trkpt>
      <trkpt lat="42.53143" lon="2.24132">
        <ele>1039</ele>
        <time>2014-11-12T08:32:05.43Z</time>
      </trkpt>
      <trkpt lat="42.5314" lon="2.24122">
        <ele>1041</ele>
        <time>2014-11-12T08:32:18.43Z</time>
      </trkpt>
      <trkpt lat="42.5314" lon="2.24115">
        <ele>1043</ele>
        <time>2014-11-12T08:32:29.43Z</time>
      </trkpt>
      <trkpt lat="42.53138" lon="2.24108">
        <ele>1044</ele>
        <time>2014-11-12T08:32:38.43Z</time>
      </trkpt>
      <trkpt lat="42.53134" lon="2.24098">
        <ele>1046</ele>
        <time>2014-11-12T08:32:46.43Z</time>
      </trkpt>
      <trkpt lat="42.53133" lon="2.24088">
        <ele>1046</ele>
        <time>2014-11-12T08:32:56.43Z</time>
      </trkpt>
      <trkpt lat="42.53138" lon="2.24086">
        <ele>1050</ele>
        <time>2014-11-12T08:33:08.43Z</time>
      </trkpt>
      <trkpt lat="42.53142" lon="2.24091">
        <ele>1050</ele>
        <time>2014-11-12T08:33:15.43Z</time>
      </trkpt>
      <trkpt lat="42.53146" lon="2.24096">
        <ele>1052</ele>
        <time>2014-11-12T08:33:23.43Z</time>
      </trkpt>
      <trkpt lat="42.53151" lon="2.241">
        <ele>1052</ele>
        <time>2014-11-12T08:33:29.43Z</time>
      </trkpt>
      <trkpt lat="42.53154" lon="2.24103">
        <ele>1054</ele>
        <time>2014-11-12T08:33:35.43Z</time>
      </trkpt>
      <trkpt lat="42.5316" lon="2.24105">
        <ele>1055</ele>
        <time>2014-11-12T08:33:42.43Z</time>
      </trkpt>
      <trkpt lat="42.53167" lon="2.24106">
        <ele>1056</ele>
        <time>2014-11-12T08:33:54.43Z</time>
      </trkpt>
      <trkpt lat="42.53167" lon="2.24099">
        <ele>1058</ele>
        <time>2014-11-12T08:34:02.43Z</time>
      </trkpt>
      <trkpt lat="42.53162" lon="2.24093">
        <ele>1060</ele>
        <time>2014-11-12T08:34:12.43Z</time>
      </trkpt>
      <trkpt lat="42.53159" lon="2.24087">
        <ele>1060.1699968</ele>
        <time>2014-11-12T08:34:20.44Z</time>
      </trkpt>
      <trkpt lat="42.53161" lon="2.2408">
        <ele>1062</ele>
        <time>2014-11-12T08:34:31.43Z</time>
      </trkpt>
      <trkpt lat="42.53165" lon="2.24077">
        <ele>1062.32</ele>
        <time>2014-11-12T08:34:40.43Z</time>
      </trkpt>
      <trkpt lat="42.5317" lon="2.24077">
        <ele>1064</ele>
        <time>2014-11-12T08:34:49.43Z</time>
      </trkpt>
      <trkpt lat="42.5317" lon="2.24069">
        <ele>1067</ele>
        <time>2014-11-12T08:35:05.43Z</time>
      </trkpt>
      <trkpt lat="42.53168" lon="2.24058">
        <ele>1069.48</ele>
        <time>2014-11-12T08:35:20.43Z</time>
      </trkpt>
      <trkpt lat="42.53165" lon="2.24049">
        <ele>1072</ele>
        <time>2014-11-12T08:35:31.43Z</time>
      </trkpt>
      <trkpt lat="42.53164" lon="2.24041">
        <ele>1072</ele>
        <time>2014-11-12T08:35:38.43Z</time>
      </trkpt>
      <trkpt lat="42.53164" lon="2.24034">
        <ele>1074</ele>
        <time>2014-11-12T08:35:45.43Z</time>
      </trkpt>
      <trkpt lat="42.53164" lon="2.24025">
        <ele>1075</ele>
        <time>2014-11-12T08:35:57.43Z</time>
      </trkpt>
      <trkpt lat="42.53164" lon="2.24017">
        <ele>1077</ele>
        <time>2014-11-12T08:36:05.43Z</time>
      </trkpt>
      <trkpt lat="42.53166" lon="2.24007">
        <ele>1078</ele>
        <time>2014-11-12T08:36:17.43Z</time>
      </trkpt>
      <trkpt lat="42.53171" lon="2.24013">
        <ele>1081</ele>
        <time>2014-11-12T08:36:31.43Z</time>
      </trkpt>
      <trkpt lat="42.53174" lon="2.24003">
        <ele>1085</ele>
        <time>2014-11-12T08:36:53.43Z</time>
      </trkpt>
      <trkpt lat="42.53173" lon="2.23994">
        <ele>1086</ele>
        <time>2014-11-12T08:37:02.43Z</time>
      </trkpt>
      <trkpt lat="42.53174" lon="2.23987">
        <ele>1087</ele>
        <time>2014-11-12T08:37:13.43Z</time>
      </trkpt>
      <trkpt lat="42.53172" lon="2.23977">
        <ele>1089</ele>
        <time>2014-11-12T08:37:26.43Z</time>
      </trkpt>
      <trkpt lat="42.5317" lon="2.23971">
        <ele>1091</ele>
        <time>2014-11-12T08:37:55.43Z</time>
      </trkpt>
      <trkpt lat="42.53172" lon="2.23963">
        <ele>1091</ele>
        <time>2014-11-12T08:42:54.53Z</time>
      </trkpt>
      <trkpt lat="42.53172" lon="2.23956">
        <ele>1093</ele>
        <time>2014-11-12T08:43:01.53Z</time>
      </trkpt>
      <trkpt lat="42.53175" lon="2.23949">
        <ele>1093</ele>
        <time>2014-11-12T08:43:08.53Z</time>
      </trkpt>
      <trkpt lat="42.53177" lon="2.23942">
        <ele>1093</ele>
        <time>2014-11-12T08:43:16.53Z</time>
      </trkpt>
      <trkpt lat="42.53179" lon="2.23933">
        <ele>1095</ele>
        <time>2014-11-12T08:43:26.53Z</time>
      </trkpt>
      <trkpt lat="42.53182" lon="2.23927">
        <ele>1098.2599936</ele>
        <time>2014-11-12T08:43:35.53Z</time>
      </trkpt>
      <trkpt lat="42.53186" lon="2.23922">
        <ele>1099</ele>
        <time>2014-11-12T08:43:44.53Z</time>
      </trkpt>
      <trkpt lat="42.53188" lon="2.23915">
        <ele>1101</ele>
        <time>2014-11-12T08:43:54.53Z</time>
      </trkpt>
      <trkpt lat="42.5319" lon="2.23907">
        <ele>1103</ele>
        <time>2014-11-12T08:44:03.53Z</time>
      </trkpt>
      <trkpt lat="42.53192" lon="2.23897">
        <ele>1105</ele>
        <time>2014-11-12T08:44:14.53Z</time>
      </trkpt>
      <trkpt lat="42.53193" lon="2.23889">
        <ele>1106</ele>
        <time>2014-11-12T08:44:21.53Z</time>
      </trkpt>
      <trkpt lat="42.53195" lon="2.23882">
        <ele>1106</ele>
        <time>2014-11-12T08:44:28.53Z</time>
      </trkpt>
      <trkpt lat="42.53197" lon="2.23875">
        <ele>1108</ele>
        <time>2014-11-12T08:44:36.28Z</time>
      </trkpt>
      <trkpt lat="42.53198" lon="2.23868">
        <ele>1110</ele>
        <time>2014-11-12T08:44:43.53Z</time>
      </trkpt>
      <trkpt lat="42.532" lon="2.23862">
        <ele>1112</ele>
        <time>2014-11-12T08:44:51.53Z</time>
      </trkpt>
      <trkpt lat="42.53202" lon="2.23855">
        <ele>1112.2599936</ele>
        <time>2014-11-12T08:45:00.53Z</time>
      </trkpt>
      <trkpt lat="42.53203" lon="2.23848">
        <ele>1113</ele>
        <time>2014-11-12T08:45:06.53Z</time>
      </trkpt>
      <trkpt lat="42.53205" lon="2.23841">
        <ele>1114</ele>
        <time>2014-11-12T08:45:13.53Z</time>
      </trkpt>
      <trkpt lat="42.53206" lon="2.23834">
        <ele>1114</ele>
        <time>2014-11-12T08:45:19.53Z</time>
      </trkpt>
      <trkpt lat="42.53207" lon="2.23827">
        <ele>1117.2599936</ele>
        <time>2014-11-12T08:45:25.53Z</time>
      </trkpt>
      <trkpt lat="42.53209" lon="2.2382">
        <ele>1118</ele>
        <time>2014-11-12T08:45:30.53Z</time>
      </trkpt>
      <trkpt lat="42.5321" lon="2.23812">
        <ele>1118</ele>
        <time>2014-11-12T08:45:37.53Z</time>
      </trkpt>
      <trkpt lat="42.53212" lon="2.23806">
        <ele>1119</ele>
        <time>2014-11-12T08:45:43.53Z</time>
      </trkpt>
      <trkpt lat="42.53213" lon="2.23799">
        <ele>1119</ele>
        <time>2014-11-12T08:45:49.53Z</time>
      </trkpt>
      <trkpt lat="42.53214" lon="2.23792">
        <ele>1121</ele>
        <time>2014-11-12T08:45:57.53Z</time>
      </trkpt>
      <trkpt lat="42.53215" lon="2.23785">
        <ele>1122</ele>
        <time>2014-11-12T08:46:06.53Z</time>
      </trkpt>
      <trkpt lat="42.53217" lon="2.23776">
        <ele>1124</ele>
        <time>2014-11-12T08:46:15.53Z</time>
      </trkpt>
      <trkpt lat="42.53218" lon="2.23767">
        <ele>1125</ele>
        <time>2014-11-12T08:46:25.53Z</time>
      </trkpt>
      <trkpt lat="42.53219" lon="2.23761">
        <ele>1126</ele>
        <time>2014-11-12T08:46:32.53Z</time>
      </trkpt>
      <trkpt lat="42.5322" lon="2.23754">
        <ele>1128</ele>
        <time>2014-11-12T08:46:41.53Z</time>
      </trkpt>
      <trkpt lat="42.5322" lon="2.23747">
        <ele>1128</ele>
        <time>2014-11-12T08:46:48.53Z</time>
      </trkpt>
      <trkpt lat="42.53221" lon="2.2374">
        <ele>1130</ele>
        <time>2014-11-12T08:46:55.53Z</time>
      </trkpt>
      <trkpt lat="42.53222" lon="2.23734">
        <ele>1131</ele>
        <time>2014-11-12T08:47:04.53Z</time>
      </trkpt>
      <trkpt lat="42.53223" lon="2.23726">
        <ele>1133</ele>
        <time>2014-11-12T08:47:14.53Z</time>
      </trkpt>
      <trkpt lat="42.53224" lon="2.23718">
        <ele>1134</ele>
        <time>2014-11-12T08:47:21.53Z</time>
      </trkpt>
      <trkpt lat="42.53225" lon="2.23707">
        <ele>1136</ele>
        <time>2014-11-12T08:47:35.53Z</time>
      </trkpt>
      <trkpt lat="42.53225" lon="2.23699">
        <ele>1138</ele>
        <time>2014-11-12T08:47:44.53Z</time>
      </trkpt>
      <trkpt lat="42.53225" lon="2.23691">
        <ele>1140</ele>
        <time>2014-11-12T08:47:54.53Z</time>
      </trkpt>
      <trkpt lat="42.53225" lon="2.23683">
        <ele>1141</ele>
        <time>2014-11-12T08:48:05.53Z</time>
      </trkpt>
      <trkpt lat="42.53224" lon="2.23675">
        <ele>1142</ele>
        <time>2014-11-12T08:48:14.53Z</time>
      </trkpt>
      <trkpt lat="42.53224" lon="2.23666">
        <ele>1145</ele>
        <time>2014-11-12T08:48:36.53Z</time>
      </trkpt>
      <trkpt lat="42.53224" lon="2.23656">
        <ele>1146</ele>
        <time>2014-11-12T08:48:57.53Z</time>
      </trkpt>
      <trkpt lat="42.53225" lon="2.23648">
        <ele>1148</ele>
        <time>2014-11-12T08:49:07.53Z</time>
      </trkpt>
      <trkpt lat="42.53224" lon="2.2364">
        <ele>1149</ele>
        <time>2014-11-12T08:55:14.53Z</time>
      </trkpt>
      <trkpt lat="42.53223" lon="2.23633">
        <ele>1149</ele>
        <time>2014-11-12T08:55:23.53Z</time>
      </trkpt>
      <trkpt lat="42.5322" lon="2.23625">
        <ele>1150</ele>
        <time>2014-11-12T08:55:33.53Z</time>
      </trkpt>
      <trkpt lat="42.53218" lon="2.23616">
        <ele>1150.257420222</ele>
        <time>2014-11-12T08:55:40.53Z</time>
      </trkpt>
      <trkpt lat="42.53216" lon="2.23608">
        <ele>1151</ele>
        <time>2014-11-12T08:55:48.53Z</time>
      </trkpt>
      <trkpt lat="42.53216" lon="2.236">
        <ele>1153</ele>
        <time>2014-11-12T08:55:54.53Z</time>
      </trkpt>
      <trkpt lat="42.53217" lon="2.23592">
        <ele>1155</ele>
        <time>2014-11-12T08:56:01.53Z</time>
      </trkpt>
      <trkpt lat="42.53219" lon="2.23586">
        <ele>1155</ele>
        <time>2014-11-12T08:56:07.53Z</time>
      </trkpt>
      <trkpt lat="42.53221" lon="2.23579">
        <ele>1156</ele>
        <time>2014-11-12T08:56:12.53Z</time>
      </trkpt>
      <trkpt lat="42.53224" lon="2.23571">
        <ele>1156</ele>
        <time>2014-11-12T08:56:19.53Z</time>
      </trkpt>
      <trkpt lat="42.53225" lon="2.23564">
        <ele>1157</ele>
        <time>2014-11-12T08:56:25.53Z</time>
      </trkpt>
      <trkpt lat="42.53222" lon="2.23556">
        <ele>1158</ele>
        <time>2014-11-12T08:56:31.53Z</time>
      </trkpt>
      <trkpt lat="42.53219" lon="2.23546">
        <ele>1158</ele>
        <time>2014-11-12T08:56:39.53Z</time>
      </trkpt>
      <trkpt lat="42.53218" lon="2.23537">
        <ele>1159</ele>
        <time>2014-11-12T08:56:46.53Z</time>
      </trkpt>
      <trkpt lat="42.53217" lon="2.2353">
        <ele>1161</ele>
        <time>2014-11-12T08:56:53.53Z</time>
      </trkpt>
      <trkpt lat="42.53217" lon="2.23523">
        <ele>1161</ele>
        <time>2014-11-12T08:56:59.53Z</time>
      </trkpt>
      <trkpt lat="42.53217" lon="2.23515">
        <ele>1164</ele>
        <time>2014-11-12T08:57:05.53Z</time>
      </trkpt>
      <trkpt lat="42.53218" lon="2.23509">
        <ele>1164</ele>
        <time>2014-11-12T08:57:10.53Z</time>
      </trkpt>
      <trkpt lat="42.5322" lon="2.23503">
        <ele>1164</ele>
        <time>2014-11-12T08:57:16.53Z</time>
      </trkpt>
      <trkpt lat="42.53221" lon="2.23498">
        <ele>1166</ele>
        <time>2014-11-12T08:57:21.53Z</time>
      </trkpt>
      <trkpt lat="42.5322" lon="2.23491">
        <ele>1166</ele>
        <time>2014-11-12T08:57:28.53Z</time>
      </trkpt>
      <trkpt lat="42.5322" lon="2.23485">
        <ele>1167</ele>
        <time>2014-11-12T08:57:34.53Z</time>
      </trkpt>
      <trkpt lat="42.5322" lon="2.23478">
        <ele>1167.7799808</ele>
        <time>2014-11-12T08:57:40.53Z</time>
      </trkpt>
      <trkpt lat="42.53218" lon="2.23471">
        <ele>1170</ele>
        <time>2014-11-12T08:57:47.53Z</time>
      </trkpt>
      <trkpt lat="42.53215" lon="2.23465">
        <ele>1171</ele>
        <time>2014-11-12T08:57:52.53Z</time>
      </trkpt>
      <trkpt lat="42.53212" lon="2.23454">
        <ele>1171</ele>
        <time>2014-11-12T08:57:59.53Z</time>
      </trkpt>
      <trkpt lat="42.53211" lon="2.23446">
        <ele>1172</ele>
        <time>2014-11-12T08:58:05.53Z</time>
      </trkpt>
      <trkpt lat="42.5321" lon="2.23438">
        <ele>1172</ele>
        <time>2014-11-12T08:58:10.53Z</time>
      </trkpt>
      <trkpt lat="42.53208" lon="2.2343">
        <ele>1172</ele>
        <time>2014-11-12T08:58:18.53Z</time>
      </trkpt>
      <trkpt lat="42.53207" lon="2.23423">
        <ele>1173</ele>
        <time>2014-11-12T08:58:24.53Z</time>
      </trkpt>
      <trkpt lat="42.53211" lon="2.23414">
        <ele>1175</ele>
        <time>2014-11-12T08:58:34.53Z</time>
      </trkpt>
      <trkpt lat="42.53208" lon="2.23405">
        <ele>1177</ele>
        <time>2014-11-12T08:58:41.53Z</time>
      </trkpt>
      <trkpt lat="42.53204" lon="2.23397">
        <ele>1177.7799808</ele>
        <time>2014-11-12T08:58:50.53Z</time>
      </trkpt>
      <trkpt lat="42.53201" lon="2.23388">
        <ele>1180</ele>
        <time>2014-11-12T08:58:57.53Z</time>
      </trkpt>
      <trkpt lat="42.53199" lon="2.23382">
        <ele>1180</ele>
        <time>2014-11-12T08:59:03.53Z</time>
      </trkpt>
      <trkpt lat="42.53195" lon="2.23373">
        <ele>1182</ele>
        <time>2014-11-12T08:59:11.53Z</time>
      </trkpt>
      <trkpt lat="42.5319" lon="2.23363">
        <ele>1182.2599936</ele>
        <time>2014-11-12T08:59:20.53Z</time>
      </trkpt>
      <trkpt lat="42.53185" lon="2.23353">
        <ele>1183.2599936</ele>
        <time>2014-11-12T08:59:30.53Z</time>
      </trkpt>
      <trkpt lat="42.5318" lon="2.23345">
        <ele>1184</ele>
        <time>2014-11-12T08:59:39.53Z</time>
      </trkpt>
      <trkpt lat="42.53177" lon="2.23338">
        <ele>1186</ele>
        <time>2014-11-12T08:59:46.53Z</time>
      </trkpt>
      <trkpt lat="42.53173" lon="2.23331">
        <ele>1187</ele>
        <time>2014-11-12T08:59:53.53Z</time>
      </trkpt>
      <trkpt lat="42.53172" lon="2.23324">
        <ele>1187</ele>
        <time>2014-11-12T09:00:00.53Z</time>
      </trkpt>
      <trkpt lat="42.53172" lon="2.23318">
        <ele>1189</ele>
        <time>2014-11-12T09:00:06.53Z</time>
      </trkpt>
      <trkpt lat="42.53172" lon="2.23311">
        <ele>1191</ele>
        <time>2014-11-12T09:00:12.53Z</time>
      </trkpt>
      <trkpt lat="42.53174" lon="2.23305">
        <ele>1192</ele>
        <time>2014-11-12T09:00:22.53Z</time>
      </trkpt>
      <trkpt lat="42.53171" lon="2.23295">
        <ele>1194</ele>
        <time>2014-11-12T09:00:33.53Z</time>
      </trkpt>
      <trkpt lat="42.53177" lon="2.23296">
        <ele>1196</ele>
        <time>2014-11-12T09:00:46.53Z</time>
      </trkpt>
      <trkpt lat="42.53182" lon="2.23302">
        <ele>1198</ele>
        <time>2014-11-12T09:00:56.53Z</time>
      </trkpt>
      <trkpt lat="42.53185" lon="2.23307">
        <ele>1200</ele>
        <time>2014-11-12T09:01:03.53Z</time>
      </trkpt>
      <trkpt lat="42.5319" lon="2.23313">
        <ele>1200</ele>
        <time>2014-11-12T09:01:10.53Z</time>
      </trkpt>
      <trkpt lat="42.5319" lon="2.23303">
        <ele>1202</ele>
        <time>2014-11-12T09:01:24.53Z</time>
      </trkpt>
      <trkpt lat="42.53191" lon="2.23298">
        <ele>1205</ele>
        <time>2014-11-12T09:01:31.53Z</time>
      </trkpt>
      <trkpt lat="42.5319" lon="2.23292">
        <ele>1205</ele>
        <time>2014-11-12T09:01:38.53Z</time>
      </trkpt>
      <trkpt lat="42.53188" lon="2.23283">
        <ele>1206</ele>
        <time>2014-11-12T09:01:48.53Z</time>
      </trkpt>
      <trkpt lat="42.53187" lon="2.23278">
        <ele>1207</ele>
        <time>2014-11-12T09:01:53.53Z</time>
      </trkpt>
      <trkpt lat="42.53187" lon="2.23271">
        <ele>1207.7799808</ele>
        <time>2014-11-12T09:02:00.53Z</time>
      </trkpt>
      <trkpt lat="42.53188" lon="2.23264">
        <ele>1211</ele>
        <time>2014-11-12T09:02:08.53Z</time>
      </trkpt>
      <trkpt lat="42.53189" lon="2.23258">
        <ele>1211</ele>
        <time>2014-11-12T09:02:14.53Z</time>
      </trkpt>
      <trkpt lat="42.53187" lon="2.23254">
        <ele>1212</ele>
        <time>2014-11-12T09:02:25.53Z</time>
      </trkpt>
      <trkpt lat="42.53184" lon="2.23249">
        <ele>1213</ele>
        <time>2014-11-12T09:02:32.53Z</time>
      </trkpt>
      <trkpt lat="42.53184" lon="2.23244">
        <ele>1213</ele>
        <time>2014-11-12T09:02:39.53Z</time>
      </trkpt>
      <trkpt lat="42.53184" lon="2.23238">
        <ele>1215</ele>
        <time>2014-11-12T09:02:47.53Z</time>
      </trkpt>
      <trkpt lat="42.53184" lon="2.23233">
        <ele>1217</ele>
        <time>2014-11-12T09:02:52.53Z</time>
      </trkpt>
      <trkpt lat="42.53185" lon="2.23229">
        <ele>1217</ele>
        <time>2014-11-12T09:02:56.53Z</time>
      </trkpt>
      <trkpt lat="42.53187" lon="2.23223">
        <ele>1218</ele>
        <time>2014-11-12T09:03:01.53Z</time>
      </trkpt>
      <trkpt lat="42.53187" lon="2.23217">
        <ele>1218</ele>
        <time>2014-11-12T09:03:06.53Z</time>
      </trkpt>
      <trkpt lat="42.53187" lon="2.23211">
        <ele>1219</ele>
        <time>2014-11-12T09:03:11.53Z</time>
      </trkpt>
      <trkpt lat="42.53185" lon="2.23203">
        <ele>1219</ele>
        <time>2014-11-12T09:03:17.53Z</time>
      </trkpt>
      <trkpt lat="42.5318" lon="2.232">
        <ele>1219</ele>
        <time>2014-11-12T09:03:25.53Z</time>
      </trkpt>
      <trkpt lat="42.53175" lon="2.232">
        <ele>1220</ele>
        <time>2014-11-12T09:03:33.53Z</time>
      </trkpt>
      <trkpt lat="42.53171" lon="2.23199">
        <ele>1221</ele>
        <time>2014-11-12T09:04:23.53Z</time>
      </trkpt>
      <trkpt lat="42.53166" lon="2.23193">
        <ele>1221</ele>
        <time>2014-11-12T09:08:35.53Z</time>
      </trkpt>
      <trkpt lat="42.53162" lon="2.23188">
        <ele>1222</ele>
        <time>2014-11-12T09:08:43.53Z</time>
      </trkpt>
      <trkpt lat="42.53157" lon="2.23184">
        <ele>1223</ele>
        <time>2014-11-12T09:08:51.53Z</time>
      </trkpt>
      <trkpt lat="42.53153" lon="2.23176">
        <ele>1223</ele>
        <time>2014-11-12T09:08:59.53Z</time>
      </trkpt>
      <trkpt lat="42.5315" lon="2.23169">
        <ele>1225</ele>
        <time>2014-11-12T09:09:06.53Z</time>
      </trkpt>
      <trkpt lat="42.53147" lon="2.23162">
        <ele>1227</ele>
        <time>2014-11-12T09:09:13.53Z</time>
      </trkpt>
      <trkpt lat="42.53141" lon="2.23156">
        <ele>1228</ele>
        <time>2014-11-12T09:09:21.53Z</time>
      </trkpt>
      <trkpt lat="42.53137" lon="2.23152">
        <ele>1228</ele>
        <time>2014-11-12T09:09:26.28Z</time>
      </trkpt>
      <trkpt lat="42.53133" lon="2.23147">
        <ele>1228</ele>
        <time>2014-11-12T09:09:32.53Z</time>
      </trkpt>
      <trkpt lat="42.53128" lon="2.2314">
        <ele>1228</ele>
        <time>2014-11-12T09:09:38.53Z</time>
      </trkpt>
      <trkpt lat="42.53125" lon="2.23133">
        <ele>1230</ele>
        <time>2014-11-12T09:09:44.53Z</time>
      </trkpt>
      <trkpt lat="42.5312" lon="2.23124">
        <ele>1231</ele>
        <time>2014-11-12T09:09:52.53Z</time>
      </trkpt>
      <trkpt lat="42.53117" lon="2.23119">
        <ele>1231</ele>
        <time>2014-11-12T09:09:57.53Z</time>
      </trkpt>
      <trkpt lat="42.53112" lon="2.23114">
        <ele>1231</ele>
        <time>2014-11-12T09:10:03.53Z</time>
      </trkpt>
      <trkpt lat="42.53108" lon="2.23107">
        <ele>1231</ele>
        <time>2014-11-12T09:10:10.53Z</time>
      </trkpt>
      <trkpt lat="42.53102" lon="2.23099">
        <ele>1231</ele>
        <time>2014-11-12T09:10:18.53Z</time>
      </trkpt>
      <trkpt lat="42.53098" lon="2.23094">
        <ele>1232</ele>
        <time>2014-11-12T09:10:24.53Z</time>
      </trkpt>
      <trkpt lat="42.53093" lon="2.23089">
        <ele>1232.2599936</ele>
        <time>2014-11-12T09:10:30.53Z</time>
      </trkpt>
      <trkpt lat="42.53089" lon="2.23083">
        <ele>1233</ele>
        <time>2014-11-12T09:10:37.53Z</time>
      </trkpt>
      <trkpt lat="42.53085" lon="2.23074">
        <ele>1234</ele>
        <time>2014-11-12T09:10:46.53Z</time>
      </trkpt>
      <trkpt lat="42.53079" lon="2.23064">
        <ele>1236</ele>
        <time>2014-11-12T09:10:58.53Z</time>
      </trkpt>
      <trkpt lat="42.53075" lon="2.23056">
        <ele>1238</ele>
        <time>2014-11-12T09:11:05.53Z</time>
      </trkpt>
      <trkpt lat="42.5307" lon="2.23047">
        <ele>1240</ele>
        <time>2014-11-12T09:11:16.53Z</time>
      </trkpt>
      <trkpt lat="42.53068" lon="2.23041">
        <ele>1241</ele>
        <time>2014-11-12T09:11:22.53Z</time>
      </trkpt>
      <trkpt lat="42.53071" lon="2.23038">
        <ele>1241</ele>
        <time>2014-11-12T09:11:28.53Z</time>
      </trkpt>
      <trkpt lat="42.53074" lon="2.23031">
        <ele>1244</ele>
        <time>2014-11-12T09:11:43.53Z</time>
      </trkpt>
      <trkpt lat="42.53073" lon="2.23024">
        <ele>1244.5199872</ele>
        <time>2014-11-12T09:11:50.53Z</time>
      </trkpt>
      <trkpt lat="42.53072" lon="2.23018">
        <ele>1246</ele>
        <time>2014-11-12T09:11:59.53Z</time>
      </trkpt>
      <trkpt lat="42.53071" lon="2.23012">
        <ele>1247</ele>
        <time>2014-11-12T09:12:04.53Z</time>
      </trkpt>
      <trkpt lat="42.53073" lon="2.23005">
        <ele>1247.2599936</ele>
        <time>2014-11-12T09:12:10.53Z</time>
      </trkpt>
      <trkpt lat="42.53074" lon="2.22999">
        <ele>1248</ele>
        <time>2014-11-12T09:12:16.53Z</time>
      </trkpt>
      <trkpt lat="42.53074" lon="2.22993">
        <ele>1249</ele>
        <time>2014-11-12T09:12:21.53Z</time>
      </trkpt>
      <trkpt lat="42.53074" lon="2.22988">
        <ele>1249</ele>
        <time>2014-11-12T09:12:25.53Z</time>
      </trkpt>
      <trkpt lat="42.53075" lon="2.22981">
        <ele>1249.157471427</ele>
        <time>2014-11-12T09:12:30.37Z</time>
      </trkpt>
      <trkpt lat="42.53075" lon="2.22976">
        <ele>1251</ele>
        <time>2014-11-12T09:12:35.63Z</time>
      </trkpt>
      <trkpt lat="42.53074" lon="2.2297">
        <ele>1251.36</ele>
        <time>2014-11-12T09:12:40.63Z</time>
      </trkpt>
      <trkpt lat="42.53074" lon="2.22964">
        <ele>1252</ele>
        <time>2014-11-12T09:12:44.63Z</time>
      </trkpt>
      <trkpt lat="42.53074" lon="2.22958">
        <ele>1252</ele>
        <time>2014-11-12T09:12:49.63Z</time>
      </trkpt>
      <trkpt lat="42.53073" lon="2.22953">
        <ele>1254</ele>
        <time>2014-11-12T09:12:56.63Z</time>
      </trkpt>
      <trkpt lat="42.53073" lon="2.22945">
        <ele>1255</ele>
        <time>2014-11-12T09:13:05.63Z</time>
      </trkpt>
      <trkpt lat="42.53073" lon="2.22937">
        <ele>1256</ele>
        <time>2014-11-12T09:13:12.63Z</time>
      </trkpt>
      <trkpt lat="42.53072" lon="2.2293">
        <ele>1256</ele>
        <time>2014-11-12T09:13:19.63Z</time>
      </trkpt>
      <trkpt lat="42.53071" lon="2.22923">
        <ele>1258</ele>
        <time>2014-11-12T09:13:24.63Z</time>
      </trkpt>
      <trkpt lat="42.5307" lon="2.22916">
        <ele>1259.08</ele>
        <time>2014-11-12T09:13:30.63Z</time>
      </trkpt>
      <trkpt lat="42.5307" lon="2.22907">
        <ele>1261</ele>
        <time>2014-11-12T09:13:38.63Z</time>
      </trkpt>
      <trkpt lat="42.53072" lon="2.22901">
        <ele>1262</ele>
        <time>2014-11-12T09:14:02.36Z</time>
      </trkpt>
      <trkpt lat="42.53077" lon="2.22898">
        <ele>1262</ele>
        <time>2014-11-12T09:14:07.63Z</time>
      </trkpt>
      <trkpt lat="42.53081" lon="2.22895">
        <ele>1264</ele>
        <time>2014-11-12T09:14:11.63Z</time>
      </trkpt>
      <trkpt lat="42.53084" lon="2.22891">
        <ele>1264</ele>
        <time>2014-11-12T09:14:16.63Z</time>
      </trkpt>
      <trkpt lat="42.53086" lon="2.22886">
        <ele>1264.36</ele>
        <time>2014-11-12T09:14:20.63Z</time>
      </trkpt>
      <trkpt lat="42.53089" lon="2.2288">
        <ele>1265</ele>
        <time>2014-11-12T09:14:25.63Z</time>
      </trkpt>
      <trkpt lat="42.5309" lon="2.22872">
        <ele>1265</ele>
        <time>2014-11-12T09:14:30.63Z</time>
      </trkpt>
      <trkpt lat="42.53092" lon="2.22862">
        <ele>1265</ele>
        <time>2014-11-12T09:14:36.63Z</time>
      </trkpt>
      <trkpt lat="42.53094" lon="2.22856">
        <ele>1265</ele>
        <time>2014-11-12T09:14:41.63Z</time>
      </trkpt>
      <trkpt lat="42.53097" lon="2.2285">
        <ele>1265</ele>
        <time>2014-11-12T09:14:46.63Z</time>
      </trkpt>
      <trkpt lat="42.531" lon="2.22845">
        <ele>1267</ele>
        <time>2014-11-12T09:16:24.53Z</time>
      </trkpt>
      <trkpt lat="42.53104" lon="2.22841">
        <ele>1267</ele>
        <time>2014-11-12T09:16:29.53Z</time>
      </trkpt>
      <trkpt lat="42.53108" lon="2.22833">
        <ele>1268</ele>
        <time>2014-11-12T09:16:36.53Z</time>
      </trkpt>
      <trkpt lat="42.53106" lon="2.22825">
        <ele>1267</ele>
        <time>2014-11-12T09:16:42.53Z</time>
      </trkpt>
      <trkpt lat="42.53104" lon="2.22816">
        <ele>1267</ele>
        <time>2014-11-12T09:16:48.53Z</time>
      </trkpt>
      <trkpt lat="42.53104" lon="2.22809">
        <ele>1268</ele>
        <time>2014-11-12T09:16:53.53Z</time>
      </trkpt>
      <trkpt lat="42.53107" lon="2.22803">
        <ele>1268</ele>
        <time>2014-11-12T09:16:58.53Z</time>
      </trkpt>
      <trkpt lat="42.53112" lon="2.22799">
        <ele>1270</ele>
        <time>2014-11-12T09:17:03.53Z</time>
      </trkpt>
      <trkpt lat="42.53116" lon="2.22794">
        <ele>1270</ele>
        <time>2014-11-12T09:17:08.53Z</time>
      </trkpt>
      <trkpt lat="42.53118" lon="2.22786">
        <ele>1271</ele>
        <time>2014-11-12T09:17:14.53Z</time>
      </trkpt>
      <trkpt lat="42.53114" lon="2.22777">
        <ele>1271</ele>
        <time>2014-11-12T09:17:22.53Z</time>
      </trkpt>
      <trkpt lat="42.53109" lon="2.2277">
        <ele>1271</ele>
        <time>2014-11-12T09:17:28.53Z</time>
      </trkpt>
      <trkpt lat="42.53104" lon="2.22759">
        <ele>1271</ele>
        <time>2014-11-12T09:17:36.53Z</time>
      </trkpt>
      <trkpt lat="42.53101" lon="2.22748">
        <ele>1270</ele>
        <time>2014-11-12T09:17:43.53Z</time>
      </trkpt>
      <trkpt lat="42.531" lon="2.22737">
        <ele>1269.7400064</ele>
        <time>2014-11-12T09:17:50.53Z</time>
      </trkpt>
      <trkpt lat="42.53099" lon="2.22728">
        <ele>1269</ele>
        <time>2014-11-12T09:17:56.53Z</time>
      </trkpt>
      <trkpt lat="42.53099" lon="2.22718">
        <ele>1269</ele>
        <time>2014-11-12T09:18:02.53Z</time>
      </trkpt>
      <trkpt lat="42.53098" lon="2.22708">
        <ele>1269</ele>
        <time>2014-11-12T09:18:09.53Z</time>
      </trkpt>
      <trkpt lat="42.53098" lon="2.227">
        <ele>1269</ele>
        <time>2014-11-12T09:18:14.53Z</time>
      </trkpt>
      <trkpt lat="42.53098" lon="2.22692">
        <ele>1269</ele>
        <time>2014-11-12T09:18:19.53Z</time>
      </trkpt>
      <trkpt lat="42.53099" lon="2.22685">
        <ele>1269</ele>
        <time>2014-11-12T09:18:24.53Z</time>
      </trkpt>
      <trkpt lat="42.53099" lon="2.22678">
        <ele>1269</ele>
        <time>2014-11-12T09:18:29.53Z</time>
      </trkpt>
      <trkpt lat="42.53099" lon="2.22671">
        <ele>1270</ele>
        <time>2014-11-12T09:18:33.53Z</time>
      </trkpt>
      <trkpt lat="42.53099" lon="2.22665">
        <ele>1270</ele>
        <time>2014-11-12T09:18:37.53Z</time>
      </trkpt>
      <trkpt lat="42.531" lon="2.22659">
        <ele>1271</ele>
        <time>2014-11-12T09:18:41.54Z</time>
      </trkpt>
      <trkpt lat="42.53101" lon="2.22653">
        <ele>1271</ele>
        <time>2014-11-12T09:18:46.53Z</time>
      </trkpt>
      <trkpt lat="42.53102" lon="2.22645">
        <ele>1272</ele>
        <time>2014-11-12T09:18:52.53Z</time>
      </trkpt>
      <trkpt lat="42.53104" lon="2.22638">
        <ele>1272</ele>
        <time>2014-11-12T09:18:57.53Z</time>
      </trkpt>
      <trkpt lat="42.53107" lon="2.22627">
        <ele>1273</ele>
        <time>2014-11-12T09:19:06.53Z</time>
      </trkpt>
      <trkpt lat="42.53111" lon="2.22615">
        <ele>1273</ele>
        <time>2014-11-12T09:19:16.53Z</time>
      </trkpt>
      <trkpt lat="42.53112" lon="2.22603">
        <ele>1273</ele>
        <time>2014-11-12T09:19:26.53Z</time>
      </trkpt>
      <trkpt lat="42.53115" lon="2.22593">
        <ele>1273</ele>
        <time>2014-11-12T09:19:35.53Z</time>
      </trkpt>
      <trkpt lat="42.53119" lon="2.22585">
        <ele>1273</ele>
        <time>2014-11-12T09:19:41.53Z</time>
      </trkpt>
      <trkpt lat="42.53123" lon="2.22579">
        <ele>1273</ele>
        <time>2014-11-12T09:19:47.53Z</time>
      </trkpt>
      <trkpt lat="42.53125" lon="2.22568">
        <ele>1274</ele>
        <time>2014-11-12T09:19:56.53Z</time>
      </trkpt>
      <trkpt lat="42.53125" lon="2.22554">
        <ele>1276</ele>
        <time>2014-11-12T09:20:08.53Z</time>
      </trkpt>
      <trkpt lat="42.53129" lon="2.22542">
        <ele>1279</ele>
        <time>2014-11-12T09:20:21.28Z</time>
      </trkpt>
      <trkpt lat="42.53131" lon="2.22533">
        <ele>1279</ele>
        <time>2014-11-12T09:20:28.53Z</time>
      </trkpt>
      <trkpt lat="42.53135" lon="2.22524">
        <ele>1280</ele>
        <time>2014-11-12T09:20:36.53Z</time>
      </trkpt>
      <trkpt lat="42.53136" lon="2.22515">
        <ele>1281</ele>
        <time>2014-11-12T09:21:13.53Z</time>
      </trkpt>
      <trkpt lat="42.53134" lon="2.22507">
        <ele>1281.5199872</ele>
        <time>2014-11-12T09:21:20.53Z</time>
      </trkpt>
      <trkpt lat="42.53134" lon="2.22495">
        <ele>1283</ele>
        <time>2014-11-12T09:21:29.53Z</time>
      </trkpt>
      <trkpt lat="42.53134" lon="2.22486">
        <ele>1283</ele>
        <time>2014-11-12T09:21:36.53Z</time>
      </trkpt>
      <trkpt lat="42.53134" lon="2.22472">
        <ele>1283</ele>
        <time>2014-11-12T09:21:48.53Z</time>
      </trkpt>
      <trkpt lat="42.5313" lon="2.22458">
        <ele>1285</ele>
        <time>2014-11-12T09:21:57.53Z</time>
      </trkpt>
      <trkpt lat="42.53128" lon="2.22451">
        <ele>1286</ele>
        <time>2014-11-12T09:22:02.53Z</time>
      </trkpt>
      <trkpt lat="42.53125" lon="2.22442">
        <ele>1286</ele>
        <time>2014-11-12T09:22:08.53Z</time>
      </trkpt>
      <trkpt lat="42.53126" lon="2.22432">
        <ele>1286</ele>
        <time>2014-11-12T09:22:15.53Z</time>
      </trkpt>
      <trkpt lat="42.53128" lon="2.22426">
        <ele>1286</ele>
        <time>2014-11-12T09:22:20.53Z</time>
      </trkpt>
      <trkpt lat="42.53131" lon="2.2242">
        <ele>1286</ele>
        <time>2014-11-12T09:22:25.53Z</time>
      </trkpt>
      <trkpt lat="42.53134" lon="2.22412">
        <ele>1288</ele>
        <time>2014-11-12T09:22:31.53Z</time>
      </trkpt>
      <trkpt lat="42.53135" lon="2.22405">
        <ele>1288</ele>
        <time>2014-11-12T09:22:36.53Z</time>
      </trkpt>
      <trkpt lat="42.53138" lon="2.22398">
        <ele>1288</ele>
        <time>2014-11-12T09:22:42.53Z</time>
      </trkpt>
      <trkpt lat="42.53139" lon="2.22389">
        <ele>1288</ele>
        <time>2014-11-12T09:22:49.53Z</time>
      </trkpt>
      <trkpt lat="42.5314" lon="2.22379">
        <ele>1288</ele>
        <time>2014-11-12T09:22:56.53Z</time>
      </trkpt>
      <trkpt lat="42.53144" lon="2.22366">
        <ele>1287</ele>
        <time>2014-11-12T09:23:06.53Z</time>
      </trkpt>
      <trkpt lat="42.53146" lon="2.22356">
        <ele>1288</ele>
        <time>2014-11-12T09:26:13.53Z</time>
      </trkpt>
      <trkpt lat="42.5315" lon="2.22346">
        <ele>1288</ele>
        <time>2014-11-12T09:26:20.53Z</time>
      </trkpt>
      <trkpt lat="42.53154" lon="2.22338">
        <ele>1288</ele>
        <time>2014-11-12T09:26:26.53Z</time>
      </trkpt>
      <trkpt lat="42.53161" lon="2.22332">
        <ele>1289</ele>
        <time>2014-11-12T09:26:33.53Z</time>
      </trkpt>
      <trkpt lat="42.53166" lon="2.22325">
        <ele>1289.2599936</ele>
        <time>2014-11-12T09:26:40.53Z</time>
      </trkpt>
      <trkpt lat="42.53162" lon="2.22312">
        <ele>1290.2599936</ele>
        <time>2014-11-12T09:26:50.53Z</time>
      </trkpt>
      <trkpt lat="42.53159" lon="2.22301">
        <ele>1291</ele>
        <time>2014-11-12T09:26:57.53Z</time>
      </trkpt>
      <trkpt lat="42.53157" lon="2.22289">
        <ele>1292</ele>
        <time>2014-11-12T09:27:05.53Z</time>
      </trkpt>
      <trkpt lat="42.53155" lon="2.22278">
        <ele>1292</ele>
        <time>2014-11-12T09:27:13.53Z</time>
      </trkpt>
      <trkpt lat="42.53154" lon="2.22268">
        <ele>1294</ele>
        <time>2014-11-12T09:27:25.53Z</time>
      </trkpt>
      <trkpt lat="42.53154" lon="2.2226">
        <ele>1295</ele>
        <time>2014-11-12T09:31:54.53Z</time>
      </trkpt>
      <trkpt lat="42.53151" lon="2.22249">
        <ele>1295</ele>
        <time>2014-11-12T09:32:01.53Z</time>
      </trkpt>
      <trkpt lat="42.5315" lon="2.22238">
        <ele>1295</ele>
        <time>2014-11-12T09:32:08.53Z</time>
      </trkpt>
      <trkpt lat="42.53148" lon="2.22228">
        <ele>1296</ele>
        <time>2014-11-12T09:32:15.53Z</time>
      </trkpt>
      <trkpt lat="42.53145" lon="2.22219">
        <ele>1297</ele>
        <time>2014-11-12T09:32:21.53Z</time>
      </trkpt>
      <trkpt lat="42.53142" lon="2.22212">
        <ele>1297</ele>
        <time>2014-11-12T09:32:27.53Z</time>
      </trkpt>
      <trkpt lat="42.53135" lon="2.222">
        <ele>1298</ele>
        <time>2014-11-12T09:32:36.53Z</time>
      </trkpt>
      <trkpt lat="42.53132" lon="2.2219">
        <ele>1299</ele>
        <time>2014-11-12T09:32:42.53Z</time>
      </trkpt>
      <trkpt lat="42.53132" lon="2.22178">
        <ele>1299</ele>
        <time>2014-11-12T09:32:49.53Z</time>
      </trkpt>
      <trkpt lat="42.53133" lon="2.22167">
        <ele>1299</ele>
        <time>2014-11-12T09:32:56.53Z</time>
      </trkpt>
      <trkpt lat="42.53132" lon="2.22156">
        <ele>1299</ele>
        <time>2014-11-12T09:33:02.53Z</time>
      </trkpt>
      <trkpt lat="42.53132" lon="2.22149">
        <ele>1299</ele>
        <time>2014-11-12T09:33:07.53Z</time>
      </trkpt>
      <trkpt lat="42.53131" lon="2.22142">
        <ele>1301</ele>
        <time>2014-11-12T09:33:11.53Z</time>
      </trkpt>
      <trkpt lat="42.53131" lon="2.22136">
        <ele>1301</ele>
        <time>2014-11-12T09:33:15.53Z</time>
      </trkpt>
      <trkpt lat="42.5313" lon="2.22129">
        <ele>1301</ele>
        <time>2014-11-12T09:33:19.53Z</time>
      </trkpt>
      <trkpt lat="42.53129" lon="2.22122">
        <ele>1302</ele>
        <time>2014-11-12T09:33:23.53Z</time>
      </trkpt>
      <trkpt lat="42.53128" lon="2.22114">
        <ele>1302</ele>
        <time>2014-11-12T09:33:28.53Z</time>
      </trkpt>
      <trkpt lat="42.53126" lon="2.22107">
        <ele>1303</ele>
        <time>2014-11-12T09:33:33.53Z</time>
      </trkpt>
      <trkpt lat="42.53125" lon="2.22099">
        <ele>1303</ele>
        <time>2014-11-12T09:33:38.53Z</time>
      </trkpt>
      <trkpt lat="42.53124" lon="2.2209">
        <ele>1304</ele>
        <time>2014-11-12T09:33:43.53Z</time>
      </trkpt>
      <trkpt lat="42.53126" lon="2.2208">
        <ele>1304</ele>
        <time>2014-11-12T09:33:49.53Z</time>
      </trkpt>
      <trkpt lat="42.53129" lon="2.22067">
        <ele>1304</ele>
        <time>2014-11-12T09:33:58.53Z</time>
      </trkpt>
      <trkpt lat="42.53132" lon="2.22053">
        <ele>1305</ele>
        <time>2014-11-12T09:34:07.73Z</time>
      </trkpt>
      <trkpt lat="42.53136" lon="2.22042">
        <ele>1306</ele>
        <time>2014-11-12T09:34:15.53Z</time>
      </trkpt>
      <trkpt lat="42.53139" lon="2.22029">
        <ele>1306</ele>
        <time>2014-11-12T09:34:24.53Z</time>
      </trkpt>
      <trkpt lat="42.53143" lon="2.22015">
        <ele>1308</ele>
        <time>2014-11-12T09:34:33.53Z</time>
      </trkpt>
      <trkpt lat="42.53144" lon="2.22001">
        <ele>1309</ele>
        <time>2014-11-12T09:34:41.53Z</time>
      </trkpt>
      <trkpt lat="42.53146" lon="2.21988">
        <ele>1309.2599936</ele>
        <time>2014-11-12T09:34:50.53Z</time>
      </trkpt>
      <trkpt lat="42.53147" lon="2.21975">
        <ele>1310</ele>
        <time>2014-11-12T09:34:59.53Z</time>
      </trkpt>
      <trkpt lat="42.53146" lon="2.21963">
        <ele>1311</ele>
        <time>2014-11-12T09:35:08.53Z</time>
      </trkpt>
      <trkpt lat="42.53144" lon="2.2195">
        <ele>1311</ele>
        <time>2014-11-12T09:35:17.53Z</time>
      </trkpt>
      <trkpt lat="42.53141" lon="2.21938">
        <ele>1312</ele>
        <time>2014-11-12T09:35:26.53Z</time>
      </trkpt>
      <trkpt lat="42.53139" lon="2.21926">
        <ele>1313</ele>
        <time>2014-11-12T09:35:35.53Z</time>
      </trkpt>
      <trkpt lat="42.53137" lon="2.21912">
        <ele>1313</ele>
        <time>2014-11-12T09:35:44.53Z</time>
      </trkpt>
      <trkpt lat="42.53134" lon="2.219">
        <ele>1314</ele>
        <time>2014-11-12T09:35:52.53Z</time>
      </trkpt>
      <trkpt lat="42.53131" lon="2.2189">
        <ele>1314</ele>
        <time>2014-11-12T09:35:59.53Z</time>
      </trkpt>
      <trkpt lat="42.53128" lon="2.21882">
        <ele>1315</ele>
        <time>2014-11-12T09:36:04.53Z</time>
      </trkpt>
      <trkpt lat="42.53126" lon="2.21875">
        <ele>1315</ele>
        <time>2014-11-12T09:36:08.53Z</time>
      </trkpt>
      <trkpt lat="42.53124" lon="2.2187">
        <ele>1315</ele>
        <time>2014-11-12T09:36:12.53Z</time>
      </trkpt>
      <trkpt lat="42.5312" lon="2.21862">
        <ele>1315</ele>
        <time>2014-11-12T09:36:18.53Z</time>
      </trkpt>
      <trkpt lat="42.53115" lon="2.21854">
        <ele>1316</ele>
        <time>2014-11-12T09:36:24.53Z</time>
      </trkpt>
      <trkpt lat="42.5311" lon="2.21848">
        <ele>1316.465746699</ele>
        <time>2014-11-12T09:36:30.88Z</time>
      </trkpt>
      <trkpt lat="42.53102" lon="2.21842">
        <ele>1317</ele>
        <time>2014-11-12T09:36:38.53Z</time>
      </trkpt>
      <trkpt lat="42.53093" lon="2.21838">
        <ele>1318</ele>
        <time>2014-11-12T09:36:46.53Z</time>
      </trkpt>
      <trkpt lat="42.53085" lon="2.2183">
        <ele>1318</ele>
        <time>2014-11-12T09:36:55.53Z</time>
      </trkpt>
      <trkpt lat="42.53082" lon="2.21818">
        <ele>1320</ele>
        <time>2014-11-12T09:37:02.53Z</time>
      </trkpt>
      <trkpt lat="42.5308" lon="2.21807">
        <ele>1320</ele>
        <time>2014-11-12T09:37:09.53Z</time>
      </trkpt>
      <trkpt lat="42.53079" lon="2.21797">
        <ele>1321</ele>
        <time>2014-11-12T09:37:15.53Z</time>
      </trkpt>
      <trkpt lat="42.53077" lon="2.21787">
        <ele>1321</ele>
        <time>2014-11-12T09:37:21.53Z</time>
      </trkpt>
      <trkpt lat="42.53076" lon="2.21778">
        <ele>1321</ele>
        <time>2014-11-12T09:37:27.53Z</time>
      </trkpt>
      <trkpt lat="42.53074" lon="2.21768">
        <ele>1322</ele>
        <time>2014-11-12T09:37:33.53Z</time>
      </trkpt>
      <trkpt lat="42.53071" lon="2.21759">
        <ele>1322</ele>
        <time>2014-11-12T09:37:39.53Z</time>
      </trkpt>
      <trkpt lat="42.53069" lon="2.21748">
        <ele>1322</ele>
        <time>2014-11-12T09:37:46.53Z</time>
      </trkpt>
      <trkpt lat="42.53066" lon="2.21739">
        <ele>1324</ele>
        <time>2014-11-12T09:37:52.53Z</time>
      </trkpt>
      <trkpt lat="42.53064" lon="2.21729">
        <ele>1324</ele>
        <time>2014-11-12T09:37:58.53Z</time>
      </trkpt>
      <trkpt lat="42.53064" lon="2.21718">
        <ele>1325</ele>
        <time>2014-11-12T09:38:04.53Z</time>
      </trkpt>
      <trkpt lat="42.53066" lon="2.21709">
        <ele>1325</ele>
        <time>2014-11-12T09:38:10.53Z</time>
      </trkpt>
      <trkpt lat="42.53067" lon="2.21699">
        <ele>1325</ele>
        <time>2014-11-12T09:38:16.53Z</time>
      </trkpt>
      <trkpt lat="42.53069" lon="2.21689">
        <ele>1326</ele>
        <time>2014-11-12T09:38:22.53Z</time>
      </trkpt>
      <trkpt lat="42.5307" lon="2.2168">
        <ele>1326</ele>
        <time>2014-11-12T09:38:28.53Z</time>
      </trkpt>
      <trkpt lat="42.53071" lon="2.21671">
        <ele>1328</ele>
        <time>2014-11-12T09:38:33.53Z</time>
      </trkpt>
      <trkpt lat="42.53071" lon="2.21662">
        <ele>1328</ele>
        <time>2014-11-12T09:38:39.53Z</time>
      </trkpt>
      <trkpt lat="42.53072" lon="2.21653">
        <ele>1329</ele>
        <time>2014-11-12T09:38:46.53Z</time>
      </trkpt>
      <trkpt lat="42.53073" lon="2.21643">
        <ele>1331</ele>
        <time>2014-11-12T09:38:52.53Z</time>
      </trkpt>
      <trkpt lat="42.53075" lon="2.21633">
        <ele>1331</ele>
        <time>2014-11-12T09:38:59.53Z</time>
      </trkpt>
      <trkpt lat="42.53076" lon="2.21624">
        <ele>1331</ele>
        <time>2014-11-12T09:39:05.53Z</time>
      </trkpt>
      <trkpt lat="42.53079" lon="2.21615">
        <ele>1332</ele>
        <time>2014-11-12T09:39:11.53Z</time>
      </trkpt>
      <trkpt lat="42.53083" lon="2.21607">
        <ele>1332</ele>
        <time>2014-11-12T09:39:17.53Z</time>
      </trkpt>
      <trkpt lat="42.53089" lon="2.21599">
        <ele>1334</ele>
        <time>2014-11-12T09:39:25.53Z</time>
      </trkpt>
      <trkpt lat="42.53097" lon="2.21591">
        <ele>1334</ele>
        <time>2014-11-12T09:39:34.54Z</time>
      </trkpt>
      <trkpt lat="42.53105" lon="2.21585">
        <ele>1335</ele>
        <time>2014-11-12T09:39:42.53Z</time>
      </trkpt>
      <trkpt lat="42.5311" lon="2.21581">
        <ele>1335</ele>
        <time>2014-11-12T09:39:47.53Z</time>
      </trkpt>
      <trkpt lat="42.53116" lon="2.21578">
        <ele>1335</ele>
        <time>2014-11-12T09:39:52.53Z</time>
      </trkpt>
      <trkpt lat="42.53122" lon="2.21574">
        <ele>1335</ele>
        <time>2014-11-12T09:39:57.53Z</time>
      </trkpt>
      <trkpt lat="42.53128" lon="2.21572">
        <ele>1336</ele>
        <time>2014-11-12T09:40:02.53Z</time>
      </trkpt>
      <trkpt lat="42.53134" lon="2.21572">
        <ele>1337</ele>
        <time>2014-11-12T09:40:07.53Z</time>
      </trkpt>
      <trkpt lat="42.5314" lon="2.2157">
        <ele>1338</ele>
        <time>2014-11-12T09:40:17.53Z</time>
      </trkpt>
      <trkpt lat="42.53147" lon="2.21565">
        <ele>1338</ele>
        <time>2014-11-12T09:40:23.53Z</time>
      </trkpt>
      <trkpt lat="42.53152" lon="2.21561">
        <ele>1338</ele>
        <time>2014-11-12T09:40:28.53Z</time>
      </trkpt>
      <trkpt lat="42.53157" lon="2.21556">
        <ele>1338</ele>
        <time>2014-11-12T09:40:33.53Z</time>
      </trkpt>
      <trkpt lat="42.53162" lon="2.21547">
        <ele>1338.2599936</ele>
        <time>2014-11-12T09:40:40.53Z</time>
      </trkpt>
      <trkpt lat="42.53166" lon="2.21533">
        <ele>1339</ele>
        <time>2014-11-12T09:40:49.53Z</time>
      </trkpt>
      <trkpt lat="42.53168" lon="2.21521">
        <ele>1339</ele>
        <time>2014-11-12T09:40:57.53Z</time>
      </trkpt>
      <trkpt lat="42.53168" lon="2.21508">
        <ele>1339</ele>
        <time>2014-11-12T09:41:05.53Z</time>
      </trkpt>
      <trkpt lat="42.53169" lon="2.21494">
        <ele>1340</ele>
        <time>2014-11-12T09:41:14.28Z</time>
      </trkpt>
      <trkpt lat="42.53168" lon="2.21484">
        <ele>1341</ele>
        <time>2014-11-12T09:41:21.53Z</time>
      </trkpt>
      <trkpt lat="42.53165" lon="2.21471">
        <ele>1341.5199872</ele>
        <time>2014-11-12T09:41:30.53Z</time>
      </trkpt>
      <trkpt lat="42.53162" lon="2.21458">
        <ele>1343</ele>
        <time>2014-11-12T09:41:39.53Z</time>
      </trkpt>
      <trkpt lat="42.5316" lon="2.21446">
        <ele>1345</ele>
        <time>2014-11-12T09:41:47.53Z</time>
      </trkpt>
      <trkpt lat="42.53158" lon="2.21433">
        <ele>1345</ele>
        <time>2014-11-12T09:41:55.53Z</time>
      </trkpt>
      <trkpt lat="42.53155" lon="2.21422">
        <ele>1346</ele>
        <time>2014-11-12T09:42:03.53Z</time>
      </trkpt>
      <trkpt lat="42.53153" lon="2.2141">
        <ele>1347</ele>
        <time>2014-11-12T09:42:12.53Z</time>
      </trkpt>
      <trkpt lat="42.5315" lon="2.21396">
        <ele>1348</ele>
        <time>2014-11-12T09:42:21.53Z</time>
      </trkpt>
      <trkpt lat="42.53149" lon="2.21384">
        <ele>1348</ele>
        <time>2014-11-12T09:42:29.53Z</time>
      </trkpt>
      <trkpt lat="42.5315" lon="2.21371">
        <ele>1349</ele>
        <time>2014-11-12T09:42:38.53Z</time>
      </trkpt>
      <trkpt lat="42.53151" lon="2.2136">
        <ele>1351</ele>
        <time>2014-11-12T09:42:46.53Z</time>
      </trkpt>
      <trkpt lat="42.53154" lon="2.21347">
        <ele>1352</ele>
        <time>2014-11-12T09:42:56.53Z</time>
      </trkpt>
      <trkpt lat="42.53156" lon="2.21333">
        <ele>1353</ele>
        <time>2014-11-12T09:43:05.54Z</time>
      </trkpt>
      <trkpt lat="42.53156" lon="2.21319">
        <ele>1353</ele>
        <time>2014-11-12T09:43:13.53Z</time>
      </trkpt>
      <trkpt lat="42.53153" lon="2.21306">
        <ele>1353</ele>
        <time>2014-11-12T09:43:21.53Z</time>
      </trkpt>
      <trkpt lat="42.53148" lon="2.21294">
        <ele>1353</ele>
        <time>2014-11-12T09:43:29.53Z</time>
      </trkpt>
      <trkpt lat="42.53143" lon="2.21285">
        <ele>1354</ele>
        <time>2014-11-12T09:43:37.53Z</time>
      </trkpt>
      <trkpt lat="42.53138" lon="2.21276">
        <ele>1354</ele>
        <time>2014-11-12T09:43:46.53Z</time>
      </trkpt>
      <trkpt lat="42.53129" lon="2.21268">
        <ele>1356</ele>
        <time>2014-11-12T09:43:54.53Z</time>
      </trkpt>
      <trkpt lat="42.53121" lon="2.2126">
        <ele>1356</ele>
        <time>2014-11-12T09:44:05.53Z</time>
      </trkpt>
      <trkpt lat="42.53112" lon="2.21255">
        <ele>1356</ele>
        <time>2014-11-12T09:44:13.53Z</time>
      </trkpt>
      <trkpt lat="42.53105" lon="2.21247">
        <ele>1356.2599936</ele>
        <time>2014-11-12T09:44:20.53Z</time>
      </trkpt>
      <trkpt lat="42.53103" lon="2.21245">
        <ele>1357</ele>
        <time>2014-11-12T09:44:23.53Z</time>
      </trkpt>
      <trkpt lat="42.53099" lon="2.21237">
        <ele>1358</ele>
        <time>2014-11-12T09:44:38.53Z</time>
      </trkpt>
      <trkpt lat="42.53096" lon="2.21231">
        <ele>1359</ele>
        <time>2014-11-12T09:44:43.53Z</time>
      </trkpt>
      <trkpt lat="42.53094" lon="2.21227">
        <ele>1359</ele>
        <time>2014-11-12T09:44:46.53Z</time>
      </trkpt>
      <trkpt lat="42.53092" lon="2.21223">
        <ele>1359</ele>
        <time>2014-11-12T09:44:50.53Z</time>
      </trkpt>
      <trkpt lat="42.53091" lon="2.21218">
        <ele>1359</ele>
        <time>2014-11-12T09:44:54.53Z</time>
      </trkpt>
      <trkpt lat="42.53088" lon="2.21213">
        <ele>1359</ele>
        <time>2014-11-12T09:44:58.53Z</time>
      </trkpt>
      <trkpt lat="42.53086" lon="2.21208">
        <ele>1360</ele>
        <time>2014-11-12T09:45:02.53Z</time>
      </trkpt>
      <trkpt lat="42.53083" lon="2.21203">
        <ele>1360</ele>
        <time>2014-11-12T09:45:06.53Z</time>
      </trkpt>
      <trkpt lat="42.5308" lon="2.21198">
        <ele>1360.5199872</ele>
        <time>2014-11-12T09:45:10.53Z</time>
      </trkpt>
      <trkpt lat="42.53076" lon="2.21194">
        <ele>1362</ele>
        <time>2014-11-12T09:45:14.53Z</time>
      </trkpt>
      <trkpt lat="42.53071" lon="2.2119">
        <ele>1362</ele>
        <time>2014-11-12T09:45:19.53Z</time>
      </trkpt>
      <trkpt lat="42.53066" lon="2.21187">
        <ele>1362</ele>
        <time>2014-11-12T09:45:24.53Z</time>
      </trkpt>
      <trkpt lat="42.5306" lon="2.21185">
        <ele>1362</ele>
        <time>2014-11-12T09:45:29.53Z</time>
      </trkpt>
      <trkpt lat="42.53053" lon="2.21183">
        <ele>1364</ele>
        <time>2014-11-12T09:45:35.53Z</time>
      </trkpt>
      <trkpt lat="42.53045" lon="2.21181">
        <ele>1365</ele>
        <time>2014-11-12T09:45:43.53Z</time>
      </trkpt>
      <trkpt lat="42.53036" lon="2.21175">
        <ele>1366</ele>
        <time>2014-11-12T09:45:51.53Z</time>
      </trkpt>
      <trkpt lat="42.53029" lon="2.21169">
        <ele>1366</ele>
        <time>2014-11-12T09:45:58.53Z</time>
      </trkpt>
      <trkpt lat="42.53024" lon="2.21165">
        <ele>1366</ele>
        <time>2014-11-12T09:46:03.53Z</time>
      </trkpt>
      <trkpt lat="42.53017" lon="2.21163">
        <ele>1366</ele>
        <time>2014-11-12T09:46:10.53Z</time>
      </trkpt>
      <trkpt lat="42.5301" lon="2.21161">
        <ele>1367</ele>
        <time>2014-11-12T09:46:38.53Z</time>
      </trkpt>
      <trkpt lat="42.53003" lon="2.21159">
        <ele>1367</ele>
        <time>2014-11-12T09:46:44.53Z</time>
      </trkpt>
      <trkpt lat="42.52997" lon="2.21155">
        <ele>1367</ele>
        <time>2014-11-12T09:46:50.53Z</time>
      </trkpt>
      <trkpt lat="42.5299" lon="2.21155">
        <ele>1368</ele>
        <time>2014-11-12T09:47:25.53Z</time>
      </trkpt>
      <trkpt lat="42.52984" lon="2.21155">
        <ele>1367.4800128</ele>
        <time>2014-11-12T09:47:30.53Z</time>
      </trkpt>
      <trkpt lat="42.52978" lon="2.21154">
        <ele>1366</ele>
        <time>2014-11-12T09:47:36.53Z</time>
      </trkpt>
      <trkpt lat="42.52973" lon="2.21155">
        <ele>1366</ele>
        <time>2014-11-12T09:47:42.53Z</time>
      </trkpt>
      <trkpt lat="42.52967" lon="2.21159">
        <ele>1365</ele>
        <time>2014-11-12T09:48:09.53Z</time>
      </trkpt>
      <trkpt lat="42.52962" lon="2.21159">
        <ele>1365</ele>
        <time>2014-11-12T09:48:15.53Z</time>
      </trkpt>
      <trkpt lat="42.52957" lon="2.21161">
        <ele>1363</ele>
        <time>2014-11-12T09:48:22.53Z</time>
      </trkpt>
      <trkpt lat="42.52961" lon="2.21162">
        <ele>1362</ele>
        <time>2014-11-12T09:48:45.53Z</time>
      </trkpt>
      <trkpt lat="42.52966" lon="2.21166">
        <ele>1362</ele>
        <time>2014-11-12T09:48:54.53Z</time>
      </trkpt>
      <trkpt lat="42.5297" lon="2.2117">
        <ele>1362</ele>
        <time>2014-11-12T09:49:07.53Z</time>
      </trkpt>
      <trkpt lat="42.52968" lon="2.21165">
        <ele>1361</ele>
        <time>2014-11-12T09:56:36.63Z</time>
      </trkpt>
      <trkpt lat="42.52964" lon="2.21162">
        <ele>1361</ele>
        <time>2014-11-12T09:56:40.63Z</time>
      </trkpt>
      <trkpt lat="42.5296" lon="2.2116">
        <ele>1361</ele>
        <time>2014-11-12T09:56:44.63Z</time>
      </trkpt>
      <trkpt lat="42.52957" lon="2.21156">
        <ele>1361</ele>
        <time>2014-11-12T09:56:49.63Z</time>
      </trkpt>
      <trkpt lat="42.52953" lon="2.21157">
        <ele>1362</ele>
        <time>2014-11-12T09:56:53.63Z</time>
      </trkpt>
      <trkpt lat="42.52943" lon="2.21156">
        <ele>1359</ele>
        <time>2014-11-12T09:57:02.63Z</time>
      </trkpt>
      <trkpt lat="42.52951" lon="2.21158">
        <ele>1360</ele>
        <time>2014-11-12T09:58:05.63Z</time>
      </trkpt>
      <trkpt lat="42.52962" lon="2.2116">
        <ele>1362</ele>
        <time>2014-11-12T09:58:18.63Z</time>
      </trkpt>
      <trkpt lat="42.52968" lon="2.21166">
        <ele>1363</ele>
        <time>2014-11-12T09:58:25.63Z</time>
      </trkpt>
      <trkpt lat="42.52973" lon="2.21167">
        <ele>1361</ele>
        <time>2014-11-12T10:00:02.53Z</time>
      </trkpt>
      <trkpt lat="42.52966" lon="2.21166">
        <ele>1363</ele>
        <time>2014-11-12T10:04:10.53Z</time>
      </trkpt>
      <trkpt lat="42.5296" lon="2.2116">
        <ele>1363</ele>
        <time>2014-11-12T10:04:30.53Z</time>
      </trkpt>
      <trkpt lat="42.52966" lon="2.21153">
        <ele>1363</ele>
        <time>2014-11-12T10:04:39.53Z</time>
      </trkpt>
      <trkpt lat="42.52972" lon="2.21153">
        <ele>1363</ele>
        <time>2014-11-12T10:04:47.53Z</time>
      </trkpt>
      <trkpt lat="42.52982" lon="2.21147">
        <ele>1363</ele>
        <time>2014-11-12T10:04:58.53Z</time>
      </trkpt>
      <trkpt lat="42.5299" lon="2.21148">
        <ele>1363</ele>
        <time>2014-11-12T10:05:06.53Z</time>
      </trkpt>
      <trkpt lat="42.52983" lon="2.21146">
        <ele>1363</ele>
        <time>2014-11-12T10:05:29.53Z</time>
      </trkpt>
      <trkpt lat="42.52977" lon="2.2114">
        <ele>1363.0599808</ele>
        <time>2014-11-12T10:05:40.28Z</time>
      </trkpt>
      <trkpt lat="42.52971" lon="2.21137">
        <ele>1370</ele>
        <time>2014-11-12T10:05:48.53Z</time>
      </trkpt>
      <trkpt lat="42.52962" lon="2.21134">
        <ele>1370</ele>
        <time>2014-11-12T10:05:59.53Z</time>
      </trkpt>
      <trkpt lat="42.5296" lon="2.21123">
        <ele>1374</ele>
        <time>2014-11-12T10:06:11.63Z</time>
      </trkpt>
      <trkpt lat="42.52963" lon="2.21117">
        <ele>1375</ele>
        <time>2014-11-12T10:06:21.63Z</time>
      </trkpt>
      <trkpt lat="42.52966" lon="2.21111">
        <ele>1375.285715737</ele>
        <time>2014-11-12T10:06:30.63Z</time>
      </trkpt>
      <trkpt lat="42.52974" lon="2.21105">
        <ele>1378</ele>
        <time>2014-11-12T10:06:49.53Z</time>
      </trkpt>
      <trkpt lat="42.5298" lon="2.211">
        <ele>1380</ele>
        <time>2014-11-12T10:07:03.53Z</time>
      </trkpt>
      <trkpt lat="42.52985" lon="2.21091">
        <ele>1381</ele>
        <time>2014-11-12T10:07:17.73Z</time>
      </trkpt>
      <trkpt lat="42.5299" lon="2.21088">
        <ele>1383</ele>
        <time>2014-11-12T10:07:24.53Z</time>
      </trkpt>
      <trkpt lat="42.52996" lon="2.21086">
        <ele>1385</ele>
        <time>2014-11-12T10:07:32.53Z</time>
      </trkpt>
      <trkpt lat="42.53001" lon="2.21085">
        <ele>1385</ele>
        <time>2014-11-12T10:07:39.53Z</time>
      </trkpt>
      <trkpt lat="42.5301" lon="2.21082">
        <ele>1387</ele>
        <time>2014-11-12T10:07:55.73Z</time>
      </trkpt>
      <trkpt lat="42.53017" lon="2.2108">
        <ele>1388</ele>
        <time>2014-11-12T10:08:07.73Z</time>
      </trkpt>
      <trkpt lat="42.53024" lon="2.21069">
        <ele>1392</ele>
        <time>2014-11-12T10:08:29.73Z</time>
      </trkpt>
      <trkpt lat="42.53033" lon="2.21068">
        <ele>1396</ele>
        <time>2014-11-12T10:08:55.73Z</time>
      </trkpt>
      <trkpt lat="42.53041" lon="2.21074">
        <ele>1396</ele>
        <time>2014-11-12T10:09:08.73Z</time>
      </trkpt>
      <trkpt lat="42.53048" lon="2.21079">
        <ele>1397</ele>
        <time>2014-11-12T10:09:18.73Z</time>
      </trkpt>
      <trkpt lat="42.53057" lon="2.21085">
        <ele>1399</ele>
        <time>2014-11-12T10:09:29.73Z</time>
      </trkpt>
      <trkpt lat="42.53064" lon="2.21095">
        <ele>1401</ele>
        <time>2014-11-12T10:09:42.73Z</time>
      </trkpt>
      <trkpt lat="42.53073" lon="2.211">
        <ele>1402</ele>
        <time>2014-11-12T10:09:54.73Z</time>
      </trkpt>
      <trkpt lat="42.53082" lon="2.21101">
        <ele>1405</ele>
        <time>2014-11-12T10:10:08.73Z</time>
      </trkpt>
      <trkpt lat="42.53091" lon="2.21098">
        <ele>1406</ele>
        <time>2014-11-12T10:10:21.73Z</time>
      </trkpt>
      <trkpt lat="42.53099" lon="2.21095">
        <ele>1406</ele>
        <time>2014-11-12T10:10:32.73Z</time>
      </trkpt>
      <trkpt lat="42.53108" lon="2.21092">
        <ele>1409</ele>
        <time>2014-11-12T10:10:51.73Z</time>
      </trkpt>
      <trkpt lat="42.53112" lon="2.21092">
        <ele>1409</ele>
        <time>2014-11-12T10:10:57.73Z</time>
      </trkpt>
      <trkpt lat="42.53121" lon="2.21091">
        <ele>1410.4599936</ele>
        <time>2014-11-12T10:11:10.73Z</time>
      </trkpt>
      <trkpt lat="42.53127" lon="2.21089">
        <ele>1413</ele>
        <time>2014-11-12T10:11:21.73Z</time>
      </trkpt>
      <trkpt lat="42.53132" lon="2.21087">
        <ele>1413.9199872</ele>
        <time>2014-11-12T10:11:30.73Z</time>
      </trkpt>
      <trkpt lat="42.53137" lon="2.21087">
        <ele>1415</ele>
        <time>2014-11-12T10:11:37.73Z</time>
      </trkpt>
      <trkpt lat="42.53141" lon="2.21089">
        <ele>1416</ele>
        <time>2014-11-12T10:11:44.73Z</time>
      </trkpt>
      <trkpt lat="42.53146" lon="2.2109">
        <ele>1417</ele>
        <time>2014-11-12T10:11:53.73Z</time>
      </trkpt>
      <trkpt lat="42.53153" lon="2.21094">
        <ele>1419</ele>
        <time>2014-11-12T10:12:05.73Z</time>
      </trkpt>
      <trkpt lat="42.53162" lon="2.21099">
        <ele>1421</ele>
        <time>2014-11-12T10:12:21.73Z</time>
      </trkpt>
      <trkpt lat="42.53172" lon="2.21104">
        <ele>1423</ele>
        <time>2014-11-12T10:12:38.73Z</time>
      </trkpt>
      <trkpt lat="42.53179" lon="2.21107">
        <ele>1425</ele>
        <time>2014-11-12T10:12:51.73Z</time>
      </trkpt>
      <trkpt lat="42.53187" lon="2.21113">
        <ele>1427</ele>
        <time>2014-11-12T10:13:04.73Z</time>
      </trkpt>
      <trkpt lat="42.53192" lon="2.21118">
        <ele>1429</ele>
        <time>2014-11-12T10:13:15.73Z</time>
      </trkpt>
      <trkpt lat="42.532" lon="2.21126">
        <ele>1430</ele>
        <time>2014-11-12T10:13:27.73Z</time>
      </trkpt>
      <trkpt lat="42.53204" lon="2.21131">
        <ele>1431</ele>
        <time>2014-11-12T10:13:32.73Z</time>
      </trkpt>
      <trkpt lat="42.53208" lon="2.21134">
        <ele>1431</ele>
        <time>2014-11-12T10:13:36.73Z</time>
      </trkpt>
      <trkpt lat="42.5321" lon="2.21139">
        <ele>1432</ele>
        <time>2014-11-12T10:13:41.73Z</time>
      </trkpt>
      <trkpt lat="42.53214" lon="2.21143">
        <ele>1432</ele>
        <time>2014-11-12T10:13:46.73Z</time>
      </trkpt>
      <trkpt lat="42.53217" lon="2.21147">
        <ele>1433</ele>
        <time>2014-11-12T10:13:51.73Z</time>
      </trkpt>
      <trkpt lat="42.53221" lon="2.2115">
        <ele>1433</ele>
        <time>2014-11-12T10:13:56.73Z</time>
      </trkpt>
      <trkpt lat="42.53226" lon="2.21155">
        <ele>1434</ele>
        <time>2014-11-12T10:14:05.73Z</time>
      </trkpt>
      <trkpt lat="42.53232" lon="2.21158">
        <ele>1435</ele>
        <time>2014-11-12T10:14:13.73Z</time>
      </trkpt>
      <trkpt lat="42.53238" lon="2.21162">
        <ele>1437</ele>
        <time>2014-11-12T10:14:24.73Z</time>
      </trkpt>
      <trkpt lat="42.53243" lon="2.21165">
        <ele>1438</ele>
        <time>2014-11-12T10:14:34.73Z</time>
      </trkpt>
      <trkpt lat="42.53248" lon="2.21168">
        <ele>1439</ele>
        <time>2014-11-12T10:14:43.73Z</time>
      </trkpt>
      <trkpt lat="42.53255" lon="2.21172">
        <ele>1440</ele>
        <time>2014-11-12T10:14:57.73Z</time>
      </trkpt>
      <trkpt lat="42.5326" lon="2.21174">
        <ele>1441</ele>
        <time>2014-11-12T10:15:09.73Z</time>
      </trkpt>
      <trkpt lat="42.53266" lon="2.21175">
        <ele>1442</ele>
        <time>2014-11-12T10:15:18.73Z</time>
      </trkpt>
      <trkpt lat="42.53271" lon="2.21176">
        <ele>1444</ele>
        <time>2014-11-12T10:15:29.73Z</time>
      </trkpt>
      <trkpt lat="42.53276" lon="2.21179">
        <ele>1446</ele>
        <time>2014-11-12T10:15:37.73Z</time>
      </trkpt>
      <trkpt lat="42.53282" lon="2.21182">
        <ele>1447</ele>
        <time>2014-11-12T10:15:49.73Z</time>
      </trkpt>
      <trkpt lat="42.53287" lon="2.21186">
        <ele>1449</ele>
        <time>2014-11-12T10:15:59.73Z</time>
      </trkpt>
      <trkpt lat="42.53294" lon="2.2119">
        <ele>1453</ele>
        <time>2014-11-12T10:16:12.73Z</time>
      </trkpt>
      <trkpt lat="42.53295" lon="2.21184">
        <ele>1455</ele>
        <time>2014-11-12T10:16:26.73Z</time>
      </trkpt>
      <trkpt lat="42.533" lon="2.21186">
        <ele>1456</ele>
        <time>2014-11-12T10:16:41.73Z</time>
      </trkpt>
      <trkpt lat="42.53304" lon="2.21192">
        <ele>1458</ele>
        <time>2014-11-12T10:16:53.73Z</time>
      </trkpt>
      <trkpt lat="42.53311" lon="2.21195">
        <ele>1461</ele>
        <time>2014-11-12T10:17:05.63Z</time>
      </trkpt>
      <trkpt lat="42.53316" lon="2.212">
        <ele>1462</ele>
        <time>2014-11-12T10:17:19.63Z</time>
      </trkpt>
      <trkpt lat="42.5332" lon="2.21203">
        <ele>1463</ele>
        <time>2014-11-12T10:17:28.63Z</time>
      </trkpt>
      <trkpt lat="42.53325" lon="2.21209">
        <ele>1464.36</ele>
        <time>2014-11-12T10:17:40.63Z</time>
      </trkpt>
      <trkpt lat="42.53332" lon="2.21213">
        <ele>1467</ele>
        <time>2014-11-12T10:17:55.63Z</time>
      </trkpt>
      <trkpt lat="42.5334" lon="2.21219">
        <ele>1469</ele>
        <time>2014-11-12T10:18:07.63Z</time>
      </trkpt>
      <trkpt lat="42.53346" lon="2.21226">
        <ele>1474</ele>
        <time>2014-11-12T10:18:17.63Z</time>
      </trkpt>
      <trkpt lat="42.53352" lon="2.21231">
        <ele>1474</ele>
        <time>2014-11-12T10:18:29.63Z</time>
      </trkpt>
      <trkpt lat="42.53358" lon="2.21237">
        <ele>1479</ele>
        <time>2014-11-12T10:18:44.63Z</time>
      </trkpt>
      <trkpt lat="42.53362" lon="2.21243">
        <ele>1481</ele>
        <time>2014-11-12T10:18:54.63Z</time>
      </trkpt>
      <trkpt lat="42.53365" lon="2.21252">
        <ele>1482</ele>
        <time>2014-11-12T10:19:01.63Z</time>
      </trkpt>
      <trkpt lat="42.53368" lon="2.21261">
        <ele>1482</ele>
        <time>2014-11-12T10:19:08.63Z</time>
      </trkpt>
      <trkpt lat="42.53371" lon="2.21269">
        <ele>1483</ele>
        <time>2014-11-12T10:19:15.63Z</time>
      </trkpt>
      <trkpt lat="42.53373" lon="2.21276">
        <ele>1485</ele>
        <time>2014-11-12T10:19:21.63Z</time>
      </trkpt>
      <trkpt lat="42.53374" lon="2.21283">
        <ele>1485</ele>
        <time>2014-11-12T10:19:27.63Z</time>
      </trkpt>
      <trkpt lat="42.53376" lon="2.2129">
        <ele>1487</ele>
        <time>2014-11-12T10:19:34.63Z</time>
      </trkpt>
      <trkpt lat="42.53378" lon="2.21299">
        <ele>1488</ele>
        <time>2014-11-12T10:19:42.63Z</time>
      </trkpt>
      <trkpt lat="42.53382" lon="2.21305">
        <ele>1488.36</ele>
        <time>2014-11-12T10:19:50.63Z</time>
      </trkpt>
      <trkpt lat="42.53385" lon="2.21312">
        <ele>1489</ele>
        <time>2014-11-12T10:19:57.63Z</time>
      </trkpt>
      <trkpt lat="42.53386" lon="2.21318">
        <ele>1491</ele>
        <time>2014-11-12T10:20:04.37Z</time>
      </trkpt>
      <trkpt lat="42.53388" lon="2.21325">
        <ele>1492</ele>
        <time>2014-11-12T10:20:11.63Z</time>
      </trkpt>
      <trkpt lat="42.53392" lon="2.21334">
        <ele>1492.36</ele>
        <time>2014-11-12T10:20:20.63Z</time>
      </trkpt>
      <trkpt lat="42.53397" lon="2.21339">
        <ele>1493.36</ele>
        <time>2014-11-12T10:20:30.63Z</time>
      </trkpt>
      <trkpt lat="42.53399" lon="2.21345">
        <ele>1494</ele>
        <time>2014-11-12T10:20:37.63Z</time>
      </trkpt>
      <trkpt lat="42.53405" lon="2.21353">
        <ele>1496</ele>
        <time>2014-11-12T10:20:48.63Z</time>
      </trkpt>
      <trkpt lat="42.53409" lon="2.2136">
        <ele>1497</ele>
        <time>2014-11-12T10:20:56.64Z</time>
      </trkpt>
      <trkpt lat="42.53414" lon="2.21366">
        <ele>1499</ele>
        <time>2014-11-12T10:21:05.63Z</time>
      </trkpt>
      <trkpt lat="42.53419" lon="2.21372">
        <ele>1501</ele>
        <time>2014-11-12T10:21:15.63Z</time>
      </trkpt>
      <trkpt lat="42.53422" lon="2.2138">
        <ele>1502</ele>
        <time>2014-11-12T10:21:25.63Z</time>
      </trkpt>
      <trkpt lat="42.53422" lon="2.21388">
        <ele>1504</ele>
        <time>2014-11-12T10:21:33.63Z</time>
      </trkpt>
      <trkpt lat="42.53423" lon="2.21398">
        <ele>1506</ele>
        <time>2014-11-12T10:21:44.63Z</time>
      </trkpt>
      <trkpt lat="42.53429" lon="2.21407">
        <ele>1507</ele>
        <time>2014-11-12T10:21:56.63Z</time>
      </trkpt>
      <trkpt lat="42.53431" lon="2.21418">
        <ele>1509</ele>
        <time>2014-11-12T10:22:10.63Z</time>
      </trkpt>
      <trkpt lat="42.53435" lon="2.21427">
        <ele>1511</ele>
        <time>2014-11-12T10:22:26.63Z</time>
      </trkpt>
      <trkpt lat="42.53439" lon="2.2143">
        <ele>1514</ele>
        <time>2014-11-12T10:22:34.63Z</time>
      </trkpt>
      <trkpt lat="42.53442" lon="2.21438">
        <ele>1518</ele>
        <time>2014-11-12T10:22:46.63Z</time>
      </trkpt>
      <trkpt lat="42.53446" lon="2.21444">
        <ele>1519</ele>
        <time>2014-11-12T10:22:55.63Z</time>
      </trkpt>
      <trkpt lat="42.53449" lon="2.21449">
        <ele>1520</ele>
        <time>2014-11-12T10:23:04.63Z</time>
      </trkpt>
      <trkpt lat="42.53452" lon="2.21454">
        <ele>1521</ele>
        <time>2014-11-12T10:23:11.63Z</time>
      </trkpt>
      <trkpt lat="42.53456" lon="2.21465">
        <ele>1524</ele>
        <time>2014-11-12T10:23:22.63Z</time>
      </trkpt>
      <trkpt lat="42.5346" lon="2.21474">
        <ele>1526</ele>
        <time>2014-11-12T10:23:33.63Z</time>
      </trkpt>
      <trkpt lat="42.53465" lon="2.21479">
        <ele>1527</ele>
        <time>2014-11-12T10:23:43.64Z</time>
      </trkpt>
      <trkpt lat="42.5347" lon="2.21486">
        <ele>1529.72</ele>
        <time>2014-11-12T10:24:00.63Z</time>
      </trkpt>
      <trkpt lat="42.53475" lon="2.21494">
        <ele>1532</ele>
        <time>2014-11-12T10:24:19.63Z</time>
      </trkpt>
      <trkpt lat="42.53479" lon="2.21487">
        <ele>1537</ele>
        <time>2014-11-12T10:24:33.63Z</time>
      </trkpt>
      <trkpt lat="42.53484" lon="2.21476">
        <ele>1537</ele>
        <time>2014-11-12T10:24:45.63Z</time>
      </trkpt>
      <trkpt lat="42.53488" lon="2.21471">
        <ele>1539</ele>
        <time>2014-11-12T10:24:52.63Z</time>
      </trkpt>
      <trkpt lat="42.53489" lon="2.21464">
        <ele>1539</ele>
        <time>2014-11-12T10:24:58.63Z</time>
      </trkpt>
      <trkpt lat="42.5349" lon="2.21455">
        <ele>1541</ele>
        <time>2014-11-12T10:25:05.63Z</time>
      </trkpt>
      <trkpt lat="42.53492" lon="2.21442">
        <ele>1541</ele>
        <time>2014-11-12T10:25:17.63Z</time>
      </trkpt>
      <trkpt lat="42.53493" lon="2.21434">
        <ele>1543</ele>
        <time>2014-11-12T10:25:24.63Z</time>
      </trkpt>
      <trkpt lat="42.53495" lon="2.21426">
        <ele>1544</ele>
        <time>2014-11-12T10:25:33.63Z</time>
      </trkpt>
      <trkpt lat="42.535" lon="2.21417">
        <ele>1546</ele>
        <time>2014-11-12T10:25:45.63Z</time>
      </trkpt>
      <trkpt lat="42.53501" lon="2.21407">
        <ele>1549</ele>
        <time>2014-11-12T10:25:55.63Z</time>
      </trkpt>
      <trkpt lat="42.53502" lon="2.21398">
        <ele>1549</ele>
        <time>2014-11-12T10:26:03.63Z</time>
      </trkpt>
      <trkpt lat="42.53505" lon="2.2139">
        <ele>1551</ele>
        <time>2014-11-12T10:26:12.63Z</time>
      </trkpt>
      <trkpt lat="42.53505" lon="2.21379">
        <ele>1552</ele>
        <time>2014-11-12T10:26:24.63Z</time>
      </trkpt>
      <trkpt lat="42.5351" lon="2.21377">
        <ele>1554</ele>
        <time>2014-11-12T10:26:37.63Z</time>
      </trkpt>
      <trkpt lat="42.53516" lon="2.21381">
        <ele>1557</ele>
        <time>2014-11-12T10:29:29.63Z</time>
      </trkpt>
      <trkpt lat="42.53519" lon="2.21373">
        <ele>1560</ele>
        <time>2014-11-12T10:29:41.73Z</time>
      </trkpt>
      <trkpt lat="42.53525" lon="2.21369">
        <ele>1564.9199872</ele>
        <time>2014-11-12T10:30:00.73Z</time>
      </trkpt>
      <trkpt lat="42.53528" lon="2.21361">
        <ele>1567</ele>
        <time>2014-11-12T10:30:11.73Z</time>
      </trkpt>
      <trkpt lat="42.53532" lon="2.21367">
        <ele>1568</ele>
        <time>2014-11-12T10:30:27.73Z</time>
      </trkpt>
      <trkpt lat="42.53532" lon="2.21356">
        <ele>1570</ele>
        <time>2014-11-12T10:30:38.73Z</time>
      </trkpt>
      <trkpt lat="42.53532" lon="2.21347">
        <ele>1571</ele>
        <time>2014-11-12T10:30:46.73Z</time>
      </trkpt>
      <trkpt lat="42.53533" lon="2.2134">
        <ele>1572</ele>
        <time>2014-11-12T10:30:58.73Z</time>
      </trkpt>
      <trkpt lat="42.53532" lon="2.21329">
        <ele>1574</ele>
        <time>2014-11-12T10:31:09.73Z</time>
      </trkpt>
      <trkpt lat="42.5353" lon="2.21321">
        <ele>1575</ele>
        <time>2014-11-12T10:31:19.73Z</time>
      </trkpt>
      <trkpt lat="42.53526" lon="2.21314">
        <ele>1577</ele>
        <time>2014-11-12T10:32:08.73Z</time>
      </trkpt>
      <trkpt lat="42.53528" lon="2.21304">
        <ele>1579</ele>
        <time>2014-11-12T10:36:28.73Z</time>
      </trkpt>
      <trkpt lat="42.53533" lon="2.21296">
        <ele>1583</ele>
        <time>2014-11-12T10:36:45.73Z</time>
      </trkpt>
      <trkpt lat="42.5353" lon="2.21287">
        <ele>1584</ele>
        <time>2014-11-12T10:36:55.73Z</time>
      </trkpt>
      <trkpt lat="42.53527" lon="2.21281">
        <ele>1587</ele>
        <time>2014-11-12T10:37:03.73Z</time>
      </trkpt>
      <trkpt lat="42.53523" lon="2.2127">
        <ele>1589</ele>
        <time>2014-11-12T10:37:13.73Z</time>
      </trkpt>
      <trkpt lat="42.5352" lon="2.21259">
        <ele>1590</ele>
        <time>2014-11-12T10:37:24.73Z</time>
      </trkpt>
      <trkpt lat="42.5352" lon="2.21248">
        <ele>1591</ele>
        <time>2014-11-12T10:37:39.63Z</time>
      </trkpt>
      <trkpt lat="42.53523" lon="2.2124">
        <ele>1595</ele>
        <time>2014-11-12T10:37:52.63Z</time>
      </trkpt>
      <trkpt lat="42.53529" lon="2.2123">
        <ele>1600</ele>
        <time>2014-11-12T10:38:11.73Z</time>
      </trkpt>
      <trkpt lat="42.53531" lon="2.21218">
        <ele>1602</ele>
        <time>2014-11-12T10:38:25.73Z</time>
      </trkpt>
      <trkpt lat="42.53533" lon="2.21211">
        <ele>1603</ele>
        <time>2014-11-12T10:38:31.73Z</time>
      </trkpt>
      <trkpt lat="42.53537" lon="2.21203">
        <ele>1603.9199872</ele>
        <time>2014-11-12T10:38:40.73Z</time>
      </trkpt>
      <trkpt lat="42.53543" lon="2.21193">
        <ele>1607</ele>
        <time>2014-11-12T10:38:56.73Z</time>
      </trkpt>
      <trkpt lat="42.53547" lon="2.21183">
        <ele>1609</ele>
        <time>2014-11-12T10:39:08.73Z</time>
      </trkpt>
      <trkpt lat="42.53554" lon="2.21173">
        <ele>1611</ele>
        <time>2014-11-12T10:45:03.63Z</time>
      </trkpt>
      <trkpt lat="42.53563" lon="2.21165">
        <ele>1612</ele>
        <time>2014-11-12T10:45:19.63Z</time>
      </trkpt>
      <trkpt lat="42.53566" lon="2.21155">
        <ele>1614</ele>
        <time>2014-11-12T10:45:30.63Z</time>
      </trkpt>
      <trkpt lat="42.53568" lon="2.21142">
        <ele>1615</ele>
        <time>2014-11-12T10:45:41.63Z</time>
      </trkpt>
      <trkpt lat="42.5357" lon="2.21134">
        <ele>1615</ele>
        <time>2014-11-12T10:45:48.63Z</time>
      </trkpt>
      <trkpt lat="42.53575" lon="2.21125">
        <ele>1616</ele>
        <time>2014-11-12T10:45:55.63Z</time>
      </trkpt>
      <trkpt lat="42.53583" lon="2.2112">
        <ele>1615</ele>
        <time>2014-11-12T10:46:04.63Z</time>
      </trkpt>
      <trkpt lat="42.5359" lon="2.2111">
        <ele>1616</ele>
        <time>2014-11-12T10:46:14.63Z</time>
      </trkpt>
      <trkpt lat="42.53598" lon="2.21102">
        <ele>1616</ele>
        <time>2014-11-12T10:46:25.63Z</time>
      </trkpt>
      <trkpt lat="42.53608" lon="2.21095">
        <ele>1616</ele>
        <time>2014-11-12T10:46:33.63Z</time>
      </trkpt>
      <trkpt lat="42.53617" lon="2.21087">
        <ele>1617</ele>
        <time>2014-11-12T10:46:42.63Z</time>
      </trkpt>
      <trkpt lat="42.53625" lon="2.21078">
        <ele>1617</ele>
        <time>2014-11-12T10:46:51.63Z</time>
      </trkpt>
      <trkpt lat="42.53632" lon="2.21068">
        <ele>1616.643563227</ele>
        <time>2014-11-12T10:47:00.63Z</time>
      </trkpt>
      <trkpt lat="42.53637" lon="2.21056">
        <ele>1616</ele>
        <time>2014-11-12T10:47:11.63Z</time>
      </trkpt>
      <trkpt lat="42.53643" lon="2.21045">
        <ele>1615.64</ele>
        <time>2014-11-12T10:47:20.63Z</time>
      </trkpt>
      <trkpt lat="42.53648" lon="2.21031">
        <ele>1615</ele>
        <time>2014-11-12T10:47:29.63Z</time>
      </trkpt>
      <trkpt lat="42.53653" lon="2.2102">
        <ele>1614</ele>
        <time>2014-11-12T10:47:38.63Z</time>
      </trkpt>
      <trkpt lat="42.5366" lon="2.21009">
        <ele>1612</ele>
        <time>2014-11-12T10:47:49.63Z</time>
      </trkpt>
      <trkpt lat="42.53666" lon="2.20997">
        <ele>1612</ele>
        <time>2014-11-12T10:47:59.63Z</time>
      </trkpt>
      <trkpt lat="42.53673" lon="2.20986">
        <ele>1610</ele>
        <time>2014-11-12T10:48:10.64Z</time>
      </trkpt>
      <trkpt lat="42.53678" lon="2.20974">
        <ele>1610</ele>
        <time>2014-11-12T10:48:19.63Z</time>
      </trkpt>
      <trkpt lat="42.53683" lon="2.20961">
        <ele>1608</ele>
        <time>2014-11-12T10:48:29.63Z</time>
      </trkpt>
      <trkpt lat="42.53691" lon="2.20969">
        <ele>1605</ele>
        <time>2014-11-12T10:49:55.63Z</time>
      </trkpt>
      <trkpt lat="42.53698" lon="2.20979">
        <ele>1603</ele>
        <time>2014-11-12T10:50:04.63Z</time>
      </trkpt>
      <trkpt lat="42.53704" lon="2.2099">
        <ele>1603</ele>
        <time>2014-11-12T10:50:14.63Z</time>
      </trkpt>
      <trkpt lat="42.5371" lon="2.21002">
        <ele>1602</ele>
        <time>2014-11-12T10:50:26.63Z</time>
      </trkpt>
      <trkpt lat="42.53716" lon="2.21014">
        <ele>1600</ele>
        <time>2014-11-12T10:50:37.63Z</time>
      </trkpt>
      <trkpt lat="42.53722" lon="2.21025">
        <ele>1598</ele>
        <time>2014-11-12T10:50:47.63Z</time>
      </trkpt>
      <trkpt lat="42.53728" lon="2.21037">
        <ele>1597</ele>
        <time>2014-11-12T10:50:58.63Z</time>
      </trkpt>
      <trkpt lat="42.53734" lon="2.21049">
        <ele>1594</ele>
        <time>2014-11-12T10:51:08.63Z</time>
      </trkpt>
      <trkpt lat="42.53738" lon="2.21062">
        <ele>1594</ele>
        <time>2014-11-12T10:51:20.63Z</time>
      </trkpt>
      <trkpt lat="42.53744" lon="2.21074">
        <ele>1593.28</ele>
        <time>2014-11-12T10:51:30.63Z</time>
      </trkpt>
      <trkpt lat="42.53749" lon="2.21085">
        <ele>1590</ele>
        <time>2014-11-12T10:51:41.63Z</time>
      </trkpt>
      <trkpt lat="42.53754" lon="2.21098">
        <ele>1590</ele>
        <time>2014-11-12T10:51:49.63Z</time>
      </trkpt>
      <trkpt lat="42.53759" lon="2.21111">
        <ele>1587</ele>
        <time>2014-11-12T10:52:01.63Z</time>
      </trkpt>
      <trkpt lat="42.53766" lon="2.2112">
        <ele>1587</ele>
        <time>2014-11-12T10:52:13.73Z</time>
      </trkpt>
      <trkpt lat="42.53774" lon="2.21133">
        <ele>1586</ele>
        <time>2014-11-12T10:52:22.73Z</time>
      </trkpt>
      <trkpt lat="42.53781" lon="2.21143">
        <ele>1586</ele>
        <time>2014-11-12T10:52:29.73Z</time>
      </trkpt>
      <trkpt lat="42.5379" lon="2.21153">
        <ele>1585</ele>
        <time>2014-11-12T10:52:38.73Z</time>
      </trkpt>
      <trkpt lat="42.53798" lon="2.2116">
        <ele>1584</ele>
        <time>2014-11-12T10:52:45.73Z</time>
      </trkpt>
      <trkpt lat="42.53807" lon="2.21167">
        <ele>1583</ele>
        <time>2014-11-12T10:52:56.73Z</time>
      </trkpt>
      <trkpt lat="42.53816" lon="2.21176">
        <ele>1581</ele>
        <time>2014-11-12T10:53:03.73Z</time>
      </trkpt>
      <trkpt lat="42.53825" lon="2.21184">
        <ele>1581</ele>
        <time>2014-11-12T10:53:12.73Z</time>
      </trkpt>
      <trkpt lat="42.53832" lon="2.21194">
        <ele>1581</ele>
        <time>2014-11-12T10:53:22.73Z</time>
      </trkpt>
      <trkpt lat="42.5384" lon="2.21202">
        <ele>1580</ele>
        <time>2014-11-12T10:53:31.73Z</time>
      </trkpt>
      <trkpt lat="42.53848" lon="2.21212">
        <ele>1580</ele>
        <time>2014-11-12T10:53:39.73Z</time>
      </trkpt>
      <trkpt lat="42.53856" lon="2.21221">
        <ele>1578</ele>
        <time>2014-11-12T10:53:48.73Z</time>
      </trkpt>
      <trkpt lat="42.53862" lon="2.21232">
        <ele>1574</ele>
        <time>2014-11-12T10:54:02.73Z</time>
      </trkpt>
      <trkpt lat="42.5387" lon="2.21242">
        <ele>1573</ele>
        <time>2014-11-12T10:54:13.73Z</time>
      </trkpt>
      <trkpt lat="42.53878" lon="2.21251">
        <ele>1572</ele>
        <time>2014-11-12T10:54:21.73Z</time>
      </trkpt>
      <trkpt lat="42.53884" lon="2.21262">
        <ele>1572</ele>
        <time>2014-11-12T10:54:29.73Z</time>
      </trkpt>
      <trkpt lat="42.53891" lon="2.21271">
        <ele>1570</ele>
        <time>2014-11-12T10:54:37.73Z</time>
      </trkpt>
      <trkpt lat="42.53897" lon="2.21284">
        <ele>1569</ele>
        <time>2014-11-12T10:54:45.73Z</time>
      </trkpt>
      <trkpt lat="42.53902" lon="2.21297">
        <ele>1568</ele>
        <time>2014-11-12T10:54:57.73Z</time>
      </trkpt>
      <trkpt lat="42.53908" lon="2.2131">
        <ele>1567</ele>
        <time>2014-11-12T10:55:05.73Z</time>
      </trkpt>
      <trkpt lat="42.53912" lon="2.21321">
        <ele>1567</ele>
        <time>2014-11-12T10:55:14.73Z</time>
      </trkpt>
      <trkpt lat="42.53917" lon="2.21334">
        <ele>1566</ele>
        <time>2014-11-12T10:55:23.73Z</time>
      </trkpt>
      <trkpt lat="42.53923" lon="2.21345">
        <ele>1566</ele>
        <time>2014-11-12T10:55:31.73Z</time>
      </trkpt>
      <trkpt lat="42.53932" lon="2.21353">
        <ele>1565.5400064</ele>
        <time>2014-11-12T10:55:40.73Z</time>
      </trkpt>
      <trkpt lat="42.53943" lon="2.2136">
        <ele>1565</ele>
        <time>2014-11-12T10:55:49.73Z</time>
      </trkpt>
      <trkpt lat="42.53952" lon="2.21367">
        <ele>1565</ele>
        <time>2014-11-12T10:55:58.73Z</time>
      </trkpt>
      <trkpt lat="42.53963" lon="2.21369">
        <ele>1564</ele>
        <time>2014-11-12T10:56:07.73Z</time>
      </trkpt>
      <trkpt lat="42.53972" lon="2.21374">
        <ele>1564</ele>
        <time>2014-11-12T10:56:16.73Z</time>
      </trkpt>
      <trkpt lat="42.53981" lon="2.21379">
        <ele>1564</ele>
        <time>2014-11-12T10:56:23.73Z</time>
      </trkpt>
      <trkpt lat="42.53989" lon="2.21383">
        <ele>1564</ele>
        <time>2014-11-12T10:56:30.73Z</time>
      </trkpt>
      <trkpt lat="42.53999" lon="2.21385">
        <ele>1564</ele>
        <time>2014-11-12T10:56:38.73Z</time>
      </trkpt>
      <trkpt lat="42.54008" lon="2.21386">
        <ele>1564</ele>
        <time>2014-11-12T10:56:45.73Z</time>
      </trkpt>
      <trkpt lat="42.54017" lon="2.21391">
        <ele>1564</ele>
        <time>2014-11-12T10:56:53.73Z</time>
      </trkpt>
      <trkpt lat="42.54027" lon="2.21395">
        <ele>1563</ele>
        <time>2014-11-12T10:57:01.73Z</time>
      </trkpt>
      <trkpt lat="42.54037" lon="2.21399">
        <ele>1563</ele>
        <time>2014-11-12T10:57:10.73Z</time>
      </trkpt>
      <trkpt lat="42.54046" lon="2.21407">
        <ele>1563</ele>
        <time>2014-11-12T10:57:18.73Z</time>
      </trkpt>
      <trkpt lat="42.54055" lon="2.21414">
        <ele>1563</ele>
        <time>2014-11-12T10:57:27.73Z</time>
      </trkpt>
      <trkpt lat="42.54064" lon="2.2142">
        <ele>1562</ele>
        <time>2014-11-12T10:57:35.73Z</time>
      </trkpt>
      <trkpt lat="42.54073" lon="2.21429">
        <ele>1561</ele>
        <time>2014-11-12T10:57:44.74Z</time>
      </trkpt>
      <trkpt lat="42.54082" lon="2.21435">
        <ele>1561</ele>
        <time>2014-11-12T10:57:52.73Z</time>
      </trkpt>
      <trkpt lat="42.54092" lon="2.21441">
        <ele>1561</ele>
        <time>2014-11-12T10:58:01.73Z</time>
      </trkpt>
      <trkpt lat="42.54101" lon="2.21447">
        <ele>1561</ele>
        <time>2014-11-12T10:58:08.73Z</time>
      </trkpt>
      <trkpt lat="42.54109" lon="2.21451">
        <ele>1562</ele>
        <time>2014-11-12T10:58:15.73Z</time>
      </trkpt>
      <trkpt lat="42.54115" lon="2.21456">
        <ele>1562</ele>
        <time>2014-11-12T10:58:20.73Z</time>
      </trkpt>
      <trkpt lat="42.54121" lon="2.21461">
        <ele>1562</ele>
        <time>2014-11-12T10:58:25.73Z</time>
      </trkpt>
      <trkpt lat="42.54127" lon="2.21466">
        <ele>1561</ele>
        <time>2014-11-12T10:58:31.73Z</time>
      </trkpt>
      <trkpt lat="42.54136" lon="2.21473">
        <ele>1561</ele>
        <time>2014-11-12T10:58:39.73Z</time>
      </trkpt>
      <trkpt lat="42.54141" lon="2.21479">
        <ele>1561</ele>
        <time>2014-11-12T10:58:44.73Z</time>
      </trkpt>
      <trkpt lat="42.54145" lon="2.21486">
        <ele>1561</ele>
        <time>2014-11-12T10:58:49.73Z</time>
      </trkpt>
      <trkpt lat="42.54149" lon="2.21492">
        <ele>1561</ele>
        <time>2014-11-12T10:58:54.73Z</time>
      </trkpt>
      <trkpt lat="42.54152" lon="2.215">
        <ele>1561</ele>
        <time>2014-11-12T10:58:59.63Z</time>
      </trkpt>
      <trkpt lat="42.54155" lon="2.21508">
        <ele>1560</ele>
        <time>2014-11-12T10:59:04.63Z</time>
      </trkpt>
      <trkpt lat="42.54158" lon="2.21521">
        <ele>1560</ele>
        <time>2014-11-12T10:59:15.63Z</time>
      </trkpt>
      <trkpt lat="42.54158" lon="2.21535">
        <ele>1559</ele>
        <time>2014-11-12T10:59:29.63Z</time>
      </trkpt>
      <trkpt lat="42.5416" lon="2.21548">
        <ele>1558</ele>
        <time>2014-11-12T10:59:37.63Z</time>
      </trkpt>
      <trkpt lat="42.5416" lon="2.21563">
        <ele>1557</ele>
        <time>2014-11-12T10:59:47.63Z</time>
      </trkpt>
      <trkpt lat="42.54156" lon="2.21577">
        <ele>1556</ele>
        <time>2014-11-12T10:59:56.63Z</time>
      </trkpt>
      <trkpt lat="42.54156" lon="2.2159">
        <ele>1553</ele>
        <time>2014-11-12T11:00:05.63Z</time>
      </trkpt>
      <trkpt lat="42.54153" lon="2.21604">
        <ele>1552</ele>
        <time>2014-11-12T11:00:15.63Z</time>
      </trkpt>
      <trkpt lat="42.5415" lon="2.21618">
        <ele>1550</ele>
        <time>2014-11-12T11:00:25.63Z</time>
      </trkpt>
      <trkpt lat="42.54148" lon="2.21633">
        <ele>1549</ele>
        <time>2014-11-12T11:00:36.63Z</time>
      </trkpt>
      <trkpt lat="42.54147" lon="2.21647">
        <ele>1545</ele>
        <time>2014-11-12T11:00:47.63Z</time>
      </trkpt>
      <trkpt lat="42.54148" lon="2.21662">
        <ele>1544</ele>
        <time>2014-11-12T11:00:59.63Z</time>
      </trkpt>
      <trkpt lat="42.54145" lon="2.21676">
        <ele>1541</ele>
        <time>2014-11-12T11:01:08.63Z</time>
      </trkpt>
      <trkpt lat="42.54147" lon="2.21692">
        <ele>1539</ele>
        <time>2014-11-12T11:01:18.63Z</time>
      </trkpt>
      <trkpt lat="42.54147" lon="2.21706">
        <ele>1538</ele>
        <time>2014-11-12T11:01:26.63Z</time>
      </trkpt>
      <trkpt lat="42.54146" lon="2.2172">
        <ele>1538</ele>
        <time>2014-11-12T11:01:35.63Z</time>
      </trkpt>
      <trkpt lat="42.54143" lon="2.21734">
        <ele>1534.64</ele>
        <time>2014-11-12T11:01:45.63Z</time>
      </trkpt>
      <trkpt lat="42.54139" lon="2.21748">
        <ele>1533</ele>
        <time>2014-11-12T11:01:55.63Z</time>
      </trkpt>
      <trkpt lat="42.54137" lon="2.21762">
        <ele>1531</ele>
        <time>2014-11-12T11:02:05.63Z</time>
      </trkpt>
      <trkpt lat="42.54136" lon="2.21776">
        <ele>1530</ele>
        <time>2014-11-12T11:02:17.63Z</time>
      </trkpt>
      <trkpt lat="42.54136" lon="2.2179">
        <ele>1528</ele>
        <time>2014-11-12T11:02:29.63Z</time>
      </trkpt>
      <trkpt lat="42.54135" lon="2.21803">
        <ele>1527</ele>
        <time>2014-11-12T11:02:39.63Z</time>
      </trkpt>
      <trkpt lat="42.54136" lon="2.21817">
        <ele>1524</ele>
        <time>2014-11-12T11:02:49.63Z</time>
      </trkpt>
      <trkpt lat="42.54134" lon="2.21832">
        <ele>1523</ele>
        <time>2014-11-12T11:02:57.63Z</time>
      </trkpt>
      <trkpt lat="42.54132" lon="2.21845">
        <ele>1520</ele>
        <time>2014-11-12T11:03:08.63Z</time>
      </trkpt>
      <trkpt lat="42.54131" lon="2.21857">
        <ele>1519</ele>
        <time>2014-11-12T11:03:18.63Z</time>
      </trkpt>
      <trkpt lat="42.54131" lon="2.21871">
        <ele>1514.64</ele>
        <time>2014-11-12T11:03:30.63Z</time>
      </trkpt>
      <trkpt lat="42.54129" lon="2.21885">
        <ele>1514</ele>
        <time>2014-11-12T11:03:39.63Z</time>
      </trkpt>
      <trkpt lat="42.54128" lon="2.21898">
        <ele>1512</ele>
        <time>2014-11-12T11:03:49.63Z</time>
      </trkpt>
      <trkpt lat="42.54122" lon="2.21911">
        <ele>1511</ele>
        <time>2014-11-12T11:03:57.63Z</time>
      </trkpt>
      <trkpt lat="42.54117" lon="2.21923">
        <ele>1509</ele>
        <time>2014-11-12T11:04:06.63Z</time>
      </trkpt>
      <trkpt lat="42.54113" lon="2.21937">
        <ele>1507</ele>
        <time>2014-11-12T11:04:17.63Z</time>
      </trkpt>
      <trkpt lat="42.5411" lon="2.2195">
        <ele>1506</ele>
        <time>2014-11-12T11:04:28.63Z</time>
      </trkpt>
      <trkpt lat="42.54113" lon="2.21964">
        <ele>1504</ele>
        <time>2014-11-12T11:04:36.63Z</time>
      </trkpt>
      <trkpt lat="42.54109" lon="2.21977">
        <ele>1502</ele>
        <time>2014-11-12T11:04:45.63Z</time>
      </trkpt>
      <trkpt lat="42.54108" lon="2.21991">
        <ele>1500</ele>
        <time>2014-11-12T11:04:55.83Z</time>
      </trkpt>
      <trkpt lat="42.54111" lon="2.22004">
        <ele>1497</ele>
        <time>2014-11-12T11:05:05.63Z</time>
      </trkpt>
      <trkpt lat="42.54116" lon="2.22015">
        <ele>1497</ele>
        <time>2014-11-12T11:05:16.63Z</time>
      </trkpt>
      <trkpt lat="42.54126" lon="2.22022">
        <ele>1495</ele>
        <time>2014-11-12T11:05:27.63Z</time>
      </trkpt>
      <trkpt lat="42.54136" lon="2.2203">
        <ele>1493</ele>
        <time>2014-11-12T11:05:35.63Z</time>
      </trkpt>
      <trkpt lat="42.54142" lon="2.22041">
        <ele>1491</ele>
        <time>2014-11-12T11:05:44.63Z</time>
      </trkpt>
      <trkpt lat="42.54145" lon="2.22055">
        <ele>1489</ele>
        <time>2014-11-12T11:06:09.63Z</time>
      </trkpt>
      <trkpt lat="42.54148" lon="2.22068">
        <ele>1487.28</ele>
        <time>2014-11-12T11:06:20.63Z</time>
      </trkpt>
      <trkpt lat="42.54144" lon="2.22082">
        <ele>1486</ele>
        <time>2014-11-12T11:06:29.63Z</time>
      </trkpt>
      <trkpt lat="42.5414" lon="2.22094">
        <ele>1485</ele>
        <time>2014-11-12T11:06:38.63Z</time>
      </trkpt>
      <trkpt lat="42.54136" lon="2.22108">
        <ele>1483</ele>
        <time>2014-11-12T11:06:46.63Z</time>
      </trkpt>
      <trkpt lat="42.54131" lon="2.22121">
        <ele>1483</ele>
        <time>2014-11-12T11:06:54.63Z</time>
      </trkpt>
      <trkpt lat="42.5413" lon="2.22135">
        <ele>1482</ele>
        <time>2014-11-12T11:07:02.63Z</time>
      </trkpt>
      <trkpt lat="42.54136" lon="2.22147">
        <ele>1482</ele>
        <time>2014-11-12T11:07:13.63Z</time>
      </trkpt>
      <trkpt lat="42.54143" lon="2.22157">
        <ele>1479</ele>
        <time>2014-11-12T11:07:21.63Z</time>
      </trkpt>
      <trkpt lat="42.54148" lon="2.22168">
        <ele>1478</ele>
        <time>2014-11-12T11:07:30.63Z</time>
      </trkpt>
      <trkpt lat="42.54156" lon="2.22177">
        <ele>1478</ele>
        <time>2014-11-12T11:07:39.63Z</time>
      </trkpt>
      <trkpt lat="42.54164" lon="2.22186">
        <ele>1476</ele>
        <time>2014-11-12T11:07:47.83Z</time>
      </trkpt>
      <trkpt lat="42.54171" lon="2.22197">
        <ele>1474</ele>
        <time>2014-11-12T11:07:54.63Z</time>
      </trkpt>
      <trkpt lat="42.54174" lon="2.2221">
        <ele>1471</ele>
        <time>2014-11-12T11:08:03.63Z</time>
      </trkpt>
      <trkpt lat="42.54176" lon="2.22224">
        <ele>1470</ele>
        <time>2014-11-12T11:08:13.83Z</time>
      </trkpt>
      <trkpt lat="42.54176" lon="2.22238">
        <ele>1467</ele>
        <time>2014-11-12T11:08:22.63Z</time>
      </trkpt>
      <trkpt lat="42.54175" lon="2.22252">
        <ele>1466</ele>
        <time>2014-11-12T11:08:32.63Z</time>
      </trkpt>
      <trkpt lat="42.54173" lon="2.22266">
        <ele>1464</ele>
        <time>2014-11-12T11:08:41.63Z</time>
      </trkpt>
      <trkpt lat="42.54174" lon="2.22279">
        <ele>1461</ele>
        <time>2014-11-12T11:08:54.83Z</time>
      </trkpt>
      <trkpt lat="42.54181" lon="2.2229">
        <ele>1458</ele>
        <time>2014-11-12T11:09:03.83Z</time>
      </trkpt>
      <trkpt lat="42.54183" lon="2.22303">
        <ele>1456</ele>
        <time>2014-11-12T11:09:14.83Z</time>
      </trkpt>
      <trkpt lat="42.54185" lon="2.22318">
        <ele>1455</ele>
        <time>2014-11-12T11:09:24.83Z</time>
      </trkpt>
      <trkpt lat="42.54188" lon="2.22333">
        <ele>1453</ele>
        <time>2014-11-12T11:09:32.83Z</time>
      </trkpt>
      <trkpt lat="42.5419" lon="2.22347">
        <ele>1451</ele>
        <time>2014-11-12T11:09:41.83Z</time>
      </trkpt>
      <trkpt lat="42.54193" lon="2.22361">
        <ele>1450</ele>
        <time>2014-11-12T11:09:52.83Z</time>
      </trkpt>
      <trkpt lat="42.54198" lon="2.22374">
        <ele>1447</ele>
        <time>2014-11-12T11:10:02.83Z</time>
      </trkpt>
      <trkpt lat="42.54201" lon="2.22387">
        <ele>1445</ele>
        <time>2014-11-12T11:10:12.83Z</time>
      </trkpt>
      <trkpt lat="42.542" lon="2.22402">
        <ele>1444</ele>
        <time>2014-11-12T11:10:21.83Z</time>
      </trkpt>
      <trkpt lat="42.542" lon="2.22416">
        <ele>1444</ele>
        <time>2014-11-12T11:10:28.83Z</time>
      </trkpt>
      <trkpt lat="42.542" lon="2.2243">
        <ele>1442</ele>
        <time>2014-11-12T11:10:39.83Z</time>
      </trkpt>
      <trkpt lat="42.54201" lon="2.22445">
        <ele>1438.44</ele>
        <time>2014-11-12T11:10:50.83Z</time>
      </trkpt>
      <trkpt lat="42.54202" lon="2.22459">
        <ele>1438</ele>
        <time>2014-11-12T11:10:58.83Z</time>
      </trkpt>
      <trkpt lat="42.54202" lon="2.22473">
        <ele>1435</ele>
        <time>2014-11-12T11:11:07.83Z</time>
      </trkpt>
      <trkpt lat="42.54203" lon="2.22487">
        <ele>1435</ele>
        <time>2014-11-12T11:11:16.83Z</time>
      </trkpt>
      <trkpt lat="42.54203" lon="2.22501">
        <ele>1433</ele>
        <time>2014-11-12T11:11:24.83Z</time>
      </trkpt>
      <trkpt lat="42.54202" lon="2.22515">
        <ele>1431</ele>
        <time>2014-11-12T11:11:33.83Z</time>
      </trkpt>
      <trkpt lat="42.54202" lon="2.22529">
        <ele>1430</ele>
        <time>2014-11-12T11:11:41.83Z</time>
      </trkpt>
      <trkpt lat="42.54199" lon="2.22542">
        <ele>1426</ele>
        <time>2014-11-12T11:13:40.83Z</time>
      </trkpt>
      <trkpt lat="42.54195" lon="2.22554">
        <ele>1426</ele>
        <time>2014-11-12T11:13:47.83Z</time>
      </trkpt>
      <trkpt lat="42.54189" lon="2.22566">
        <ele>1425</ele>
        <time>2014-11-12T11:14:36.73Z</time>
      </trkpt>
      <trkpt lat="42.54182" lon="2.22577">
        <ele>1425</ele>
        <time>2014-11-12T11:14:44.73Z</time>
      </trkpt>
      <trkpt lat="42.54174" lon="2.22585">
        <ele>1423</ele>
        <time>2014-11-12T11:14:53.73Z</time>
      </trkpt>
      <trkpt lat="42.54165" lon="2.22595">
        <ele>1421</ele>
        <time>2014-11-12T11:15:04.73Z</time>
      </trkpt>
      <trkpt lat="42.54159" lon="2.22607">
        <ele>1420</ele>
        <time>2014-11-12T11:15:13.73Z</time>
      </trkpt>
      <trkpt lat="42.54156" lon="2.2262">
        <ele>1418</ele>
        <time>2014-11-12T11:15:22.73Z</time>
      </trkpt>
      <trkpt lat="42.54154" lon="2.22635">
        <ele>1416.32</ele>
        <time>2014-11-12T11:15:30.83Z</time>
      </trkpt>
      <trkpt lat="42.54151" lon="2.22649">
        <ele>1413.44</ele>
        <time>2014-11-12T11:15:40.83Z</time>
      </trkpt>
      <trkpt lat="42.54147" lon="2.22661">
        <ele>1413</ele>
        <time>2014-11-12T11:15:46.83Z</time>
      </trkpt>
      <trkpt lat="42.54143" lon="2.22675">
        <ele>1411</ele>
        <time>2014-11-12T11:15:54.63Z</time>
      </trkpt>
      <trkpt lat="42.54143" lon="2.22691">
        <ele>1408</ele>
        <time>2014-11-12T11:16:01.83Z</time>
      </trkpt>
      <trkpt lat="42.54144" lon="2.22705">
        <ele>1408</ele>
        <time>2014-11-12T11:16:09.83Z</time>
      </trkpt>
      <trkpt lat="42.54144" lon="2.22719">
        <ele>1407</ele>
        <time>2014-11-12T11:16:18.83Z</time>
      </trkpt>
      <trkpt lat="42.54143" lon="2.22734">
        <ele>1405</ele>
        <time>2014-11-12T11:16:26.83Z</time>
      </trkpt>
      <trkpt lat="42.54142" lon="2.22747">
        <ele>1404</ele>
        <time>2014-11-12T11:16:36.83Z</time>
      </trkpt>
      <trkpt lat="42.54144" lon="2.22761">
        <ele>1401</ele>
        <time>2014-11-12T11:16:44.83Z</time>
      </trkpt>
      <trkpt lat="42.54147" lon="2.22765">
        <ele>1399</ele>
        <time>2014-11-12T11:17:25.83Z</time>
      </trkpt>
      <trkpt lat="42.54153" lon="2.22762">
        <ele>1399</ele>
        <time>2014-11-12T11:17:31.56Z</time>
      </trkpt>
      <trkpt lat="42.54152" lon="2.22753">
        <ele>1399</ele>
        <time>2014-11-12T11:17:37.83Z</time>
      </trkpt>
      <trkpt lat="42.54158" lon="2.22741">
        <ele>1399</ele>
        <time>2014-11-12T11:17:45.83Z</time>
      </trkpt>
      <trkpt lat="42.54164" lon="2.22731">
        <ele>1399</ele>
        <time>2014-11-12T11:17:52.83Z</time>
      </trkpt>
      <trkpt lat="42.54173" lon="2.22725">
        <ele>1399</ele>
        <time>2014-11-12T11:18:01.83Z</time>
      </trkpt>
      <trkpt lat="42.54178" lon="2.22735">
        <ele>1398</ele>
        <time>2014-11-12T11:18:13.83Z</time>
      </trkpt>
      <trkpt lat="42.54178" lon="2.22738">
        <ele>1390</ele>
        <time>2014-11-12T11:26:49.83Z</time>
      </trkpt>
      <trkpt lat="42.54181" lon="2.22736">
        <ele>1389</ele>
        <time>2014-11-12T11:33:32.83Z</time>
      </trkpt>
      <trkpt lat="42.54179" lon="2.22736">
        <ele>1389</ele>
        <time>2014-11-12T11:45:13.83Z</time>
      </trkpt>
      <trkpt lat="42.54175" lon="2.22733">
        <ele>1389</ele>
        <time>2014-11-12T11:46:50.63Z</time>
      </trkpt>
      <trkpt lat="42.5417" lon="2.22733">
        <ele>1389</ele>
        <time>2014-11-12T11:48:16.73Z</time>
      </trkpt>
      <trkpt lat="42.54166" lon="2.22738">
        <ele>1389</ele>
        <time>2014-11-12T11:48:23.73Z</time>
      </trkpt>
      <trkpt lat="42.54161" lon="2.22744">
        <ele>1389</ele>
        <time>2014-11-12T11:48:31.73Z</time>
      </trkpt>
      <trkpt lat="42.54156" lon="2.22753">
        <ele>1389</ele>
        <time>2014-11-12T11:48:39.73Z</time>
      </trkpt>
      <trkpt lat="42.54152" lon="2.22761">
        <ele>1389</ele>
        <time>2014-11-12T11:48:45.73Z</time>
      </trkpt>
      <trkpt lat="42.5415" lon="2.2277">
        <ele>1389</ele>
        <time>2014-11-12T11:48:52.73Z</time>
      </trkpt>
      <trkpt lat="42.54148" lon="2.22779">
        <ele>1389</ele>
        <time>2014-11-12T11:48:58.73Z</time>
      </trkpt>
      <trkpt lat="42.54145" lon="2.2279">
        <ele>1389</ele>
        <time>2014-11-12T11:49:07.73Z</time>
      </trkpt>
      <trkpt lat="42.54144" lon="2.22804">
        <ele>1389</ele>
        <time>2014-11-12T11:49:16.73Z</time>
      </trkpt>
      <trkpt lat="42.54143" lon="2.22817">
        <ele>1384</ele>
        <time>2014-11-12T11:49:24.63Z</time>
      </trkpt>
      <trkpt lat="42.54142" lon="2.22832">
        <ele>1382</ele>
        <time>2014-11-12T11:49:32.63Z</time>
      </trkpt>
      <trkpt lat="42.5414" lon="2.22846">
        <ele>1381</ele>
        <time>2014-11-12T11:49:41.63Z</time>
      </trkpt>
      <trkpt lat="42.54137" lon="2.22859">
        <ele>1380</ele>
        <time>2014-11-12T11:49:51.63Z</time>
      </trkpt>
      <trkpt lat="42.54139" lon="2.22873">
        <ele>1380</ele>
        <time>2014-11-12T11:49:59.63Z</time>
      </trkpt>
      <trkpt lat="42.54142" lon="2.22887">
        <ele>1378</ele>
        <time>2014-11-12T11:50:07.63Z</time>
      </trkpt>
      <trkpt lat="42.54146" lon="2.229">
        <ele>1378</ele>
        <time>2014-11-12T11:50:16.63Z</time>
      </trkpt>
      <trkpt lat="42.54149" lon="2.22912">
        <ele>1377</ele>
        <time>2014-11-12T11:50:24.63Z</time>
      </trkpt>
      <trkpt lat="42.5415" lon="2.22924">
        <ele>1375</ele>
        <time>2014-11-12T11:50:32.63Z</time>
      </trkpt>
      <trkpt lat="42.5415" lon="2.22939">
        <ele>1373</ele>
        <time>2014-11-12T11:50:42.63Z</time>
      </trkpt>
      <trkpt lat="42.54154" lon="2.2295">
        <ele>1373</ele>
        <time>2014-11-12T11:50:49.63Z</time>
      </trkpt>
      <trkpt lat="42.54156" lon="2.22958">
        <ele>1372</ele>
        <time>2014-11-12T11:50:55.63Z</time>
      </trkpt>
      <trkpt lat="42.54153" lon="2.22967">
        <ele>1370</ele>
        <time>2014-11-12T11:51:02.64Z</time>
      </trkpt>
      <trkpt lat="42.54151" lon="2.22976">
        <ele>1369.64</ele>
        <time>2014-11-12T11:51:10.63Z</time>
      </trkpt>
      <trkpt lat="42.54151" lon="2.22986">
        <ele>1369</ele>
        <time>2014-11-12T11:51:19.63Z</time>
      </trkpt>
      <trkpt lat="42.54149" lon="2.2299">
        <ele>1368</ele>
        <time>2014-11-12T11:51:23.63Z</time>
      </trkpt>
      <trkpt lat="42.54148" lon="2.22996">
        <ele>1368</ele>
        <time>2014-11-12T11:51:28.63Z</time>
      </trkpt>
      <trkpt lat="42.54147" lon="2.23004">
        <ele>1365</ele>
        <time>2014-11-12T11:51:34.64Z</time>
      </trkpt>
      <trkpt lat="42.54145" lon="2.23011">
        <ele>1363</ele>
        <time>2014-11-12T11:51:39.63Z</time>
      </trkpt>
      <trkpt lat="42.54144" lon="2.23019">
        <ele>1362</ele>
        <time>2014-11-12T11:51:48.63Z</time>
      </trkpt>
      <trkpt lat="42.54145" lon="2.23027">
        <ele>1361</ele>
        <time>2014-11-12T11:51:55.63Z</time>
      </trkpt>
      <trkpt lat="42.54142" lon="2.23034">
        <ele>1359</ele>
        <time>2014-11-12T11:52:01.63Z</time>
      </trkpt>
      <trkpt lat="42.54139" lon="2.23041">
        <ele>1359</ele>
        <time>2014-11-12T11:52:07.63Z</time>
      </trkpt>
      <trkpt lat="42.54136" lon="2.23047">
        <ele>1358</ele>
        <time>2014-11-12T11:52:16.63Z</time>
      </trkpt>
      <trkpt lat="42.54131" lon="2.23057">
        <ele>1356</ele>
        <time>2014-11-12T11:52:27.63Z</time>
      </trkpt>
      <trkpt lat="42.54125" lon="2.23064">
        <ele>1352.28</ele>
        <time>2014-11-12T11:52:35.63Z</time>
      </trkpt>
      <trkpt lat="42.54119" lon="2.23069">
        <ele>1351</ele>
        <time>2014-11-12T11:52:40.63Z</time>
      </trkpt>
      <trkpt lat="42.54114" lon="2.23073">
        <ele>1351</ele>
        <time>2014-11-12T11:52:45.63Z</time>
      </trkpt>
      <trkpt lat="42.54109" lon="2.23076">
        <ele>1350.28</ele>
        <time>2014-11-12T11:52:50.63Z</time>
      </trkpt>
      <trkpt lat="42.54106" lon="2.23079">
        <ele>1349</ele>
        <time>2014-11-12T11:53:35.63Z</time>
      </trkpt>
      <trkpt lat="42.54099" lon="2.23078">
        <ele>1347</ele>
        <time>2014-11-12T11:53:51.63Z</time>
      </trkpt>
      <trkpt lat="42.54094" lon="2.2308">
        <ele>1347</ele>
        <time>2014-11-12T11:53:59.63Z</time>
      </trkpt>
      <trkpt lat="42.5409" lon="2.2309">
        <ele>1343</ele>
        <time>2014-11-12T11:54:12.63Z</time>
      </trkpt>
      <trkpt lat="42.54086" lon="2.231">
        <ele>1341</ele>
        <time>2014-11-12T11:54:23.63Z</time>
      </trkpt>
      <trkpt lat="42.54077" lon="2.23105">
        <ele>1338</ele>
        <time>2014-11-12T11:54:32.63Z</time>
      </trkpt>
      <trkpt lat="42.54068" lon="2.23112">
        <ele>1335</ele>
        <time>2014-11-12T11:54:41.63Z</time>
      </trkpt>
      <trkpt lat="42.54062" lon="2.23123">
        <ele>1334</ele>
        <time>2014-11-12T11:54:49.63Z</time>
      </trkpt>
      <trkpt lat="42.54062" lon="2.23137">
        <ele>1334</ele>
        <time>2014-11-12T11:54:59.63Z</time>
      </trkpt>
      <trkpt lat="42.54061" lon="2.2315">
        <ele>1331</ele>
        <time>2014-11-12T11:55:09.63Z</time>
      </trkpt>
      <trkpt lat="42.54062" lon="2.23164">
        <ele>1330</ele>
        <time>2014-11-12T11:55:24.63Z</time>
      </trkpt>
      <trkpt lat="42.54062" lon="2.23178">
        <ele>1329</ele>
        <time>2014-11-12T11:55:37.63Z</time>
      </trkpt>
      <trkpt lat="42.54064" lon="2.23192">
        <ele>1325</ele>
        <time>2014-11-12T11:55:46.63Z</time>
      </trkpt>
      <trkpt lat="42.54062" lon="2.23206">
        <ele>1324</ele>
        <time>2014-11-12T11:55:57.63Z</time>
      </trkpt>
      <trkpt lat="42.54058" lon="2.23216">
        <ele>1322</ele>
        <time>2014-11-12T11:56:06.63Z</time>
      </trkpt>
      <trkpt lat="42.54055" lon="2.23227">
        <ele>1322</ele>
        <time>2014-11-12T11:56:14.63Z</time>
      </trkpt>
      <trkpt lat="42.54053" lon="2.23236">
        <ele>1320</ele>
        <time>2014-11-12T11:56:21.63Z</time>
      </trkpt>
      <trkpt lat="42.54051" lon="2.2325">
        <ele>1319</ele>
        <time>2014-11-12T11:56:32.63Z</time>
      </trkpt>
      <trkpt lat="42.5405" lon="2.23264">
        <ele>1317</ele>
        <time>2014-11-12T11:56:43.63Z</time>
      </trkpt>
      <trkpt lat="42.54046" lon="2.23273">
        <ele>1316.64</ele>
        <time>2014-11-12T11:56:50.63Z</time>
      </trkpt>
      <trkpt lat="42.54046" lon="2.23284">
        <ele>1316</ele>
        <time>2014-11-12T11:56:58.63Z</time>
      </trkpt>
      <trkpt lat="42.54048" lon="2.23298">
        <ele>1311</ele>
        <time>2014-11-12T11:57:11.63Z</time>
      </trkpt>
      <trkpt lat="42.54051" lon="2.2331">
        <ele>1310</ele>
        <time>2014-11-12T11:57:22.63Z</time>
      </trkpt>
      <trkpt lat="42.54057" lon="2.23322">
        <ele>1308</ele>
        <time>2014-11-12T11:57:32.63Z</time>
      </trkpt>
      <trkpt lat="42.5406" lon="2.23335">
        <ele>1307</ele>
        <time>2014-11-12T11:57:44.63Z</time>
      </trkpt>
      <trkpt lat="42.54062" lon="2.23349">
        <ele>1306</ele>
        <time>2014-11-12T11:57:53.63Z</time>
      </trkpt>
      <trkpt lat="42.54063" lon="2.23362">
        <ele>1303</ele>
        <time>2014-11-12T11:58:02.63Z</time>
      </trkpt>
      <trkpt lat="42.54062" lon="2.23373">
        <ele>1303</ele>
        <time>2014-11-12T11:58:10.63Z</time>
      </trkpt>
      <trkpt lat="42.54065" lon="2.2338">
        <ele>1303</ele>
        <time>2014-11-12T11:58:16.63Z</time>
      </trkpt>
      <trkpt lat="42.54062" lon="2.23386">
        <ele>1302.28</ele>
        <time>2014-11-12T11:58:20.63Z</time>
      </trkpt>
      <trkpt lat="42.54061" lon="2.23395">
        <ele>1301</ele>
        <time>2014-11-12T11:58:28.63Z</time>
      </trkpt>
      <trkpt lat="42.54064" lon="2.23402">
        <ele>1299</ele>
        <time>2014-11-12T12:00:32.63Z</time>
      </trkpt>
      <trkpt lat="42.54069" lon="2.23405">
        <ele>1300</ele>
        <time>2014-11-12T12:00:42.63Z</time>
      </trkpt>
      <trkpt lat="42.54066" lon="2.23399">
        <ele>1300</ele>
        <time>2014-11-12T12:02:09.63Z</time>
      </trkpt>
      <trkpt lat="42.54068" lon="2.23404">
        <ele>1300</ele>
        <time>2014-11-12T12:02:38.63Z</time>
      </trkpt>
      <trkpt lat="42.54063" lon="2.23404">
        <ele>1299</ele>
        <time>2014-11-12T12:04:25.63Z</time>
      </trkpt>
      <trkpt lat="42.54057" lon="2.23404">
        <ele>1299</ele>
        <time>2014-11-12T12:04:38.63Z</time>
      </trkpt>
      <trkpt lat="42.54055" lon="2.23411">
        <ele>1298</ele>
        <time>2014-11-12T12:04:51.63Z</time>
      </trkpt>
      <trkpt lat="42.54053" lon="2.23419">
        <ele>1298</ele>
        <time>2014-11-12T12:04:59.63Z</time>
      </trkpt>
      <trkpt lat="42.54051" lon="2.23428">
        <ele>1294</ele>
        <time>2014-11-12T12:05:09.63Z</time>
      </trkpt>
      <trkpt lat="42.54048" lon="2.23437">
        <ele>1292.28</ele>
        <time>2014-11-12T12:05:20.63Z</time>
      </trkpt>
      <trkpt lat="42.54044" lon="2.23442">
        <ele>1289</ele>
        <time>2014-11-12T12:05:32.63Z</time>
      </trkpt>
      <trkpt lat="42.5404" lon="2.23449">
        <ele>1287</ele>
        <time>2014-11-12T12:05:41.63Z</time>
      </trkpt>
      <trkpt lat="42.54036" lon="2.23456">
        <ele>1286.28</ele>
        <time>2014-11-12T12:05:50.63Z</time>
      </trkpt>
      <trkpt lat="42.54031" lon="2.23464">
        <ele>1285</ele>
        <time>2014-11-12T12:05:59.63Z</time>
      </trkpt>
      <trkpt lat="42.54028" lon="2.23474">
        <ele>1282</ele>
        <time>2014-11-12T12:06:08.63Z</time>
      </trkpt>
      <trkpt lat="42.54026" lon="2.23484">
        <ele>1279</ele>
        <time>2014-11-12T12:06:21.63Z</time>
      </trkpt>
      <trkpt lat="42.54024" lon="2.23495">
        <ele>1278</ele>
        <time>2014-11-12T12:06:34.63Z</time>
      </trkpt>
      <trkpt lat="42.54029" lon="2.23505">
        <ele>1276</ele>
        <time>2014-11-12T12:06:48.63Z</time>
      </trkpt>
      <trkpt lat="42.54033" lon="2.23516">
        <ele>1274</ele>
        <time>2014-11-12T12:06:59.63Z</time>
      </trkpt>
      <trkpt lat="42.54037" lon="2.23525">
        <ele>1274</ele>
        <time>2014-11-12T12:07:05.63Z</time>
      </trkpt>
      <trkpt lat="42.54041" lon="2.23536">
        <ele>1273</ele>
        <time>2014-11-12T12:07:12.63Z</time>
      </trkpt>
      <trkpt lat="42.54042" lon="2.23548">
        <ele>1272</ele>
        <time>2014-11-12T12:07:21.63Z</time>
      </trkpt>
      <trkpt lat="42.54045" lon="2.23559">
        <ele>1272</ele>
        <time>2014-11-12T12:07:30.63Z</time>
      </trkpt>
      <trkpt lat="42.54047" lon="2.2357">
        <ele>1272</ele>
        <time>2014-11-12T12:07:38.73Z</time>
      </trkpt>
      <trkpt lat="42.5405" lon="2.2358">
        <ele>1270</ele>
        <time>2014-11-12T12:07:44.73Z</time>
      </trkpt>
      <trkpt lat="42.54048" lon="2.23589">
        <ele>1270</ele>
        <time>2014-11-12T12:07:49.73Z</time>
      </trkpt>
      <trkpt lat="42.54048" lon="2.23598">
        <ele>1269</ele>
        <time>2014-11-12T12:07:55.73Z</time>
      </trkpt>
      <trkpt lat="42.54048" lon="2.23608">
        <ele>1267</ele>
        <time>2014-11-12T12:08:02.73Z</time>
      </trkpt>
      <trkpt lat="42.54046" lon="2.23617">
        <ele>1267</ele>
        <time>2014-11-12T12:08:08.73Z</time>
      </trkpt>
      <trkpt lat="42.54043" lon="2.23625">
        <ele>1267</ele>
        <time>2014-11-12T12:08:14.73Z</time>
      </trkpt>
      <trkpt lat="42.54042" lon="2.23631">
        <ele>1267</ele>
        <time>2014-11-12T12:08:19.73Z</time>
      </trkpt>
      <trkpt lat="42.54039" lon="2.23639">
        <ele>1266</ele>
        <time>2014-11-12T12:08:26.73Z</time>
      </trkpt>
      <trkpt lat="42.54038" lon="2.23645">
        <ele>1265</ele>
        <time>2014-11-12T12:08:31.73Z</time>
      </trkpt>
      <trkpt lat="42.54035" lon="2.23651">
        <ele>1265</ele>
        <time>2014-11-12T12:08:37.73Z</time>
      </trkpt>
      <trkpt lat="42.5403" lon="2.23655">
        <ele>1263</ele>
        <time>2014-11-12T12:08:42.73Z</time>
      </trkpt>
      <trkpt lat="42.54027" lon="2.23663">
        <ele>1263</ele>
        <time>2014-11-12T12:08:48.73Z</time>
      </trkpt>
      <trkpt lat="42.54024" lon="2.23668">
        <ele>1261</ele>
        <time>2014-11-12T12:08:53.73Z</time>
      </trkpt>
      <trkpt lat="42.5402" lon="2.23674">
        <ele>1260.0800128</ele>
        <time>2014-11-12T12:09:00.73Z</time>
      </trkpt>
      <trkpt lat="42.54016" lon="2.23677">
        <ele>1259</ele>
        <time>2014-11-12T12:09:05.73Z</time>
      </trkpt>
      <trkpt lat="42.54013" lon="2.23681">
        <ele>1258.5400064</ele>
        <time>2014-11-12T12:09:10.73Z</time>
      </trkpt>
      <trkpt lat="42.54009" lon="2.23688">
        <ele>1258</ele>
        <time>2014-11-12T12:09:16.73Z</time>
      </trkpt>
      <trkpt lat="42.54007" lon="2.23694">
        <ele>1257</ele>
        <time>2014-11-12T12:09:21.73Z</time>
      </trkpt>
      <trkpt lat="42.54004" lon="2.23702">
        <ele>1257</ele>
        <time>2014-11-12T12:09:27.73Z</time>
      </trkpt>
      <trkpt lat="42.54001" lon="2.2371">
        <ele>1255</ele>
        <time>2014-11-12T12:09:33.73Z</time>
      </trkpt>
      <trkpt lat="42.53998" lon="2.23717">
        <ele>1255</ele>
        <time>2014-11-12T12:09:39.73Z</time>
      </trkpt>
      <trkpt lat="42.53995" lon="2.23724">
        <ele>1253</ele>
        <time>2014-11-12T12:09:45.73Z</time>
      </trkpt>
      <trkpt lat="42.53992" lon="2.23732">
        <ele>1252</ele>
        <time>2014-11-12T12:09:51.73Z</time>
      </trkpt>
      <trkpt lat="42.53989" lon="2.2374">
        <ele>1252</ele>
        <time>2014-11-12T12:09:57.73Z</time>
      </trkpt>
      <trkpt lat="42.53987" lon="2.23746">
        <ele>1250</ele>
        <time>2014-11-12T12:10:02.73Z</time>
      </trkpt>
      <trkpt lat="42.53987" lon="2.23752">
        <ele>1250</ele>
        <time>2014-11-12T12:10:07.73Z</time>
      </trkpt>
      <trkpt lat="42.53988" lon="2.23759">
        <ele>1249</ele>
        <time>2014-11-12T12:10:13.73Z</time>
      </trkpt>
      <trkpt lat="42.53989" lon="2.23766">
        <ele>1249</ele>
        <time>2014-11-12T12:10:19.73Z</time>
      </trkpt>
      <trkpt lat="42.53991" lon="2.23774">
        <ele>1247</ele>
        <time>2014-11-12T12:10:26.73Z</time>
      </trkpt>
      <trkpt lat="42.53992" lon="2.23781">
        <ele>1245</ele>
        <time>2014-11-12T12:10:32.73Z</time>
      </trkpt>
      <trkpt lat="42.53992" lon="2.23789">
        <ele>1245</ele>
        <time>2014-11-12T12:10:39.73Z</time>
      </trkpt>
      <trkpt lat="42.53993" lon="2.23796">
        <ele>1244</ele>
        <time>2014-11-12T12:10:44.73Z</time>
      </trkpt>
      <trkpt lat="42.53993" lon="2.23803">
        <ele>1243.089118698</ele>
        <time>2014-11-12T12:10:50.73Z</time>
      </trkpt>
      <trkpt lat="42.53994" lon="2.23809">
        <ele>1242</ele>
        <time>2014-11-12T12:10:55.73Z</time>
      </trkpt>
      <trkpt lat="42.53996" lon="2.23816">
        <ele>1241.0800128</ele>
        <time>2014-11-12T12:11:00.73Z</time>
      </trkpt>
      <trkpt lat="42.53996" lon="2.23823">
        <ele>1240</ele>
        <time>2014-11-12T12:11:06.73Z</time>
      </trkpt>
      <trkpt lat="42.53999" lon="2.23829">
        <ele>1239</ele>
        <time>2014-11-12T12:11:12.73Z</time>
      </trkpt>
      <trkpt lat="42.54001" lon="2.23835">
        <ele>1239</ele>
        <time>2014-11-12T12:11:17.73Z</time>
      </trkpt>
      <trkpt lat="42.54002" lon="2.23838">
        <ele>1238.5400064</ele>
        <time>2014-11-12T12:11:20.73Z</time>
      </trkpt>
      <trkpt lat="42.54006" lon="2.23844">
        <ele>1238</ele>
        <time>2014-11-12T12:11:29.73Z</time>
      </trkpt>
      <trkpt lat="42.54007" lon="2.2385">
        <ele>1234</ele>
        <time>2014-11-12T12:11:36.73Z</time>
      </trkpt>
      <trkpt lat="42.54007" lon="2.23859">
        <ele>1233</ele>
        <time>2014-11-12T12:14:59.73Z</time>
      </trkpt>
      <trkpt lat="42.54009" lon="2.23867">
        <ele>1233</ele>
        <time>2014-11-12T12:15:07.73Z</time>
      </trkpt>
      <trkpt lat="42.54012" lon="2.23873">
        <ele>1233</ele>
        <time>2014-11-12T12:15:15.73Z</time>
      </trkpt>
      <trkpt lat="42.54013" lon="2.23883">
        <ele>1231</ele>
        <time>2014-11-12T12:15:23.73Z</time>
      </trkpt>
      <trkpt lat="42.54014" lon="2.23892">
        <ele>1230.5400064</ele>
        <time>2014-11-12T12:15:30.73Z</time>
      </trkpt>
      <trkpt lat="42.54017" lon="2.239">
        <ele>1230</ele>
        <time>2014-11-12T12:15:37.73Z</time>
      </trkpt>
      <trkpt lat="42.54022" lon="2.23913">
        <ele>1226</ele>
        <time>2014-11-12T12:15:48.73Z</time>
      </trkpt>
      <trkpt lat="42.54024" lon="2.23922">
        <ele>1225</ele>
        <time>2014-11-12T12:15:56.73Z</time>
      </trkpt>
      <trkpt lat="42.54026" lon="2.23933">
        <ele>1223</ele>
        <time>2014-11-12T12:16:04.73Z</time>
      </trkpt>
      <trkpt lat="42.54028" lon="2.23942">
        <ele>1222</ele>
        <time>2014-11-12T12:16:11.83Z</time>
      </trkpt>
      <trkpt lat="42.54031" lon="2.23953">
        <ele>1221.64</ele>
        <time>2014-11-12T12:16:20.63Z</time>
      </trkpt>
      <trkpt lat="42.54035" lon="2.23963">
        <ele>1221</ele>
        <time>2014-11-12T12:16:28.63Z</time>
      </trkpt>
      <trkpt lat="42.54037" lon="2.23972">
        <ele>1220</ele>
        <time>2014-11-12T12:16:35.63Z</time>
      </trkpt>
      <trkpt lat="42.54038" lon="2.23982">
        <ele>1218</ele>
        <time>2014-11-12T12:16:41.83Z</time>
      </trkpt>
      <trkpt lat="42.54039" lon="2.2399">
        <ele>1218</ele>
        <time>2014-11-12T12:16:47.83Z</time>
      </trkpt>
      <trkpt lat="42.54041" lon="2.23998">
        <ele>1217</ele>
        <time>2014-11-12T12:16:54.83Z</time>
      </trkpt>
      <trkpt lat="42.54042" lon="2.24006">
        <ele>1217</ele>
        <time>2014-11-12T12:16:59.83Z</time>
      </trkpt>
      <trkpt lat="42.54042" lon="2.24013">
        <ele>1213</ele>
        <time>2014-11-12T12:17:06.83Z</time>
      </trkpt>
      <trkpt lat="42.54044" lon="2.2402">
        <ele>1212</ele>
        <time>2014-11-12T12:17:15.83Z</time>
      </trkpt>
      <trkpt lat="42.54047" lon="2.24028">
        <ele>1210</ele>
        <time>2014-11-12T12:17:22.83Z</time>
      </trkpt>
      <trkpt lat="42.54047" lon="2.24036">
        <ele>1210</ele>
        <time>2014-11-12T12:17:28.83Z</time>
      </trkpt>
      <trkpt lat="42.54049" lon="2.24042">
        <ele>1208</ele>
        <time>2014-11-12T12:17:33.83Z</time>
      </trkpt>
      <trkpt lat="42.54052" lon="2.24048">
        <ele>1208</ele>
        <time>2014-11-12T12:17:39.83Z</time>
      </trkpt>
      <trkpt lat="42.54054" lon="2.24053">
        <ele>1206</ele>
        <time>2014-11-12T12:17:44.83Z</time>
      </trkpt>
      <trkpt lat="42.54056" lon="2.2406">
        <ele>1204</ele>
        <time>2014-11-12T12:17:51.83Z</time>
      </trkpt>
      <trkpt lat="42.54058" lon="2.24068">
        <ele>1203</ele>
        <time>2014-11-12T12:17:57.83Z</time>
      </trkpt>
      <trkpt lat="42.5406" lon="2.24075">
        <ele>1201</ele>
        <time>2014-11-12T12:18:02.83Z</time>
      </trkpt>
      <trkpt lat="42.54064" lon="2.24081">
        <ele>1201</ele>
        <time>2014-11-12T12:18:08.83Z</time>
      </trkpt>
      <trkpt lat="42.54067" lon="2.24088">
        <ele>1200</ele>
        <time>2014-11-12T12:18:15.83Z</time>
      </trkpt>
      <trkpt lat="42.54067" lon="2.24094">
        <ele>1198.32</ele>
        <time>2014-11-12T12:18:20.83Z</time>
      </trkpt>
      <trkpt lat="42.54068" lon="2.24101">
        <ele>1196</ele>
        <time>2014-11-12T12:18:26.83Z</time>
      </trkpt>
      <trkpt lat="42.54069" lon="2.24106">
        <ele>1195</ele>
        <time>2014-11-12T12:18:31.83Z</time>
      </trkpt>
      <trkpt lat="42.54069" lon="2.24113">
        <ele>1195</ele>
        <time>2014-11-12T12:18:36.83Z</time>
      </trkpt>
      <trkpt lat="42.54066" lon="2.2412">
        <ele>1194</ele>
        <time>2014-11-12T12:18:41.83Z</time>
      </trkpt>
      <trkpt lat="42.54064" lon="2.24123">
        <ele>1194</ele>
        <time>2014-11-12T12:18:44.83Z</time>
      </trkpt>
      <trkpt lat="42.54062" lon="2.24127">
        <ele>1194</ele>
        <time>2014-11-12T12:18:48.83Z</time>
      </trkpt>
      <trkpt lat="42.54059" lon="2.24133">
        <ele>1190.44</ele>
        <time>2014-11-12T12:18:55.83Z</time>
      </trkpt>
      <trkpt lat="42.54057" lon="2.2414">
        <ele>1189</ele>
        <time>2014-11-12T12:19:03.83Z</time>
      </trkpt>
      <trkpt lat="42.5406" lon="2.24147">
        <ele>1188.44</ele>
        <time>2014-11-12T12:19:10.83Z</time>
      </trkpt>
      <trkpt lat="42.54066" lon="2.24149">
        <ele>1188</ele>
        <time>2014-11-12T12:19:17.64Z</time>
      </trkpt>
      <trkpt lat="42.54071" lon="2.24149">
        <ele>1186</ele>
        <time>2014-11-12T12:19:22.57Z</time>
      </trkpt>
      <trkpt lat="42.54076" lon="2.24149">
        <ele>1186</ele>
        <time>2014-11-12T12:19:27.83Z</time>
      </trkpt>
      <trkpt lat="42.54082" lon="2.24149">
        <ele>1185</ele>
        <time>2014-11-12T12:19:33.64Z</time>
      </trkpt>
      <trkpt lat="42.54089" lon="2.24149">
        <ele>1185</ele>
        <time>2014-11-12T12:19:39.83Z</time>
      </trkpt>
      <trkpt lat="42.54094" lon="2.24148">
        <ele>1183</ele>
        <time>2014-11-12T12:19:43.83Z</time>
      </trkpt>
      <trkpt lat="42.54098" lon="2.24146">
        <ele>1183</ele>
        <time>2014-11-12T12:19:48.83Z</time>
      </trkpt>
      <trkpt lat="42.54103" lon="2.24141">
        <ele>1182</ele>
        <time>2014-11-12T12:19:54.83Z</time>
      </trkpt>
      <trkpt lat="42.54106" lon="2.24138">
        <ele>1182</ele>
        <time>2014-11-12T12:19:58.83Z</time>
      </trkpt>
      <trkpt lat="42.5411" lon="2.24134">
        <ele>1178</ele>
        <time>2014-11-12T12:20:03.83Z</time>
      </trkpt>
      <trkpt lat="42.54113" lon="2.2413">
        <ele>1178</ele>
        <time>2014-11-12T12:20:08.83Z</time>
      </trkpt>
      <trkpt lat="42.54117" lon="2.24128">
        <ele>1178</ele>
        <time>2014-11-12T12:20:13.83Z</time>
      </trkpt>
      <trkpt lat="42.54121" lon="2.24124">
        <ele>1178</ele>
        <time>2014-11-12T12:20:17.83Z</time>
      </trkpt>
      <trkpt lat="42.54125" lon="2.24117">
        <ele>1176</ele>
        <time>2014-11-12T12:20:24.83Z</time>
      </trkpt>
      <trkpt lat="42.54129" lon="2.24114">
        <ele>1176</ele>
        <time>2014-11-12T12:20:29.83Z</time>
      </trkpt>
      <trkpt lat="42.54134" lon="2.24114">
        <ele>1175</ele>
        <time>2014-11-12T12:20:36.84Z</time>
      </trkpt>
      <trkpt lat="42.54137" lon="2.24121">
        <ele>1173</ele>
        <time>2014-11-12T12:20:43.83Z</time>
      </trkpt>
      <trkpt lat="42.5414" lon="2.24131">
        <ele>1172</ele>
        <time>2014-11-12T12:20:51.83Z</time>
      </trkpt>
      <trkpt lat="42.54144" lon="2.24138">
        <ele>1172</ele>
        <time>2014-11-12T12:20:57.83Z</time>
      </trkpt>
      <trkpt lat="42.54148" lon="2.24145">
        <ele>1170</ele>
        <time>2014-11-12T12:21:06.83Z</time>
      </trkpt>
      <trkpt lat="42.5415" lon="2.24151">
        <ele>1170</ele>
        <time>2014-11-12T12:21:12.83Z</time>
      </trkpt>
      <trkpt lat="42.54153" lon="2.24158">
        <ele>1170</ele>
        <time>2014-11-12T12:21:17.83Z</time>
      </trkpt>
      <trkpt lat="42.54154" lon="2.24165">
        <ele>1169</ele>
        <time>2014-11-12T12:21:21.83Z</time>
      </trkpt>
      <trkpt lat="42.54155" lon="2.24172">
        <ele>1169</ele>
        <time>2014-11-12T12:21:25.83Z</time>
      </trkpt>
      <trkpt lat="42.54154" lon="2.2418">
        <ele>1168.44</ele>
        <time>2014-11-12T12:21:30.83Z</time>
      </trkpt>
      <trkpt lat="42.54154" lon="2.24186">
        <ele>1168</ele>
        <time>2014-11-12T12:21:33.83Z</time>
      </trkpt>
      <trkpt lat="42.54154" lon="2.24193">
        <ele>1168</ele>
        <time>2014-11-12T12:21:37.83Z</time>
      </trkpt>
      <trkpt lat="42.54153" lon="2.24199">
        <ele>1167.44</ele>
        <time>2014-11-12T12:21:40.83Z</time>
      </trkpt>
      <trkpt lat="42.54152" lon="2.24206">
        <ele>1167</ele>
        <time>2014-11-12T12:21:44.83Z</time>
      </trkpt>
      <trkpt lat="42.54151" lon="2.24211">
        <ele>1167</ele>
        <time>2014-11-12T12:21:47.83Z</time>
      </trkpt>
      <trkpt lat="42.5415" lon="2.24216">
        <ele>1167</ele>
        <time>2014-11-12T12:21:50.83Z</time>
      </trkpt>
      <trkpt lat="42.54149" lon="2.24221">
        <ele>1167</ele>
        <time>2014-11-12T12:21:53.83Z</time>
      </trkpt>
      <trkpt lat="42.54147" lon="2.24226">
        <ele>1167</ele>
        <time>2014-11-12T12:21:56.83Z</time>
      </trkpt>
      <trkpt lat="42.54145" lon="2.24233">
        <ele>1165.88</ele>
        <time>2014-11-12T12:22:00.83Z</time>
      </trkpt>
      <trkpt lat="42.54144" lon="2.24238">
        <ele>1165</ele>
        <time>2014-11-12T12:22:03.83Z</time>
      </trkpt>
      <trkpt lat="42.54142" lon="2.24243">
        <ele>1165</ele>
        <time>2014-11-12T12:22:06.83Z</time>
      </trkpt>
      <trkpt lat="42.5414" lon="2.24249">
        <ele>1165</ele>
        <time>2014-11-12T12:22:10.83Z</time>
      </trkpt>
      <trkpt lat="42.54139" lon="2.24256">
        <ele>1165</ele>
        <time>2014-11-12T12:22:14.83Z</time>
      </trkpt>
      <trkpt lat="42.54136" lon="2.24262">
        <ele>1165</ele>
        <time>2014-11-12T12:22:18.83Z</time>
      </trkpt>
      <trkpt lat="42.54135" lon="2.24266">
        <ele>1165</ele>
        <time>2014-11-12T12:22:21.83Z</time>
      </trkpt>
      <trkpt lat="42.54133" lon="2.24271">
        <ele>1165</ele>
        <time>2014-11-12T12:22:24.83Z</time>
      </trkpt>
      <trkpt lat="42.54131" lon="2.24275">
        <ele>1165</ele>
        <time>2014-11-12T12:22:27.83Z</time>
      </trkpt>
      <trkpt lat="42.54128" lon="2.24279">
        <ele>1165</ele>
        <time>2014-11-12T12:22:30.83Z</time>
      </trkpt>
      <trkpt lat="42.54124" lon="2.24284">
        <ele>1165</ele>
        <time>2014-11-12T12:22:34.73Z</time>
      </trkpt>
      <trkpt lat="42.5412" lon="2.24288">
        <ele>1165</ele>
        <time>2014-11-12T12:22:38.73Z</time>
      </trkpt>
      <trkpt lat="42.54115" lon="2.2429">
        <ele>1164</ele>
        <time>2014-11-12T12:22:42.73Z</time>
      </trkpt>
      <trkpt lat="42.5411" lon="2.2429">
        <ele>1164</ele>
        <time>2014-11-12T12:22:46.73Z</time>
      </trkpt>
      <trkpt lat="42.54105" lon="2.2429">
        <ele>1163.5400064</ele>
        <time>2014-11-12T12:22:50.73Z</time>
      </trkpt>
      <trkpt lat="42.54101" lon="2.24293">
        <ele>1163</ele>
        <time>2014-11-12T12:22:55.73Z</time>
      </trkpt>
      <trkpt lat="42.54102" lon="2.24299">
        <ele>1161</ele>
        <time>2014-11-12T12:23:01.73Z</time>
      </trkpt>
      <trkpt lat="42.54106" lon="2.24303">
        <ele>1161</ele>
        <time>2014-11-12T12:23:05.73Z</time>
      </trkpt>
      <trkpt lat="42.5411" lon="2.24304">
        <ele>1161</ele>
        <time>2014-11-12T12:23:09.73Z</time>
      </trkpt>
      <trkpt lat="42.54116" lon="2.24305">
        <ele>1161</ele>
        <time>2014-11-12T12:23:14.73Z</time>
      </trkpt>
      <trkpt lat="42.54119" lon="2.24306">
        <ele>1161</ele>
        <time>2014-11-12T12:23:17.73Z</time>
      </trkpt>
      <trkpt lat="42.54123" lon="2.24306">
        <ele>1160.5400064</ele>
        <time>2014-11-12T12:23:20.73Z</time>
      </trkpt>
      <trkpt lat="42.54126" lon="2.24305">
        <ele>1160</ele>
        <time>2014-11-12T12:23:23.73Z</time>
      </trkpt>
      <trkpt lat="42.5413" lon="2.24305">
        <ele>1160</ele>
        <time>2014-11-12T12:23:26.73Z</time>
      </trkpt>
      <trkpt lat="42.54133" lon="2.24303">
        <ele>1160</ele>
        <time>2014-11-12T12:23:29.73Z</time>
      </trkpt>
      <trkpt lat="42.54136" lon="2.24301">
        <ele>1160</ele>
        <time>2014-11-12T12:23:32.73Z</time>
      </trkpt>
      <trkpt lat="42.5414" lon="2.24299">
        <ele>1160</ele>
        <time>2014-11-12T12:23:35.73Z</time>
      </trkpt>
      <trkpt lat="42.54143" lon="2.24297">
        <ele>1160</ele>
        <time>2014-11-12T12:23:38.73Z</time>
      </trkpt>
      <trkpt lat="42.54146" lon="2.24296">
        <ele>1158</ele>
        <time>2014-11-12T12:23:41.73Z</time>
      </trkpt>
      <trkpt lat="42.54149" lon="2.24294">
        <ele>1158</ele>
        <time>2014-11-12T12:23:44.73Z</time>
      </trkpt>
      <trkpt lat="42.54153" lon="2.24292">
        <ele>1158</ele>
        <time>2014-11-12T12:23:47.73Z</time>
      </trkpt>
      <trkpt lat="42.54156" lon="2.24291">
        <ele>1157.545459247</ele>
        <time>2014-11-12T12:23:50.73Z</time>
      </trkpt>
      <trkpt lat="42.5416" lon="2.2429">
        <ele>1157</ele>
        <time>2014-11-12T12:23:53.73Z</time>
      </trkpt>
      <trkpt lat="42.54164" lon="2.24289">
        <ele>1157</ele>
        <time>2014-11-12T12:23:56.73Z</time>
      </trkpt>
      <trkpt lat="42.54167" lon="2.24288">
        <ele>1157</ele>
        <time>2014-11-12T12:23:59.73Z</time>
      </trkpt>
      <trkpt lat="42.54171" lon="2.24287">
        <ele>1156</ele>
        <time>2014-11-12T12:24:02.73Z</time>
      </trkpt>
      <trkpt lat="42.54175" lon="2.24285">
        <ele>1156</ele>
        <time>2014-11-12T12:24:05.73Z</time>
      </trkpt>
      <trkpt lat="42.54178" lon="2.24283">
        <ele>1156</ele>
        <time>2014-11-12T12:24:08.73Z</time>
      </trkpt>
      <trkpt lat="42.54181" lon="2.2428">
        <ele>1156</ele>
        <time>2014-11-12T12:24:11.73Z</time>
      </trkpt>
      <trkpt lat="42.54184" lon="2.24277">
        <ele>1156</ele>
        <time>2014-11-12T12:24:14.73Z</time>
      </trkpt>
      <trkpt lat="42.54187" lon="2.24273">
        <ele>1155.5400064</ele>
        <time>2014-11-12T12:24:17.73Z</time>
      </trkpt>
      <trkpt lat="42.54185" lon="2.24278">
        <ele>1154</ele>
        <time>2014-11-12T12:24:26.73Z</time>
      </trkpt>
      <trkpt lat="42.54182" lon="2.24284">
        <ele>1155</ele>
        <time>2014-11-12T12:24:31.73Z</time>
      </trkpt>
      <trkpt lat="42.5418" lon="2.2429">
        <ele>1155</ele>
        <time>2014-11-12T12:24:40.73Z</time>
      </trkpt>
      <trkpt lat="42.54178" lon="2.24294">
        <ele>1155</ele>
        <time>2014-11-12T12:24:44.73Z</time>
      </trkpt>
      <trkpt lat="42.54175" lon="2.24299">
        <ele>1155</ele>
        <time>2014-11-12T12:24:48.73Z</time>
      </trkpt>
      <trkpt lat="42.54172" lon="2.24303">
        <ele>1153</ele>
        <time>2014-11-12T12:24:52.73Z</time>
      </trkpt>
      <trkpt lat="42.54168" lon="2.24308">
        <ele>1153</ele>
        <time>2014-11-12T12:24:56.73Z</time>
      </trkpt>
      <trkpt lat="42.54165" lon="2.24312">
        <ele>1152.5400064</ele>
        <time>2014-11-12T12:25:00.73Z</time>
      </trkpt>
      <trkpt lat="42.54161" lon="2.24318">
        <ele>1152</ele>
        <time>2014-11-12T12:25:05.73Z</time>
      </trkpt>
      <trkpt lat="42.54157" lon="2.24322">
        <ele>1152</ele>
        <time>2014-11-12T12:25:09.73Z</time>
      </trkpt>
      <trkpt lat="42.54154" lon="2.24327">
        <ele>1152</ele>
        <time>2014-11-12T12:25:13.73Z</time>
      </trkpt>
      <trkpt lat="42.54149" lon="2.24331">
        <ele>1152</ele>
        <time>2014-11-12T12:25:17.73Z</time>
      </trkpt>
      <trkpt lat="42.54145" lon="2.24334">
        <ele>1151</ele>
        <time>2014-11-12T12:25:21.73Z</time>
      </trkpt>
      <trkpt lat="42.54141" lon="2.24338">
        <ele>1151</ele>
        <time>2014-11-12T12:25:25.73Z</time>
      </trkpt>
      <trkpt lat="42.54137" lon="2.24342">
        <ele>1151</ele>
        <time>2014-11-12T12:25:30.73Z</time>
      </trkpt>
      <trkpt lat="42.54133" lon="2.24344">
        <ele>1151</ele>
        <time>2014-11-12T12:25:34.73Z</time>
      </trkpt>
      <trkpt lat="42.54129" lon="2.24345">
        <ele>1151</ele>
        <time>2014-11-12T12:25:37.73Z</time>
      </trkpt>
      <trkpt lat="42.54126" lon="2.24347">
        <ele>1150.444443008</ele>
        <time>2014-11-12T12:25:40.83Z</time>
      </trkpt>
      <trkpt lat="42.54121" lon="2.24352">
        <ele>1150</ele>
        <time>2014-11-12T12:25:47.83Z</time>
      </trkpt>
      <trkpt lat="42.54119" lon="2.24359">
        <ele>1149</ele>
        <time>2014-11-12T12:25:53.83Z</time>
      </trkpt>
      <trkpt lat="42.54117" lon="2.24365">
        <ele>1149</ele>
        <time>2014-11-12T12:25:58.83Z</time>
      </trkpt>
      <trkpt lat="42.54116" lon="2.24372">
        <ele>1146</ele>
        <time>2014-11-12T12:26:04.83Z</time>
      </trkpt>
      <trkpt lat="42.54114" lon="2.24379">
        <ele>1145</ele>
        <time>2014-11-12T12:26:11.83Z</time>
      </trkpt>
      <trkpt lat="42.5411" lon="2.24385">
        <ele>1145</ele>
        <time>2014-11-12T12:26:17.83Z</time>
      </trkpt>
      <trkpt lat="42.54108" lon="2.2439">
        <ele>1142</ele>
        <time>2014-11-12T12:26:23.83Z</time>
      </trkpt>
      <trkpt lat="42.54106" lon="2.24394">
        <ele>1141</ele>
        <time>2014-11-12T12:26:28.83Z</time>
      </trkpt>
      <trkpt lat="42.54104" lon="2.244">
        <ele>1140</ele>
        <time>2014-11-12T12:26:33.83Z</time>
      </trkpt>
      <trkpt lat="42.54102" lon="2.24403">
        <ele>1140</ele>
        <time>2014-11-12T12:26:37.83Z</time>
      </trkpt>
      <trkpt lat="42.541" lon="2.24406">
        <ele>1139</ele>
        <time>2014-11-12T12:26:41.83Z</time>
      </trkpt>
      <trkpt lat="42.54096" lon="2.24407">
        <ele>1139</ele>
        <time>2014-11-12T12:26:45.83Z</time>
      </trkpt>
      <trkpt lat="42.54092" lon="2.24409">
        <ele>1138.44</ele>
        <time>2014-11-12T12:26:50.83Z</time>
      </trkpt>
      <trkpt lat="42.54089" lon="2.24413">
        <ele>1138</ele>
        <time>2014-11-12T12:26:54.83Z</time>
      </trkpt>
      <trkpt lat="42.54083" lon="2.24418">
        <ele>1135</ele>
        <time>2014-11-12T12:27:01.83Z</time>
      </trkpt>
      <trkpt lat="42.54079" lon="2.24422">
        <ele>1135</ele>
        <time>2014-11-12T12:27:06.57Z</time>
      </trkpt>
      <trkpt lat="42.54076" lon="2.24425">
        <ele>1134.44</ele>
        <time>2014-11-12T12:27:10.83Z</time>
      </trkpt>
      <trkpt lat="42.54072" lon="2.24427">
        <ele>1134</ele>
        <time>2014-11-12T12:27:15.83Z</time>
      </trkpt>
      <trkpt lat="42.54069" lon="2.24429">
        <ele>1134</ele>
        <time>2014-11-12T12:27:19.83Z</time>
      </trkpt>
      <trkpt lat="42.54064" lon="2.24431">
        <ele>1133</ele>
        <time>2014-11-12T12:27:28.83Z</time>
      </trkpt>
      <trkpt lat="42.54058" lon="2.24434">
        <ele>1132</ele>
        <time>2014-11-12T12:27:38.83Z</time>
      </trkpt>
      <trkpt lat="42.54053" lon="2.24434">
        <ele>1132</ele>
        <time>2014-11-12T12:27:46.83Z</time>
      </trkpt>
      <trkpt lat="42.54053" lon="2.24441">
        <ele>1130</ele>
        <time>2014-11-12T12:27:53.83Z</time>
      </trkpt>
      <trkpt lat="42.54058" lon="2.2445">
        <ele>1126</ele>
        <time>2014-11-12T12:28:03.83Z</time>
      </trkpt>
      <trkpt lat="42.54059" lon="2.24456">
        <ele>1126</ele>
        <time>2014-11-12T12:28:09.83Z</time>
      </trkpt>
      <trkpt lat="42.54053" lon="2.24456">
        <ele>1125</ele>
        <time>2014-11-12T12:28:17.83Z</time>
      </trkpt>
      <trkpt lat="42.54049" lon="2.24456">
        <ele>1123</ele>
        <time>2014-11-12T12:28:21.83Z</time>
      </trkpt>
      <trkpt lat="42.54043" lon="2.24452">
        <ele>1123</ele>
        <time>2014-11-12T12:28:27.83Z</time>
      </trkpt>
      <trkpt lat="42.54037" lon="2.24446">
        <ele>1123</ele>
        <time>2014-11-12T12:28:34.83Z</time>
      </trkpt>
      <trkpt lat="42.54032" lon="2.24442">
        <ele>1123</ele>
        <time>2014-11-12T12:28:39.83Z</time>
      </trkpt>
      <trkpt lat="42.54025" lon="2.24436">
        <ele>1120.44</ele>
        <time>2014-11-12T12:28:50.83Z</time>
      </trkpt>
      <trkpt lat="42.54022" lon="2.24427">
        <ele>1119</ele>
        <time>2014-11-12T12:29:03.83Z</time>
      </trkpt>
      <trkpt lat="42.54015" lon="2.2442">
        <ele>1118</ele>
        <time>2014-11-12T12:29:13.83Z</time>
      </trkpt>
      <trkpt lat="42.54009" lon="2.24415">
        <ele>1116</ele>
        <time>2014-11-12T12:29:34.83Z</time>
      </trkpt>
      <trkpt lat="42.54002" lon="2.24408">
        <ele>1114</ele>
        <time>2014-11-12T12:29:44.83Z</time>
      </trkpt>
      <trkpt lat="42.53997" lon="2.24401">
        <ele>1111</ele>
        <time>2014-11-12T12:29:52.83Z</time>
      </trkpt>
      <trkpt lat="42.53989" lon="2.24399">
        <ele>1108</ele>
        <time>2014-11-12T12:30:01.83Z</time>
      </trkpt>
      <trkpt lat="42.53982" lon="2.24397">
        <ele>1108</ele>
        <time>2014-11-12T12:30:10.83Z</time>
      </trkpt>
      <trkpt lat="42.53975" lon="2.24397">
        <ele>1108</ele>
        <time>2014-11-12T12:30:19.83Z</time>
      </trkpt>
      <trkpt lat="42.53968" lon="2.24394">
        <ele>1102</ele>
        <time>2014-11-12T12:30:33.83Z</time>
      </trkpt>
      <trkpt lat="42.53957" lon="2.24393">
        <ele>1101</ele>
        <time>2014-11-12T12:30:51.83Z</time>
      </trkpt>
      <trkpt lat="42.53947" lon="2.24396">
        <ele>1099</ele>
        <time>2014-11-12T12:31:02.83Z</time>
      </trkpt>
      <trkpt lat="42.53937" lon="2.24398">
        <ele>1097</ele>
        <time>2014-11-12T12:31:13.83Z</time>
      </trkpt>
      <trkpt lat="42.5393" lon="2.24401">
        <ele>1096</ele>
        <time>2014-11-12T12:31:22.83Z</time>
      </trkpt>
      <trkpt lat="42.53923" lon="2.24409">
        <ele>1095</ele>
        <time>2014-11-12T12:31:31.83Z</time>
      </trkpt>
      <trkpt lat="42.53918" lon="2.24414">
        <ele>1095</ele>
        <time>2014-11-12T12:31:38.83Z</time>
      </trkpt>
      <trkpt lat="42.53915" lon="2.24422">
        <ele>1091.44</ele>
        <time>2014-11-12T12:31:45.83Z</time>
      </trkpt>
      <trkpt lat="42.53911" lon="2.24427">
        <ele>1090</ele>
        <time>2014-11-12T12:31:52.83Z</time>
      </trkpt>
      <trkpt lat="42.53906" lon="2.2443">
        <ele>1090</ele>
        <time>2014-11-12T12:31:59.56Z</time>
      </trkpt>
      <trkpt lat="42.53899" lon="2.24432">
        <ele>1086</ele>
        <time>2014-11-12T12:32:08.83Z</time>
      </trkpt>
      <trkpt lat="42.53891" lon="2.24438">
        <ele>1083.88</ele>
        <time>2014-11-12T12:32:20.83Z</time>
      </trkpt>
      <trkpt lat="42.53882" lon="2.24439">
        <ele>1081.32</ele>
        <time>2014-11-12T12:32:30.83Z</time>
      </trkpt>
      <trkpt lat="42.53876" lon="2.24436">
        <ele>1079</ele>
        <time>2014-11-12T12:32:39.83Z</time>
      </trkpt>
      <trkpt lat="42.5387" lon="2.24436">
        <ele>1077</ele>
        <time>2014-11-12T12:32:47.83Z</time>
      </trkpt>
      <trkpt lat="42.53864" lon="2.24436">
        <ele>1074.44</ele>
        <time>2014-11-12T12:32:55.83Z</time>
      </trkpt>
      <trkpt lat="42.53858" lon="2.2444">
        <ele>1072</ele>
        <time>2014-11-12T12:33:05.83Z</time>
      </trkpt>
      <trkpt lat="42.53853" lon="2.24445">
        <ele>1070</ele>
        <time>2014-11-12T12:33:15.83Z</time>
      </trkpt>
      <trkpt lat="42.53848" lon="2.24448">
        <ele>1069</ele>
        <time>2014-11-12T12:33:22.83Z</time>
      </trkpt>
      <trkpt lat="42.5384" lon="2.24448">
        <ele>1065.44</ele>
        <time>2014-11-12T12:33:35.83Z</time>
      </trkpt>
      <trkpt lat="42.53833" lon="2.24448">
        <ele>1064</ele>
        <time>2014-11-12T12:33:43.83Z</time>
      </trkpt>
      <trkpt lat="42.53829" lon="2.24446">
        <ele>1063</ele>
        <time>2014-11-12T12:33:49.83Z</time>
      </trkpt>
      <trkpt lat="42.53822" lon="2.24449">
        <ele>1062</ele>
        <time>2014-11-12T12:33:59.83Z</time>
      </trkpt>
      <trkpt lat="42.53816" lon="2.24451">
        <ele>1058</ele>
        <time>2014-11-12T12:34:07.83Z</time>
      </trkpt>
      <trkpt lat="42.53809" lon="2.24456">
        <ele>1058</ele>
        <time>2014-11-12T12:34:16.83Z</time>
      </trkpt>
      <trkpt lat="42.53805" lon="2.2446">
        <ele>1055</ele>
        <time>2014-11-12T12:34:22.83Z</time>
      </trkpt>
      <trkpt lat="42.53802" lon="2.24468">
        <ele>1054</ele>
        <time>2014-11-12T12:34:29.83Z</time>
      </trkpt>
      <trkpt lat="42.53799" lon="2.24476">
        <ele>1053</ele>
        <time>2014-11-12T12:34:36.83Z</time>
      </trkpt>
      <trkpt lat="42.53796" lon="2.24486">
        <ele>1052</ele>
        <time>2014-11-12T12:34:47.83Z</time>
      </trkpt>
      <trkpt lat="42.53792" lon="2.24493">
        <ele>1050</ele>
        <time>2014-11-12T12:34:54.83Z</time>
      </trkpt>
      <trkpt lat="42.53791" lon="2.245">
        <ele>1050</ele>
        <time>2014-11-12T12:34:59.83Z</time>
      </trkpt>
      <trkpt lat="42.53789" lon="2.24505">
        <ele>1046</ele>
        <time>2014-11-12T12:35:03.83Z</time>
      </trkpt>
      <trkpt lat="42.53787" lon="2.24512">
        <ele>1045</ele>
        <time>2014-11-12T12:35:09.56Z</time>
      </trkpt>
      <trkpt lat="42.53784" lon="2.24519">
        <ele>1044</ele>
        <time>2014-11-12T12:35:14.83Z</time>
      </trkpt>
      <trkpt lat="42.53783" lon="2.24528">
        <ele>1042.88</ele>
        <time>2014-11-12T12:35:20.83Z</time>
      </trkpt>
      <trkpt lat="42.53784" lon="2.24536">
        <ele>1041</ele>
        <time>2014-11-12T12:35:28.83Z</time>
      </trkpt>
      <trkpt lat="42.53782" lon="2.24544">
        <ele>1040</ele>
        <time>2014-11-12T12:35:33.83Z</time>
      </trkpt>
      <trkpt lat="42.53785" lon="2.24553">
        <ele>1040</ele>
        <time>2014-11-12T12:35:42.83Z</time>
      </trkpt>
      <trkpt lat="42.53786" lon="2.24561">
        <ele>1040</ele>
        <time>2014-11-12T12:35:48.83Z</time>
      </trkpt>
      <trkpt lat="42.53785" lon="2.24574">
        <ele>1040</ele>
        <time>2014-11-12T12:35:57.83Z</time>
      </trkpt>
      <trkpt lat="42.53779" lon="2.24584">
        <ele>1036</ele>
        <time>2014-11-12T12:36:06.83Z</time>
      </trkpt>
      <trkpt lat="42.53776" lon="2.24594">
        <ele>1035</ele>
        <time>2014-11-12T12:36:16.83Z</time>
      </trkpt>
      <trkpt lat="42.53775" lon="2.24603">
        <ele>1034</ele>
        <time>2014-11-12T12:36:22.83Z</time>
      </trkpt>
      <trkpt lat="42.53775" lon="2.24612">
        <ele>1032</ele>
        <time>2014-11-12T12:36:33.83Z</time>
      </trkpt>
      <trkpt lat="42.53776" lon="2.24618">
        <ele>1030</ele>
        <time>2014-11-12T12:36:38.83Z</time>
      </trkpt>
      <trkpt lat="42.53774" lon="2.2463">
        <ele>1028</ele>
        <time>2014-11-12T12:36:47.83Z</time>
      </trkpt>
      <trkpt lat="42.53773" lon="2.24639">
        <ele>1026</ele>
        <time>2014-11-12T12:37:15.83Z</time>
      </trkpt>
      <trkpt lat="42.53772" lon="2.24646">
        <ele>1025</ele>
        <time>2014-11-12T12:37:21.84Z</time>
      </trkpt>
      <trkpt lat="42.53771" lon="2.24653">
        <ele>1025</ele>
        <time>2014-11-12T12:37:26.83Z</time>
      </trkpt>
      <trkpt lat="42.5377" lon="2.2466">
        <ele>1022</ele>
        <time>2014-11-12T12:37:31.83Z</time>
      </trkpt>
      <trkpt lat="42.53769" lon="2.24667">
        <ele>1019</ele>
        <time>2014-11-12T12:37:36.83Z</time>
      </trkpt>
      <trkpt lat="42.53769" lon="2.24673">
        <ele>1018</ele>
        <time>2014-11-12T12:37:41.83Z</time>
      </trkpt>
      <trkpt lat="42.53769" lon="2.24683">
        <ele>1016</ele>
        <time>2014-11-12T12:37:49.83Z</time>
      </trkpt>
      <trkpt lat="42.53766" lon="2.24687">
        <ele>1015</ele>
        <time>2014-11-12T12:37:57.83Z</time>
      </trkpt>
      <trkpt lat="42.53765" lon="2.24692">
        <ele>1014</ele>
        <time>2014-11-12T12:38:01.83Z</time>
      </trkpt>
      <trkpt lat="42.53762" lon="2.24701">
        <ele>1014</ele>
        <time>2014-11-12T12:38:09.83Z</time>
      </trkpt>
      <trkpt lat="42.53761" lon="2.24703">
        <ele>1012</ele>
        <time>2014-11-12T12:38:11.83Z</time>
      </trkpt>
      <trkpt lat="42.53759" lon="2.24709">
        <ele>1012</ele>
        <time>2014-11-12T12:38:16.83Z</time>
      </trkpt>
      <trkpt lat="42.53756" lon="2.24713">
        <ele>1011.4000128</ele>
        <time>2014-11-12T12:38:20.57Z</time>
      </trkpt>
      <trkpt lat="42.53752" lon="2.24718">
        <ele>1010</ele>
        <time>2014-11-12T12:38:25.83Z</time>
      </trkpt>
      <trkpt lat="42.53748" lon="2.24722">
        <ele>1009</ele>
        <time>2014-11-12T12:38:31.83Z</time>
      </trkpt>
      <trkpt lat="42.53742" lon="2.24725">
        <ele>1009</ele>
        <time>2014-11-12T12:38:38.83Z</time>
      </trkpt>
      <trkpt lat="42.53737" lon="2.24729">
        <ele>1007</ele>
        <time>2014-11-12T12:38:43.83Z</time>
      </trkpt>
      <trkpt lat="42.53733" lon="2.24734">
        <ele>1007</ele>
        <time>2014-11-12T12:38:48.83Z</time>
      </trkpt>
      <trkpt lat="42.5373" lon="2.24738">
        <ele>1005</ele>
        <time>2014-11-12T12:38:53.83Z</time>
      </trkpt>
      <trkpt lat="42.53726" lon="2.24741">
        <ele>1005</ele>
        <time>2014-11-12T12:38:58.83Z</time>
      </trkpt>
      <trkpt lat="42.53722" lon="2.24745">
        <ele>1003</ele>
        <time>2014-11-12T12:39:03.83Z</time>
      </trkpt>
      <trkpt lat="42.5372" lon="2.24749">
        <ele>1003</ele>
        <time>2014-11-12T12:39:13.83Z</time>
      </trkpt>
      <trkpt lat="42.53715" lon="2.24752">
        <ele>1002</ele>
        <time>2014-11-12T12:39:37.83Z</time>
      </trkpt>
      <trkpt lat="42.53711" lon="2.24755">
        <ele>1001</ele>
        <time>2014-11-12T12:39:41.83Z</time>
      </trkpt>
      <trkpt lat="42.53705" lon="2.24761">
        <ele>1001</ele>
        <time>2014-11-12T12:39:49.83Z</time>
      </trkpt>
      <trkpt lat="42.53699" lon="2.24763">
        <ele>998</ele>
        <time>2014-11-12T12:39:54.83Z</time>
      </trkpt>
      <trkpt lat="42.53691" lon="2.24771">
        <ele>995</ele>
        <time>2014-11-12T12:40:03.83Z</time>
      </trkpt>
      <trkpt lat="42.53686" lon="2.24777">
        <ele>994.44</ele>
        <time>2014-11-12T12:40:10.83Z</time>
      </trkpt>
      <trkpt lat="42.53678" lon="2.24782">
        <ele>994</ele>
        <time>2014-11-12T12:40:18.83Z</time>
      </trkpt>
      <trkpt lat="42.53672" lon="2.24787">
        <ele>990.44</ele>
        <time>2014-11-12T12:40:25.83Z</time>
      </trkpt>
      <trkpt lat="42.53667" lon="2.24794">
        <ele>989</ele>
        <time>2014-11-12T12:40:32.83Z</time>
      </trkpt>
      <trkpt lat="42.53663" lon="2.24801">
        <ele>989</ele>
        <time>2014-11-12T12:40:39.83Z</time>
      </trkpt>
      <trkpt lat="42.53661" lon="2.2481">
        <ele>985</ele>
        <time>2014-11-12T12:40:47.83Z</time>
      </trkpt>
      <trkpt lat="42.53661" lon="2.24818">
        <ele>982</ele>
        <time>2014-11-12T12:40:52.83Z</time>
      </trkpt>
      <trkpt lat="42.53662" lon="2.24823">
        <ele>981</ele>
        <time>2014-11-12T12:40:56.83Z</time>
      </trkpt>
      <trkpt lat="42.53653" lon="2.24825">
        <ele>979</ele>
        <time>2014-11-12T12:41:10.83Z</time>
      </trkpt>
      <trkpt lat="42.53656" lon="2.24833">
        <ele>979</ele>
        <time>2014-11-12T12:41:19.83Z</time>
      </trkpt>
      <trkpt lat="42.53659" lon="2.24839">
        <ele>978</ele>
        <time>2014-11-12T12:41:26.83Z</time>
      </trkpt>
      <trkpt lat="42.53663" lon="2.24843">
        <ele>974.44</ele>
        <time>2014-11-12T12:41:35.83Z</time>
      </trkpt>
      <trkpt lat="42.5367" lon="2.24848">
        <ele>974</ele>
        <time>2014-11-12T12:41:45.83Z</time>
      </trkpt>
      <trkpt lat="42.53676" lon="2.24853">
        <ele>973</ele>
        <time>2014-11-12T12:41:51.83Z</time>
      </trkpt>
      <trkpt lat="42.5368" lon="2.24856">
        <ele>973</ele>
        <time>2014-11-12T12:41:57.83Z</time>
      </trkpt>
      <trkpt lat="42.53683" lon="2.24864">
        <ele>972</ele>
        <time>2014-11-12T12:44:26.83Z</time>
      </trkpt>
      <trkpt lat="42.53678" lon="2.24858">
        <ele>971</ele>
        <time>2014-11-12T12:44:44.83Z</time>
      </trkpt>
      <trkpt lat="42.53675" lon="2.24853">
        <ele>971</ele>
        <time>2014-11-12T12:44:49.83Z</time>
      </trkpt>
      <trkpt lat="42.53668" lon="2.24846">
        <ele>972</ele>
        <time>2014-11-12T12:44:57.83Z</time>
      </trkpt>
      <trkpt lat="42.53662" lon="2.24844">
        <ele>973</ele>
        <time>2014-11-12T12:45:06.83Z</time>
      </trkpt>
      <trkpt lat="42.53663" lon="2.24851">
        <ele>972</ele>
        <time>2014-11-12T12:49:52.83Z</time>
      </trkpt>
      <trkpt lat="42.53664" lon="2.24857">
        <ele>972</ele>
        <time>2014-11-12T12:49:59.83Z</time>
      </trkpt>
      <trkpt lat="42.53666" lon="2.24863">
        <ele>970</ele>
        <time>2014-11-12T12:50:06.83Z</time>
      </trkpt>
      <trkpt lat="42.53666" lon="2.2487">
        <ele>969</ele>
        <time>2014-11-12T12:50:12.83Z</time>
      </trkpt>
      <trkpt lat="42.53668" lon="2.24876">
        <ele>969</ele>
        <time>2014-11-12T12:50:17.83Z</time>
      </trkpt>
      <trkpt lat="42.5367" lon="2.24889">
        <ele>967</ele>
        <time>2014-11-12T12:50:27.83Z</time>
      </trkpt>
      <trkpt lat="42.53672" lon="2.24895">
        <ele>964</ele>
        <time>2014-11-12T12:50:33.83Z</time>
      </trkpt>
      <trkpt lat="42.53675" lon="2.24902">
        <ele>963</ele>
        <time>2014-11-12T12:50:39.83Z</time>
      </trkpt>
      <trkpt lat="42.5368" lon="2.24899">
        <ele>962</ele>
        <time>2014-11-12T12:50:45.83Z</time>
      </trkpt>
      <trkpt lat="42.53674" lon="2.24904">
        <ele>962</ele>
        <time>2014-11-12T12:51:42.83Z</time>
      </trkpt>
      <trkpt lat="42.53674" lon="2.24914">
        <ele>961</ele>
        <time>2014-11-12T12:51:52.83Z</time>
      </trkpt>
      <trkpt lat="42.53677" lon="2.24924">
        <ele>960.44</ele>
        <time>2014-11-12T12:51:59.83Z</time>
      </trkpt>
      <trkpt lat="42.53679" lon="2.24934">
        <ele>956</ele>
        <time>2014-11-12T12:52:07.83Z</time>
      </trkpt>
      <trkpt lat="42.53679" lon="2.24939">
        <ele>954</ele>
        <time>2014-11-12T12:52:11.73Z</time>
      </trkpt>
      <trkpt lat="42.53681" lon="2.24948">
        <ele>953</ele>
        <time>2014-11-12T12:52:17.73Z</time>
      </trkpt>
      <trkpt lat="42.53682" lon="2.24954">
        <ele>951</ele>
        <time>2014-11-12T12:52:21.73Z</time>
      </trkpt>
      <trkpt lat="42.53683" lon="2.2496">
        <ele>950.5400064</ele>
        <time>2014-11-12T12:52:25.73Z</time>
      </trkpt>
      <trkpt lat="42.53685" lon="2.24967">
        <ele>949.0800128</ele>
        <time>2014-11-12T12:52:30.73Z</time>
      </trkpt>
      <trkpt lat="42.53693" lon="2.24972">
        <ele>946</ele>
        <time>2014-11-12T12:53:20.73Z</time>
      </trkpt>
      <trkpt lat="42.53697" lon="2.24971">
        <ele>946</ele>
        <time>2014-11-12T12:53:24.73Z</time>
      </trkpt>
      <trkpt lat="42.537" lon="2.24972">
        <ele>946</ele>
        <time>2014-11-12T12:53:27.73Z</time>
      </trkpt>
      <trkpt lat="42.53703" lon="2.24976">
        <ele>945</ele>
        <time>2014-11-12T12:53:31.73Z</time>
      </trkpt>
      <trkpt lat="42.537" lon="2.24975">
        <ele>944</ele>
        <time>2014-11-12T12:54:32.73Z</time>
      </trkpt>
      <trkpt lat="42.53694" lon="2.24978">
        <ele>944</ele>
        <time>2014-11-12T12:54:46.73Z</time>
      </trkpt>
      <trkpt lat="42.53687" lon="2.24981">
        <ele>944</ele>
        <time>2014-11-12T12:54:55.73Z</time>
      </trkpt>
      <trkpt lat="42.53681" lon="2.24987">
        <ele>942</ele>
        <time>2014-11-12T12:55:05.73Z</time>
      </trkpt>
      <trkpt lat="42.53677" lon="2.24991">
        <ele>941</ele>
        <time>2014-11-12T12:55:26.73Z</time>
      </trkpt>
      <trkpt lat="42.53673" lon="2.24987">
        <ele>941</ele>
        <time>2014-11-12T12:58:21.73Z</time>
      </trkpt>
      <trkpt lat="42.53677" lon="2.24984">
        <ele>940</ele>
        <time>2014-11-12T13:05:08.73Z</time>
      </trkpt>
      <trkpt lat="42.53676" lon="2.24985">
        <ele>941</ele>
        <time>2014-11-12T13:06:03.67Z</time>
      </trkpt>
    </trkseg>
  </trk>
</gpx>